Wetterdaten: Mittwoch, 03.07.2019
Datum Zeit Temp. A. Pool Temp. Temp. 5cm Feuchte A. Luftdruck Regen Wind Richtung Richtung Sonnenschein ET UV Solar Taupunkt Windchill Windben Empfang
03.07.2019 00:00 19,3 C 26,7 C 18,3 C 79 % 1016,0 hPa 0,0 l/m 6,7 km/h (2 Bft) SW 214 0 min 0,000 mm 0,0 UV-I 0 W/m 15,6 C 19,2 C 8,0 km/h (2 Bft) 95,65 %
03.07.2019 00:02 19,3 C 26,7 C 18,3 C 79 % 1016,0 hPa 0,0 l/m 4,8 km/h (1 Bft) SW 220 0 min 0,000 mm 0,0 UV-I 0 W/m 15,6 C 19,3 C 8,0 km/h (2 Bft) 94,59 %
03.07.2019 00:04 19,3 C 26,7 C 18,3 C 79 % 1016,0 hPa 0,0 l/m 5,3 km/h (1 Bft) S-SW 213 0 min 0,000 mm 0,0 UV-I 0 W/m 15,6 C 19,3 C 8,0 km/h (2 Bft) 94,00 %
03.07.2019 00:06 19,3 C 26,7 C 18,3 C 80 % 1016,0 hPa 0,0 l/m 4,7 km/h (1 Bft) S-SW 205 0 min 0,000 mm 0,0 UV-I 0 W/m 15,8 C 19,3 C 8,0 km/h (2 Bft) 95,83 %
03.07.2019 00:08 19,1 C 26,1 C 18,3 C 80 % 1016,0 hPa 0,0 l/m 5,7 km/h (1 Bft) S-SW 213 0 min 0,000 mm 0,0 UV-I 0 W/m 15,6 C 19,1 C 8,0 km/h (2 Bft) 94,00 %
03.07.2019 00:10 18,8 C 26,7 C 17,8 C 81 % 1016,0 hPa 0,0 l/m 5,8 km/h (2 Bft) S-SW 211 0 min 0,000 mm 0,0 UV-I 0 W/m 15,5 C 18,8 C 8,0 km/h (2 Bft) 95,74 %
03.07.2019 00:12 18,7 C 26,1 C 17,8 C 82 % 1016,0 hPa 0,0 l/m 6,0 km/h (2 Bft) S-SW 208 0 min 0,000 mm 0,0 UV-I 0 W/m 15,6 C 18,7 C 8,0 km/h (2 Bft) 95,74 %
03.07.2019 00:14 18,7 C 26,1 C 17,8 C 82 % 1016,0 hPa 0,0 l/m 6,5 km/h (2 Bft) S-SW 207 0 min 0,000 mm 0,0 UV-I 0 W/m 15,6 C 18,7 C 9,7 km/h (2 Bft) 93,62 %
03.07.2019 00:16 18,8 C 26,1 C 17,8 C 82 % 1016,0 hPa 0,0 l/m 6,1 km/h (2 Bft) S-SW 201 0 min 0,000 mm 0,0 UV-I 0 W/m 15,7 C 18,8 C 9,7 km/h (2 Bft) 93,62 %
03.07.2019 00:18 18,9 C 26,1 C 18,3 C 81 % 1016,0 hPa 0,0 l/m 5,8 km/h (2 Bft) S-SW 200 0 min 0,000 mm 0,0 UV-I 0 W/m 15,6 C 18,9 C 6,4 km/h (2 Bft) 97,87 %
03.07.2019 00:20 18,9 C 26,1 C 18,3 C 81 % 1016,0 hPa 0,0 l/m 4,7 km/h (1 Bft) S-SW 200 0 min 0,000 mm 0,0 UV-I 0 W/m 15,6 C 18,9 C 8,0 km/h (2 Bft) 95,74 %
03.07.2019 00:22 18,9 C 26,1 C 18,3 C 81 % 1015,9 hPa 0,0 l/m 4,3 km/h (1 Bft) S-SW 198 0 min 0,000 mm 0,0 UV-I 0 W/m 15,6 C 18,9 C 6,4 km/h (2 Bft) 95,74 %
03.07.2019 00:24 18,7 C 26,1 C 17,8 C 82 % 1016,0 hPa 0,0 l/m 4,7 km/h (1 Bft) S-SW 198 0 min 0,000 mm 0,0 UV-I 0 W/m 15,6 C 18,7 C 6,4 km/h (2 Bft) 95,74 %
03.07.2019 00:26 18,5 C 26,1 C 17,8 C 82 % 1016,0 hPa 0,0 l/m 5,4 km/h (1 Bft) S-SW 195 0 min 0,000 mm 0,0 UV-I 0 W/m 15,4 C 18,5 C 6,4 km/h (2 Bft) 95,74 %
03.07.2019 00:28 18,3 C 26,1 C 17,2 C 83 % 1016,0 hPa 0,0 l/m 4,9 km/h (1 Bft) S-SW 194 0 min 0,000 mm 0,0 UV-I 0 W/m 15,4 C 18,3 C 6,4 km/h (2 Bft) 93,62 %
03.07.2019 00:30 18,3 C 26,1 C 17,2 C 83 % 1016,0 hPa 0,0 l/m 4,7 km/h (1 Bft) S-SW 196 0 min 0,000 mm 0,0 UV-I 0 W/m 15,4 C 18,3 C 6,4 km/h (2 Bft) 97,87 %
03.07.2019 00:32 18,2 C 26,1 C 16,7 C 84 % 1016,0 hPa 0,0 l/m 3,9 km/h (1 Bft) S-SW 196 0 min 0,000 mm 0,0 UV-I 0 W/m 15,4 C 18,2 C 4,8 km/h (1 Bft) 93,62 %
03.07.2019 00:34 18,1 C 26,1 C 16,7 C 84 % 1016,0 hPa 0,0 l/m 3,8 km/h (1 Bft) S-SW 198 0 min 0,000 mm 0,0 UV-I 0 W/m 15,4 C 18,1 C 4,8 km/h (1 Bft) 97,87 %
03.07.2019 00:36 18,1 C 26,1 C 16,7 C 84 % 1016,0 hPa 0,0 l/m 3,6 km/h (1 Bft) S-SW 210 0 min 0,000 mm 0,0 UV-I 0 W/m 15,4 C 18,1 C 4,8 km/h (1 Bft) 95,74 %
03.07.2019 00:38 18,1 C 26,1 C 16,1 C 84 % 1016,0 hPa 0,0 l/m 3,6 km/h (1 Bft) S-SW 210 0 min 0,000 mm 0,0 UV-I 0 W/m 15,4 C 18,1 C 4,8 km/h (1 Bft) 95,74 %
03.07.2019 00:40 18,1 C 26,1 C 16,1 C 85 % 1016,1 hPa 0,0 l/m 3,4 km/h (1 Bft) S-SW 210 0 min 0,000 mm 0,0 UV-I 0 W/m 15,5 C 18,1 C 4,8 km/h (1 Bft) 100,00 %
03.07.2019 00:42 18,1 C 26,1 C 16,1 C 85 % 1016,1 hPa 0,0 l/m 4,0 km/h (1 Bft) S-SW 210 0 min 0,000 mm 0,0 UV-I 0 W/m 15,5 C 18,1 C 4,8 km/h (1 Bft) 97,87 %
03.07.2019 00:44 18,1 C 26,1 C 16,1 C 85 % 1016,1 hPa 0,0 l/m 4,2 km/h (1 Bft) S-SW 210 0 min 0,000 mm 0,0 UV-I 0 W/m 15,5 C 18,1 C 4,8 km/h (1 Bft) 100,00 %
03.07.2019 00:46 18,1 C 26,1 C 16,1 C 85 % 1016,1 hPa 0,0 l/m 3,0 km/h (1 Bft) S-SW 210 0 min 0,000 mm 0,0 UV-I 0 W/m 15,5 C 18,1 C 4,8 km/h (1 Bft) 97,87 %
03.07.2019 00:48 17,9 C 26,1 C 16,1 C 85 % 1016,2 hPa 0,0 l/m 1,4 km/h (1 Bft) S-SW 211 0 min 0,000 mm 0,0 UV-I 0 W/m 15,3 C 17,9 C 3,2 km/h (1 Bft) 100,00 %
03.07.2019 00:50 17,6 C 26,1 C 16,1 C 84 % 1016,4 hPa 0,0 l/m 12,7 km/h (3 Bft) N-NO 13 0 min 0,000 mm 0,0 UV-I 0 W/m 14,9 C 15,0 C 17,7 km/h (3 Bft) 96,00 %
03.07.2019 00:52 17,1 C 26,1 C 16,1 C 87 % 1016,4 hPa 0,0 l/m 7,8 km/h (2 Bft) N-NO 22 0 min 0,000 mm 0,0 UV-I 0 W/m 14,9 C 16,4 C 11,3 km/h (2 Bft) 100,00 %
03.07.2019 00:54 17,0 C 26,1 C 16,1 C 88 % 1016,3 hPa 0,0 l/m 6,8 km/h (2 Bft) N-NW 348 0 min 0,000 mm 0,0 UV-I 0 W/m 15,0 C 16,8 C 12,9 km/h (3 Bft) 100,00 %
03.07.2019 00:56 17,6 C 26,1 C 16,1 C 88 % 1016,4 hPa 0,0 l/m 1,3 km/h (1 Bft) N-NW 348 0 min 0,000 mm 0,0 UV-I 0 W/m 15,6 C 17,6 C 3,2 km/h (1 Bft) 100,00 %
03.07.2019 00:58 17,9 C 26,1 C 16,7 C 85 % 1016,4 hPa 0,0 l/m 5,9 km/h (2 Bft) N 360 0 min 0,000 mm 0,0 UV-I 0 W/m 15,3 C 17,9 C 9,7 km/h (2 Bft) 100,00 %
03.07.2019 01:00 18,1 C 26,1 C 16,7 C 85 % 1016,4 hPa 0,0 l/m 2,4 km/h (1 Bft) N 355 0 min 0,025 mm 0,0 UV-I 0 W/m 15,5 C 18,1 C 6,4 km/h (2 Bft) 97,87 %
03.07.2019 01:02 18,3 C 26,1 C 16,7 C 84 % 1016,4 hPa 0,0 l/m 2,5 km/h (1 Bft) N 355 0 min 0,000 mm 0,0 UV-I 0 W/m 15,5 C 18,3 C 4,8 km/h (1 Bft) 100,00 %
03.07.2019 01:04 18,7 C 26,1 C 16,7 C 82 % 1016,3 hPa 0,0 l/m 2,6 km/h (1 Bft) W-NW 296 0 min 0,000 mm 0,0 UV-I 0 W/m 15,6 C 18,7 C 4,8 km/h (1 Bft) 95,74 %
03.07.2019 01:06 18,9 C 26,1 C 16,7 C 81 % 1016,4 hPa 0,0 l/m 2,4 km/h (1 Bft) W-NW 295 0 min 0,000 mm 0,0 UV-I 0 W/m 15,6 C 18,9 C 4,8 km/h (1 Bft) 98,00 %
03.07.2019 01:08 19,0 C 26,1 C 16,7 C 80 % 1016,4 hPa 0,0 l/m 0,2 km/h (0 Bft) W-NW 295 0 min 0,000 mm 0,0 UV-I 0 W/m 15,5 C 19,0 C 1,6 km/h (1 Bft) 100,00 %
03.07.2019 01:10 19,0 C 26,1 C 16,7 C 80 % 1016,3 hPa 0,0 l/m 0,6 km/h (0 Bft) W-NW 295 0 min 0,000 mm 0,0 UV-I 0 W/m 15,5 C 19,0 C 3,2 km/h (1 Bft) 100,00 %
03.07.2019 01:12 18,9 C 26,1 C 16,7 C 80 % 1016,3 hPa 0,0 l/m 1,3 km/h (1 Bft) W-NW 294 0 min 0,000 mm 0,0 UV-I 0 W/m 15,4 C 18,9 C 3,2 km/h (1 Bft) 100,00 %
03.07.2019 01:14 18,7 C 26,1 C 16,7 C 81 % 1016,4 hPa 0,0 l/m 1,2 km/h (1 Bft) W-NW 295 0 min 0,000 mm 0,0 UV-I 0 W/m 15,4 C 18,7 C 3,2 km/h (1 Bft) 97,87 %
03.07.2019 01:16 18,2 C 26,1 C 16,7 C 82 % 1016,5 hPa 0,0 l/m 8,4 km/h (2 Bft) NO 46 0 min 0,000 mm 0,0 UV-I 0 W/m 15,1 C 17,3 C 17,7 km/h (3 Bft) 97,87 %
03.07.2019 01:18 17,8 C 26,1 C 16,7 C 84 % 1016,4 hPa 0,0 l/m 6,6 km/h (2 Bft) NO 40 0 min 0,000 mm 0,0 UV-I 0 W/m 15,1 C 17,7 C 9,7 km/h (2 Bft) 95,74 %
03.07.2019 01:20 17,6 C 26,1 C 16,1 C 85 % 1016,4 hPa 0,0 l/m 3,4 km/h (1 Bft) N 5 0 min 0,000 mm 0,0 UV-I 0 W/m 15,0 C 17,6 C 4,8 km/h (1 Bft) 96,00 %
03.07.2019 01:22 17,7 C 26,1 C 16,1 C 85 % 1016,4 hPa 0,0 l/m 4,5 km/h (1 Bft) NO 35 0 min 0,000 mm 0,0 UV-I 0 W/m 15,1 C 17,7 C 6,4 km/h (2 Bft) 95,83 %
03.07.2019 01:24 17,8 C 26,1 C 16,1 C 84 % 1016,5 hPa 0,0 l/m 4,6 km/h (1 Bft) NO 48 0 min 0,000 mm 0,0 UV-I 0 W/m 15,1 C 17,8 C 6,4 km/h (2 Bft) 97,87 %
03.07.2019 01:26 17,7 C 26,1 C 16,1 C 85 % 1016,5 hPa 0,0 l/m 2,8 km/h (1 Bft) NO 48 0 min 0,000 mm 0,0 UV-I 0 W/m 15,1 C 17,7 C 4,8 km/h (1 Bft) 98,00 %
03.07.2019 01:28 17,8 C 26,1 C 15,6 C 85 % 1016,4 hPa 0,0 l/m 0,4 km/h (0 Bft) NO 48 0 min 0,000 mm 0,0 UV-I 0 W/m 15,2 C 17,8 C 1,6 km/h (1 Bft) 95,74 %
03.07.2019 01:30 17,8 C 26,1 C 15,6 C 85 % 1016,4 hPa 0,0 l/m 0,8 km/h (0 Bft) NO 48 0 min 0,000 mm 0,0 UV-I 0 W/m 15,2 C 17,8 C 3,2 km/h (1 Bft) 98,00 %
03.07.2019 01:32 17,9 C 26,1 C 15,6 C 84 % 1016,4 hPa 0,0 l/m 2,7 km/h (1 Bft) NO 48 0 min 0,000 mm 0,0 UV-I 0 W/m 15,2 C 17,9 C 3,2 km/h (1 Bft) 94,29 %
03.07.2019 01:34 17,8 C 26,1 C 15,6 C 84 % 1016,4 hPa 0,0 l/m 3,4 km/h (1 Bft) NO 48 0 min 0,000 mm 0,0 UV-I 0 W/m 15,1 C 17,8 C 4,8 km/h (1 Bft) 97,92 %
03.07.2019 01:36 17,4 C 26,1 C 15,6 C 84 % 1016,4 hPa 0,0 l/m 2,5 km/h (1 Bft) NO 48 0 min 0,000 mm 0,0 UV-I 0 W/m 14,7 C 17,4 C 3,2 km/h (1 Bft) 97,87 %
03.07.2019 01:38 17,2 C 26,1 C 15,6 C 86 % 1016,3 hPa 0,0 l/m 2,4 km/h (1 Bft) NO 48 0 min 0,000 mm 0,0 UV-I 0 W/m 14,8 C 17,2 C 3,2 km/h (1 Bft) 97,87 %
03.07.2019 01:40 17,1 C 26,1 C 15,0 C 87 % 1016,3 hPa 0,0 l/m 1,4 km/h (1 Bft) NO 48 0 min 0,000 mm 0,0 UV-I 0 W/m 14,9 C 17,1 C 1,6 km/h (1 Bft) 97,87 %
03.07.2019 01:42 17,0 C 26,1 C 15,0 C 87 % 1016,3 hPa 0,0 l/m 2,2 km/h (1 Bft) NO 48 0 min 0,000 mm 0,0 UV-I 0 W/m 14,8 C 17,0 C 3,2 km/h (1 Bft) 93,62 %
03.07.2019 01:44 16,9 C 26,1 C 15,0 C 87 % 1016,3 hPa 0,0 l/m 2,0 km/h (1 Bft) NO 48 0 min 0,000 mm 0,0 UV-I 0 W/m 14,7 C 16,9 C 3,2 km/h (1 Bft) 100,00 %
03.07.2019 01:46 16,8 C 26,1 C 15,0 C 88 % 1016,3 hPa 0,0 l/m 2,9 km/h (1 Bft) NO 48 0 min 0,000 mm 0,0 UV-I 0 W/m 14,8 C 16,8 C 4,8 km/h (1 Bft) 100,00 %
03.07.2019 01:48 16,7 C 26,1 C 15,0 C 88 % 1016,3 hPa 0,0 l/m 2,8 km/h (1 Bft) NO 48 0 min 0,000 mm 0,0 UV-I 0 W/m 14,7 C 16,7 C 3,2 km/h (1 Bft) 100,00 %
03.07.2019 01:50 16,6 C 26,1 C 15,0 C 88 % 1016,3 hPa 0,0 l/m 2,1 km/h (1 Bft) NO 48 0 min 0,000 mm 0,0 UV-I 0 W/m 14,6 C 16,6 C 3,2 km/h (1 Bft) 100,00 %
03.07.2019 01:52 16,8 C 26,1 C 14,4 C 88 % 1016,3 hPa 0,0 l/m 2,7 km/h (1 Bft) NO 48 0 min 0,000 mm 0,0 UV-I 0 W/m 14,8 C 16,8 C 4,8 km/h (1 Bft) 98,00 %
03.07.2019 01:54 17,2 C 26,1 C 14,4 C 87 % 1016,3 hPa 0,0 l/m 2,6 km/h (1 Bft) NO 48 0 min 0,000 mm 0,0 UV-I 0 W/m 15,0 C 17,2 C 4,8 km/h (1 Bft) 98,00 %
03.07.2019 01:56 17,3 C 26,1 C 14,4 C 86 % 1016,3 hPa 0,0 l/m 3,2 km/h (1 Bft) NO 48 0 min 0,000 mm 0,0 UV-I 0 W/m 14,9 C 17,3 C 4,8 km/h (1 Bft) 97,87 %
03.07.2019 01:58 17,5 C 26,1 C 15,0 C 84 % 1016,4 hPa 0,0 l/m 2,5 km/h (1 Bft) O-NO 57 0 min 0,000 mm 0,0 UV-I 0 W/m 14,8 C 17,5 C 4,8 km/h (1 Bft) 95,74 %
03.07.2019 02:00 17,6 C 26,1 C 15,0 C 81 % 1016,4 hPa 0,0 l/m 4,4 km/h (1 Bft) O-NO 70 0 min 0,000 mm 0,0 UV-I 0 W/m 14,3 C 17,6 C 6,4 km/h (2 Bft) 95,74 %
03.07.2019 02:02 17,7 C 26,1 C 15,0 C 79 % 1016,4 hPa 0,0 l/m 4,1 km/h (1 Bft) O-NO 68 0 min 0,000 mm 0,0 UV-I 0 W/m 14,0 C 17,7 C 6,4 km/h (2 Bft) 97,44 %
03.07.2019 02:04 17,6 C 26,1 C 15,0 C 78 % 1016,4 hPa 0,0 l/m 5,2 km/h (1 Bft) O-NO 67 0 min 0,000 mm 0,0 UV-I 0 W/m 13,7 C 17,6 C 8,0 km/h (2 Bft) 94,00 %
03.07.2019 02:06 17,5 C 26,1 C 15,0 C 77 % 1016,4 hPa 0,0 l/m 6,2 km/h (2 Bft) O-NO 59 0 min 0,000 mm 0,0 UV-I 0 W/m 13,4 C 17,5 C 9,7 km/h (2 Bft) 96,00 %
03.07.2019 02:08 17,3 C 26,1 C 15,6 C 76 % 1016,4 hPa 0,0 l/m 6,3 km/h (2 Bft) NO 48 0 min 0,000 mm 0,0 UV-I 0 W/m 13,0 C 17,3 C 9,7 km/h (2 Bft) 93,62 %
03.07.2019 02:10 17,2 C 26,1 C 15,6 C 76 % 1016,3 hPa 0,0 l/m 6,3 km/h (2 Bft) NO 36 0 min 0,000 mm 0,0 UV-I 0 W/m 12,9 C 17,2 C 8,0 km/h (2 Bft) 95,74 %
03.07.2019 02:12 17,1 C 26,1 C 15,6 C 75 % 1016,3 hPa 0,0 l/m 5,5 km/h (1 Bft) NO 51 0 min 0,000 mm 0,0 UV-I 0 W/m 12,6 C 17,1 C 8,0 km/h (2 Bft) 93,62 %
03.07.2019 02:14 17,1 C 26,1 C 15,6 C 75 % 1016,4 hPa 0,0 l/m 3,8 km/h (1 Bft) NO 49 0 min 0,000 mm 0,0 UV-I 0 W/m 12,6 C 17,1 C 4,8 km/h (1 Bft) 95,74 %
03.07.2019 02:16 16,9 C 26,1 C 15,0 C 75 % 1016,3 hPa 0,0 l/m 4,1 km/h (1 Bft) NO 48 0 min 0,000 mm 0,0 UV-I 0 W/m 12,4 C 16,9 C 4,8 km/h (1 Bft) 95,74 %
03.07.2019 02:18 16,9 C 26,1 C 15,0 C 75 % 1016,4 hPa 0,0 l/m 4,8 km/h (1 Bft) NO 46 0 min 0,000 mm 0,0 UV-I 0 W/m 12,4 C 16,9 C 6,4 km/h (2 Bft) 95,74 %
03.07.2019 02:20 16,8 C 26,1 C 15,0 C 75 % 1016,4 hPa 0,0 l/m 6,2 km/h (2 Bft) NO 51 0 min 0,000 mm 0,0 UV-I 0 W/m 12,3 C 16,8 C 8,0 km/h (2 Bft) 95,74 %
03.07.2019 02:22 16,7 C 26,1 C 15,0 C 75 % 1016,3 hPa 0,0 l/m 7,7 km/h (2 Bft) NO 43 0 min 0,000 mm 0,0 UV-I 0 W/m 12,2 C 16,0 C 9,7 km/h (2 Bft) 93,62 %
03.07.2019 02:24 16,6 C 26,1 C 15,0 C 75 % 1016,3 hPa 0,0 l/m 8,2 km/h (2 Bft) NO 46 0 min 0,000 mm 0,0 UV-I 0 W/m 12,1 C 15,7 C 9,7 km/h (2 Bft) 97,14 %
03.07.2019 02:26 16,7 C 26,1 C 15,6 C 75 % 1016,4 hPa 0,0 l/m 6,5 km/h (2 Bft) NO 50 0 min 0,000 mm 0,0 UV-I 0 W/m 12,2 C 16,7 C 8,0 km/h (2 Bft) 94,00 %
03.07.2019 02:28 16,7 C 26,1 C 15,0 C 75 % 1016,4 hPa 0,0 l/m 6,5 km/h (2 Bft) NO 50 0 min 0,000 mm 0,0 UV-I 0 W/m 12,2 C 16,7 C 9,7 km/h (2 Bft) 95,74 %
03.07.2019 02:30 16,7 C 26,1 C 15,0 C 74 % 1016,4 hPa 0,0 l/m 6,2 km/h (2 Bft) O-NO 57 0 min 0,000 mm 0,0 UV-I 0 W/m 12,0 C 16,7 C 8,0 km/h (2 Bft) 95,74 %
03.07.2019 02:32 16,8 C 26,1 C 15,0 C 73 % 1016,3 hPa 0,0 l/m 6,6 km/h (2 Bft) NO 56 0 min 0,000 mm 0,0 UV-I 0 W/m 11,9 C 16,7 C 8,0 km/h (2 Bft) 93,62 %
03.07.2019 02:34 16,9 C 26,1 C 15,0 C 72 % 1016,3 hPa 0,0 l/m 4,8 km/h (1 Bft) NO 55 0 min 0,000 mm 0,0 UV-I 0 W/m 11,8 C 16,9 C 6,4 km/h (2 Bft) 95,83 %
03.07.2019 02:36 17,0 C 26,1 C 15,0 C 72 % 1016,4 hPa 0,0 l/m 4,7 km/h (1 Bft) O-NO 62 0 min 0,000 mm 0,0 UV-I 0 W/m 11,9 C 17,0 C 8,0 km/h (2 Bft) 95,74 %
03.07.2019 02:38 17,1 C 26,1 C 15,0 C 71 % 1016,4 hPa 0,0 l/m 4,4 km/h (1 Bft) NO 53 0 min 0,000 mm 0,0 UV-I 0 W/m 11,8 C 17,1 C 6,4 km/h (2 Bft) 95,74 %
03.07.2019 02:40 17,1 C 26,1 C 15,0 C 71 % 1016,4 hPa 0,0 l/m 4,1 km/h (1 Bft) O-NO 63 0 min 0,000 mm 0,0 UV-I 0 W/m 11,8 C 17,1 C 6,4 km/h (2 Bft) 96,00 %
03.07.2019 02:42 17,2 C 26,1 C 14,4 C 70 % 1016,5 hPa 0,0 l/m 3,4 km/h (1 Bft) O-NO 63 0 min 0,000 mm 0,0 UV-I 0 W/m 11,7 C 17,2 C 4,8 km/h (1 Bft) 95,74 %
03.07.2019 02:44 17,2 C 26,1 C 14,4 C 70 % 1016,4 hPa 0,0 l/m 3,6 km/h (1 Bft) O-NO 63 0 min 0,000 mm 0,0 UV-I 0 W/m 11,7 C 17,2 C 4,8 km/h (1 Bft) 93,62 %
03.07.2019 02:46 17,1 C 26,1 C 14,4 C 70 % 1016,4 hPa 0,0 l/m 3,8 km/h (1 Bft) O-NO 63 0 min 0,000 mm 0,0 UV-I 0 W/m 11,6 C 17,1 C 4,8 km/h (1 Bft) 93,62 %
03.07.2019 02:48 17,1 C 26,1 C 14,4 C 69 % 1016,5 hPa 0,0 l/m 3,7 km/h (1 Bft) O-NO 65 0 min 0,000 mm 0,0 UV-I 0 W/m 11,4 C 17,1 C 4,8 km/h (1 Bft) 98,00 %
03.07.2019 02:50 17,2 C 26,1 C 14,4 C 69 % 1016,5 hPa 0,0 l/m 3,1 km/h (1 Bft) O-NO 65 0 min 0,000 mm 0,0 UV-I 0 W/m 11,5 C 17,2 C 4,8 km/h (1 Bft) 95,74 %
03.07.2019 02:52 16,9 C 26,1 C 14,4 C 72 % 1016,5 hPa 0,0 l/m 3,1 km/h (1 Bft) O-NO 70 0 min 0,000 mm 0,0 UV-I 0 W/m 11,8 C 16,9 C 4,8 km/h (1 Bft) 97,37 %
03.07.2019 02:54 16,7 C 26,1 C 14,4 C 74 % 1016,5 hPa 0,0 l/m 3,4 km/h (1 Bft) O-NO 71 0 min 0,000 mm 0,0 UV-I 0 W/m 12,0 C 16,7 C 4,8 km/h (1 Bft) 95,74 %
03.07.2019 02:56 16,6 C 26,1 C 13,9 C 74 % 1016,5 hPa 0,0 l/m 3,2 km/h (1 Bft) O-NO 71 0 min 0,000 mm 0,0 UV-I 0 W/m 11,9 C 16,6 C 4,8 km/h (1 Bft) 97,92 %
03.07.2019 02:58 16,6 C 26,1 C 13,9 C 73 % 1016,5 hPa 0,0 l/m 2,7 km/h (1 Bft) O-NO 71 0 min 0,000 mm 0,0 UV-I 0 W/m 11,7 C 16,6 C 4,8 km/h (1 Bft) 97,87 %
03.07.2019 03:00 16,7 C 26,1 C 13,9 C 72 % 1016,5 hPa 0,0 l/m 2,0 km/h (1 Bft) O-NO 71 0 min 0,026 mm 0,0 UV-I 0 W/m 11,6 C 16,7 C 3,2 km/h (1 Bft) 95,74 %
03.07.2019 03:02 16,6 C 26,1 C 13,9 C 73 % 1016,5 hPa 0,0 l/m 3,4 km/h (1 Bft) O 94 0 min 0,000 mm 0,0 UV-I 0 W/m 11,7 C 16,6 C 4,8 km/h (1 Bft) 98,00 %
03.07.2019 03:04 16,6 C 26,1 C 13,9 C 72 % 1016,5 hPa 0,0 l/m 3,5 km/h (1 Bft) O 98 0 min 0,000 mm 0,0 UV-I 0 W/m 11,5 C 16,6 C 4,8 km/h (1 Bft) 98,00 %
03.07.2019 03:06 16,4 C 26,1 C 13,9 C 72 % 1016,5 hPa 0,0 l/m 3,9 km/h (1 Bft) O 98 0 min 0,000 mm 0,0 UV-I 0 W/m 11,3 C 16,4 C 6,4 km/h (2 Bft) 95,83 %
03.07.2019 03:08 16,4 C 26,1 C 14,4 C 73 % 1016,5 hPa 0,0 l/m 4,5 km/h (1 Bft) O-SO 102 0 min 0,000 mm 0,0 UV-I 0 W/m 11,5 C 16,4 C 6,4 km/h (2 Bft) 100,00 %
03.07.2019 03:10 16,4 C 26,1 C 14,4 C 73 % 1016,6 hPa 0,0 l/m 3,7 km/h (1 Bft) O-SO 107 0 min 0,000 mm 0,0 UV-I 0 W/m 11,5 C 16,4 C 4,8 km/h (1 Bft) 100,00 %
03.07.2019 03:12 16,5 C 26,1 C 14,4 C 72 % 1016,6 hPa 0,0 l/m 4,8 km/h (1 Bft) O-SO 106 0 min 0,000 mm 0,0 UV-I 0 W/m 11,4 C 16,5 C 6,4 km/h (2 Bft) 97,87 %
03.07.2019 03:14 16,6 C 26,1 C 14,4 C 71 % 1016,6 hPa 0,0 l/m 5,7 km/h (1 Bft) O 98 0 min 0,000 mm 0,0 UV-I 0 W/m 11,3 C 16,6 C 9,7 km/h (2 Bft) 100,00 %
03.07.2019 03:16 16,7 C 26,1 C 14,4 C 71 % 1016,6 hPa 0,0 l/m 5,6 km/h (1 Bft) O-SO 109 0 min 0,000 mm 0,0 UV-I 0 W/m 11,4 C 16,7 C 9,7 km/h (2 Bft) 97,92 %
03.07.2019 03:18 16,7 C 26,1 C 14,4 C 70 % 1016,6 hPa 0,0 l/m 5,6 km/h (1 Bft) O-SO 105 0 min 0,000 mm 0,0 UV-I 0 W/m 11,2 C 16,7 C 9,7 km/h (2 Bft) 100,00 %
03.07.2019 03:20 16,7 C 26,1 C 15,0 C 70 % 1016,6 hPa 0,0 l/m 6,2 km/h (2 Bft) O-SO 107 0 min 0,000 mm 0,0 UV-I 0 W/m 11,2 C 16,7 C 9,7 km/h (2 Bft) 100,00 %
03.07.2019 03:22 16,7 C 26,1 C 15,0 C 70 % 1016,6 hPa 0,0 l/m 5,7 km/h (1 Bft) O-SO 113 0 min 0,000 mm 0,0 UV-I 0 W/m 11,2 C 16,7 C 9,7 km/h (2 Bft) 100,00 %
03.07.2019 03:24 16,7 C 26,1 C 14,4 C 70 % 1016,6 hPa 0,0 l/m 5,4 km/h (1 Bft) O 92 0 min 0,000 mm 0,0 UV-I 0 W/m 11,2 C 16,7 C 9,7 km/h (2 Bft) 100,00 %
03.07.2019 03:26 16,7 C 26,1 C 14,4 C 70 % 1016,6 hPa 0,0 l/m 4,2 km/h (1 Bft) O 87 0 min 0,000 mm 0,0 UV-I 0 W/m 11,2 C 16,7 C 8,0 km/h (2 Bft) 100,00 %
03.07.2019 03:28 16,7 C 26,1 C 15,0 C 69 % 1016,6 hPa 0,0 l/m 5,2 km/h (1 Bft) O-NO 76 0 min 0,000 mm 0,0 UV-I 0 W/m 11,0 C 16,7 C 6,4 km/h (2 Bft) 95,74 %
03.07.2019 03:30 16,7 C 26,1 C 14,4 C 70 % 1016,6 hPa 0,0 l/m 5,8 km/h (2 Bft) O-NO 65 0 min 0,000 mm 0,0 UV-I 0 W/m 11,2 C 16,7 C 9,7 km/h (2 Bft) 98,00 %
03.07.2019 03:32 16,7 C 26,1 C 15,0 C 70 % 1016,6 hPa 0,0 l/m 5,0 km/h (1 Bft) O-NO 68 0 min 0,000 mm 0,0 UV-I 0 W/m 11,2 C 16,7 C 8,0 km/h (2 Bft) 100,00 %
03.07.2019 03:34 16,3 C 26,1 C 15,0 C 72 % 1016,6 hPa 0,0 l/m 5,2 km/h (1 Bft) O-NO 76 0 min 0,000 mm 0,0 UV-I 0 W/m 11,2 C 16,3 C 6,4 km/h (2 Bft) 100,00 %
03.07.2019 03:36 16,1 C 26,1 C 14,4 C 73 % 1016,5 hPa 0,0 l/m 5,2 km/h (1 Bft) O-NO 76 0 min 0,000 mm 0,0 UV-I 0 W/m 11,3 C 16,1 C 11,3 km/h (2 Bft) 100,00 %
03.07.2019 03:38 16,0 C 26,1 C 14,4 C 74 % 1016,5 hPa 0,0 l/m 5,9 km/h (2 Bft) O-NO 64 0 min 0,000 mm 0,0 UV-I 0 W/m 11,4 C 16,0 C 9,7 km/h (2 Bft) 100,00 %
03.07.2019 03:40 15,8 C 26,1 C 14,4 C 75 % 1016,5 hPa 0,0 l/m 6,1 km/h (2 Bft) O-NO 75 0 min 0,000 mm 0,0 UV-I 0 W/m 11,4 C 15,8 C 8,0 km/h (2 Bft) 97,87 %
03.07.2019 03:42 15,8 C 26,1 C 14,4 C 74 % 1016,6 hPa 0,0 l/m 5,6 km/h (1 Bft) O-NO 65 0 min 0,000 mm 0,0 UV-I 0 W/m 11,2 C 15,8 C 9,7 km/h (2 Bft) 100,00 %
03.07.2019 03:44 15,9 C 26,1 C 14,4 C 73 % 1016,5 hPa 0,0 l/m 5,2 km/h (1 Bft) O-NO 62 0 min 0,000 mm 0,0 UV-I 0 W/m 11,1 C 15,9 C 8,0 km/h (2 Bft) 95,74 %
03.07.2019 03:46 15,9 C 26,1 C 14,4 C 73 % 1016,5 hPa 0,0 l/m 5,5 km/h (1 Bft) O 82 0 min 0,000 mm 0,0 UV-I 0 W/m 11,1 C 15,9 C 9,7 km/h (2 Bft) 100,00 %
03.07.2019 03:48 15,9 C 26,1 C 14,4 C 73 % 1016,5 hPa 0,0 l/m 4,9 km/h (1 Bft) O-NO 61 0 min 0,000 mm 0,0 UV-I 0 W/m 11,1 C 15,9 C 8,0 km/h (2 Bft) 100,00 %
03.07.2019 03:50 15,9 C 26,1 C 14,4 C 73 % 1016,5 hPa 0,0 l/m 4,7 km/h (1 Bft) NO 52 0 min 0,000 mm 0,0 UV-I 0 W/m 11,1 C 15,9 C 8,0 km/h (2 Bft) 100,00 %
03.07.2019 03:52 15,8 C 26,1 C 14,4 C 73 % 1016,5 hPa 0,0 l/m 5,4 km/h (1 Bft) O-NO 60 0 min 0,000 mm 0,0 UV-I 0 W/m 11,0 C 15,8 C 8,0 km/h (2 Bft) 100,00 %
03.07.2019 03:54 15,8 C 26,1 C 13,9 C 73 % 1016,6 hPa 0,0 l/m 4,7 km/h (1 Bft) O-NO 62 0 min 0,000 mm 0,0 UV-I 0 W/m 11,0 C 15,8 C 6,4 km/h (2 Bft) 100,00 %
03.07.2019 03:56 15,9 C 26,1 C 14,4 C 72 % 1016,6 hPa 0,0 l/m 3,7 km/h (1 Bft) O-NO 67 0 min 0,000 mm 0,0 UV-I 0 W/m 10,9 C 15,9 C 4,8 km/h (1 Bft) 95,74 %
03.07.2019 03:58 15,9 C 26,1 C 13,9 C 73 % 1016,6 hPa 0,0 l/m 3,7 km/h (1 Bft) O-NO 67 0 min 0,000 mm 0,0 UV-I 0 W/m 11,1 C 15,9 C 6,4 km/h (2 Bft) 97,87 %
03.07.2019 04:00 15,8 C 25,6 C 13,9 C 73 % 1016,6 hPa 0,0 l/m 3,7 km/h (1 Bft) O-NO 67 0 min 0,025 mm 0,0 UV-I 0 W/m 11,0 C 15,8 C 6,4 km/h (2 Bft) 100,00 %
03.07.2019 04:02 15,8 C 25,6 C 13,9 C 74 % 1016,6 hPa 0,0 l/m 4,4 km/h (1 Bft) O-NO 62 0 min 0,000 mm 0,0 UV-I 0 W/m 11,2 C 15,8 C 6,4 km/h (2 Bft) 97,30 %
03.07.2019 04:04 15,7 C 25,6 C 13,9 C 74 % 1016,6 hPa 0,0 l/m 4,8 km/h (1 Bft) O-NO 57 0 min 0,000 mm 0,0 UV-I 0 W/m 11,1 C 15,7 C 6,4 km/h (2 Bft) 97,87 %
03.07.2019 04:06 15,6 C 25,6 C 13,9 C 74 % 1016,6 hPa 0,0 l/m 4,3 km/h (1 Bft) O-NO 57 0 min 0,000 mm 0,0 UV-I 0 W/m 11,0 C 15,6 C 6,4 km/h (2 Bft) 97,87 %
03.07.2019 04:08 15,6 C 25,6 C 13,9 C 74 % 1016,6 hPa 0,0 l/m 4,1 km/h (1 Bft) O-NO 61 0 min 0,000 mm 0,0 UV-I 0 W/m 11,0 C 15,6 C 4,8 km/h (1 Bft) 95,74 %
03.07.2019 04:10 15,7 C 25,6 C 13,9 C 73 % 1016,7 hPa 0,0 l/m 3,7 km/h (1 Bft) O-NO 58 0 min 0,000 mm 0,0 UV-I 0 W/m 10,9 C 15,7 C 6,4 km/h (2 Bft) 97,87 %
03.07.2019 04:12 15,8 C 25,6 C 14,4 C 73 % 1016,7 hPa 0,0 l/m 4,0 km/h (1 Bft) O-NO 65 0 min 0,000 mm 0,0 UV-I 0 W/m 11,0 C 15,8 C 6,4 km/h (2 Bft) 97,87 %
03.07.2019 04:14 15,9 C 25,6 C 14,4 C 72 % 1016,7 hPa 0,0 l/m 4,4 km/h (1 Bft) O 82 0 min 0,000 mm 0,0 UV-I 0 W/m 10,9 C 15,9 C 6,4 km/h (2 Bft) 97,87 %
03.07.2019 04:16 16,0 C 25,6 C 15,0 C 72 % 1016,6 hPa 0,0 l/m 5,2 km/h (1 Bft) O 80 0 min 0,000 mm 0,0 UV-I 0 W/m 11,0 C 16,0 C 8,0 km/h (2 Bft) 97,87 %
03.07.2019 04:18 16,1 C 25,6 C 15,0 C 72 % 1016,7 hPa 0,0 l/m 4,8 km/h (1 Bft) NO 39 0 min 0,000 mm 0,0 UV-I 0 W/m 11,0 C 16,1 C 6,4 km/h (2 Bft) 95,74 %
03.07.2019 04:20 16,2 C 25,6 C 15,0 C 71 % 1016,7 hPa 0,0 l/m 4,2 km/h (1 Bft) O 80 0 min 0,000 mm 0,0 UV-I 0 W/m 10,9 C 16,2 C 8,0 km/h (2 Bft) 94,74 %
03.07.2019 04:22 16,1 C 25,6 C 15,0 C 72 % 1016,8 hPa 0,0 l/m 5,0 km/h (1 Bft) NO 51 0 min 0,000 mm 0,0 UV-I 0 W/m 11,0 C 16,1 C 9,7 km/h (2 Bft) 95,74 %
03.07.2019 04:24 16,0 C 25,6 C 15,0 C 73 % 1016,8 hPa 0,0 l/m 5,7 km/h (1 Bft) O-NO 67 0 min 0,000 mm 0,0 UV-I 0 W/m 11,2 C 16,0 C 8,0 km/h (2 Bft) 95,74 %
03.07.2019 04:26 15,9 C 25,6 C 15,0 C 73 % 1016,9 hPa 0,0 l/m 5,7 km/h (1 Bft) O-NO 66 0 min 0,000 mm 0,0 UV-I 0 W/m 11,1 C 15,9 C 8,0 km/h (2 Bft) 93,62 %
03.07.2019 04:28 16,0 C 25,6 C 15,0 C 71 % 1016,8 hPa 0,0 l/m 5,0 km/h (1 Bft) NO 55 0 min 0,000 mm 0,0 UV-I 0 W/m 10,7 C 16,0 C 8,0 km/h (2 Bft) 93,75 %
03.07.2019 04:30 16,2 C 25,6 C 15,0 C 71 % 1016,9 hPa 0,0 l/m 5,4 km/h (1 Bft) NO 40 0 min 0,000 mm 0,0 UV-I 0 W/m 10,9 C 16,2 C 8,0 km/h (2 Bft) 95,74 %
03.07.2019 04:32 16,1 C 25,6 C 15,0 C 71 % 1016,9 hPa 0,0 l/m 5,8 km/h (2 Bft) NO 40 0 min 0,000 mm 0,0 UV-I 0 W/m 10,8 C 16,1 C 8,0 km/h (2 Bft) 93,62 %
03.07.2019 04:34 16,0 C 25,6 C 15,0 C 72 % 1016,9 hPa 0,0 l/m 6,5 km/h (2 Bft) O-NO 57 0 min 0,000 mm 0,0 UV-I 0 W/m 11,0 C 16,0 C 9,7 km/h (2 Bft) 97,87 %
03.07.2019 04:36 15,9 C 25,6 C 15,0 C 73 % 1016,9 hPa 0,0 l/m 7,5 km/h (2 Bft) NO 52 0 min 0,000 mm 0,0 UV-I 0 W/m 11,1 C 15,3 C 12,9 km/h (3 Bft) 97,87 %
03.07.2019 04:38 15,9 C 25,6 C 15,6 C 72 % 1016,9 hPa 0,0 l/m 7,5 km/h (2 Bft) NO 41 0 min 0,000 mm 0,0 UV-I 0 W/m 10,9 C 15,3 C 12,9 km/h (3 Bft) 97,87 %
03.07.2019 04:40 15,9 C 25,6 C 15,6 C 72 % 1016,9 hPa 0,0 l/m 8,4 km/h (2 Bft) NO 51 0 min 0,000 mm 0,0 UV-I 0 W/m 10,9 C 14,8 C 12,9 km/h (3 Bft) 95,74 %
03.07.2019 04:42 16,0 C 25,6 C 15,6 C 72 % 1016,9 hPa 0,0 l/m 6,8 km/h (2 Bft) O-NO 59 0 min 0,000 mm 0,0 UV-I 0 W/m 11,0 C 15,8 C 11,3 km/h (2 Bft) 95,74 %
03.07.2019 04:44 16,0 C 25,6 C 15,6 C 71 % 1017,0 hPa 0,0 l/m 4,9 km/h (1 Bft) NO 53 0 min 0,000 mm 0,0 UV-I 0 W/m 10,7 C 16,0 C 6,4 km/h (2 Bft) 95,74 %
03.07.2019 04:46 16,1 C 25,6 C 15,6 C 71 % 1017,0 hPa 0,0 l/m 5,2 km/h (1 Bft) O-NO 57 0 min 0,000 mm 0,0 UV-I 0 W/m 10,8 C 16,1 C 8,0 km/h (2 Bft) 97,87 %
03.07.2019 04:48 16,1 C 25,6 C 15,6 C 70 % 1017,1 hPa 0,0 l/m 6,6 km/h (2 Bft) O-NO 62 0 min 0,000 mm 0,0 UV-I 0 W/m 10,6 C 16,0 C 9,7 km/h (2 Bft) 95,74 %
03.07.2019 04:50 16,2 C 25,6 C 15,6 C 70 % 1017,1 hPa 0,0 l/m 7,8 km/h (2 Bft) O-NO 60 0 min 0,000 mm 0,0 UV-I 0 W/m 10,7 C 15,5 C 12,9 km/h (3 Bft) 95,74 %
03.07.2019 04:52 16,2 C 25,6 C 15,6 C 70 % 1017,0 hPa 0,0 l/m 7,2 km/h (2 Bft) NO 49 0 min 0,000 mm 0,0 UV-I 2 W/m 10,7 C 15,8 C 9,7 km/h (2 Bft) 100,00 %
03.07.2019 04:54 16,2 C 25,6 C 15,6 C 70 % 1017,1 hPa 0,0 l/m 9,2 km/h (2 Bft) NO 40 0 min 0,000 mm 0,0 UV-I 5 W/m 10,7 C 14,8 C 12,9 km/h (3 Bft) 97,87 %
03.07.2019 04:56 16,2 C 25,6 C 15,6 C 70 % 1017,0 hPa 0,0 l/m 7,1 km/h (2 Bft) O 81 0 min 0,000 mm 0,0 UV-I 5 W/m 10,7 C 15,8 C 9,7 km/h (2 Bft) 97,87 %
03.07.2019 04:58 16,1 C 25,6 C 15,6 C 70 % 1017,0 hPa 0,0 l/m 8,5 km/h (2 Bft) NO 51 0 min 0,000 mm 0,0 UV-I 5 W/m 10,6 C 15,0 C 12,9 km/h (3 Bft) 97,87 %
03.07.2019 05:00 16,1 C 25,6 C 15,6 C 70 % 1017,0 hPa 0,0 l/m 7,1 km/h (2 Bft) N-NO 19 0 min 0,026 mm 0,0 UV-I 5 W/m 10,6 C 15,7 C 12,9 km/h (3 Bft) 95,74 %
03.07.2019 05:02 16,0 C 25,6 C 15,6 C 70 % 1017,1 hPa 0,0 l/m 8,3 km/h (2 Bft) NO 51 0 min 0,000 mm 0,0 UV-I 5 W/m 10,5 C 15,0 C 14,5 km/h (3 Bft) 100,00 %
03.07.2019 05:04 16,0 C 25,6 C 15,6 C 70 % 1017,1 hPa 0,0 l/m 8,5 km/h (2 Bft) NO 49 0 min 0,000 mm 0,0 UV-I 7 W/m 10,5 C 14,9 C 14,5 km/h (3 Bft) 100,00 %
03.07.2019 05:06 16,0 C 25,6 C 15,6 C 70 % 1017,1 hPa 0,0 l/m 7,2 km/h (2 Bft) O 84 0 min 0,000 mm 0,0 UV-I 7 W/m 10,5 C 15,6 C 11,3 km/h (2 Bft) 100,00 %
03.07.2019 05:08 16,0 C 25,6 C 15,6 C 69 % 1017,1 hPa 0,0 l/m 7,4 km/h (2 Bft) NO 53 0 min 0,000 mm 0,0 UV-I 7 W/m 10,3 C 15,5 C 14,5 km/h (3 Bft) 100,00 %
03.07.2019 05:10 16,0 C 25,6 C 15,0 C 69 % 1017,1 hPa 0,0 l/m 8,0 km/h (2 Bft) NO 49 0 min 0,000 mm 0,0 UV-I 8 W/m 10,3 C 15,2 C 12,9 km/h (3 Bft) 100,00 %
03.07.2019 05:12 15,9 C 25,6 C 15,0 C 69 % 1017,1 hPa 0,0 l/m 9,3 km/h (2 Bft) O-NO 71 0 min 0,000 mm 0,0 UV-I 9 W/m 10,2 C 14,4 C 14,5 km/h (3 Bft) 100,00 %
03.07.2019 05:14 15,9 C 25,6 C 15,0 C 69 % 1017,2 hPa 0,0 l/m 7,1 km/h (2 Bft) NO 50 0 min 0,000 mm 0,0 UV-I 10 W/m 10,2 C 15,5 C 9,7 km/h (2 Bft) 100,00 %
03.07.2019 05:16 15,9 C 25,6 C 15,0 C 69 % 1017,2 hPa 0,0 l/m 7,4 km/h (2 Bft) O-NO 58 0 min 0,000 mm 0,0 UV-I 11 W/m 10,2 C 15,4 C 9,7 km/h (2 Bft) 100,00 %
03.07.2019 05:18 16,0 C 25,6 C 15,0 C 67 % 1017,2 hPa 0,0 l/m 8,7 km/h (2 Bft) O-NO 76 0 min 0,000 mm 0,0 UV-I 12 W/m 9,9 C 14,8 C 14,5 km/h (3 Bft) 98,00 %
03.07.2019 05:20 16,1 C 25,6 C 15,0 C 67 % 1017,2 hPa 0,0 l/m 8,0 km/h (2 Bft) O-NO 59 0 min 0,000 mm 0,0 UV-I 13 W/m 10,0 C 15,3 C 12,9 km/h (3 Bft) 97,87 %
03.07.2019 05:22 16,2 C 25,6 C 15,0 C 67 % 1017,2 hPa 0,0 l/m 8,0 km/h (2 Bft) NO 48 2 min 0,000 mm 0,0 UV-I 15 W/m 10,1 C 15,4 C 16,1 km/h (3 Bft) 96,00 %
03.07.2019 05:24 16,1 C 25,6 C 15,0 C 68 % 1017,2 hPa 0,0 l/m 7,6 km/h (2 Bft) N-NO 32 2 min 0,000 mm 0,0 UV-I 17 W/m 10,2 C 15,5 C 11,3 km/h (2 Bft) 97,87 %
03.07.2019 05:26 15,9 C 25,6 C 15,0 C 68 % 1017,2 hPa 0,0 l/m 8,0 km/h (2 Bft) NO 52 2 min 0,000 mm 0,0 UV-I 19 W/m 10,0 C 15,0 C 11,3 km/h (2 Bft) 95,74 %
03.07.2019 05:28 15,8 C 25,6 C 15,0 C 69 % 1017,3 hPa 0,0 l/m 7,4 km/h (2 Bft) O-NO 61 2 min 0,000 mm 0,0 UV-I 21 W/m 10,1 C 15,3 C 9,7 km/h (2 Bft) 95,74 %
03.07.2019 05:30 15,8 C 25,6 C 15,0 C 69 % 1017,3 hPa 0,0 l/m 7,3 km/h (2 Bft) O-NO 66 2 min 0,000 mm 0,0 UV-I 23 W/m 10,1 C 15,3 C 11,3 km/h (2 Bft) 95,74 %
03.07.2019 05:32 15,8 C 25,6 C 15,6 C 69 % 1017,3 hPa 0,0 l/m 6,8 km/h (2 Bft) NO 53 0 min 0,000 mm 0,0 UV-I 21 W/m 10,1 C 15,6 C 9,7 km/h (2 Bft) 97,37 %
03.07.2019 05:34 15,8 C 25,6 C 15,6 C 69 % 1017,3 hPa 0,0 l/m 6,9 km/h (2 Bft) NO 40 0 min 0,000 mm 0,0 UV-I 19 W/m 10,1 C 15,5 C 9,7 km/h (2 Bft) 97,87 %
03.07.2019 05:36 15,8 C 25,6 C 15,6 C 69 % 1017,3 hPa 0,0 l/m 7,9 km/h (2 Bft) NO 50 0 min 0,000 mm 0,0 UV-I 21 W/m 10,1 C 15,0 C 12,9 km/h (3 Bft) 92,00 %
03.07.2019 05:38 15,8 C 25,6 C 15,6 C 69 % 1017,3 hPa 0,0 l/m 9,5 km/h (2 Bft) N-NO 29 0 min 0,000 mm 0,0 UV-I 22 W/m 10,1 C 14,2 C 14,5 km/h (3 Bft) 96,00 %
03.07.2019 05:40 15,9 C 25,6 C 15,6 C 69 % 1017,3 hPa 0,0 l/m 8,1 km/h (2 Bft) NO 44 0 min 0,000 mm 0,0 UV-I 21 W/m 10,2 C 15,0 C 12,9 km/h (3 Bft) 95,74 %
03.07.2019 05:42 15,9 C 25,6 C 15,6 C 69 % 1017,3 hPa 0,0 l/m 8,8 km/h (2 Bft) NO 45 0 min 0,000 mm 0,0 UV-I 23 W/m 10,2 C 14,7 C 16,1 km/h (3 Bft) 91,49 %
03.07.2019 05:44 15,9 C 25,6 C 15,6 C 69 % 1017,3 hPa 0,0 l/m 9,1 km/h (2 Bft) NO 39 0 min 0,000 mm 0,0 UV-I 25 W/m 10,2 C 14,5 C 14,5 km/h (3 Bft) 93,62 %
03.07.2019 05:46 15,9 C 25,6 C 15,6 C 68 % 1017,4 hPa 0,0 l/m 8,1 km/h (2 Bft) NO 56 0 min 0,000 mm 0,0 UV-I 27 W/m 10,0 C 15,0 C 16,1 km/h (3 Bft) 91,49 %
03.07.2019 05:48 15,9 C 25,6 C 15,6 C 69 % 1017,4 hPa 0,0 l/m 7,5 km/h (2 Bft) NO 50 0 min 0,000 mm 0,0 UV-I 34 W/m 10,2 C 15,3 C 11,3 km/h (2 Bft) 89,36 %
03.07.2019 05:50 15,9 C 25,6 C 15,6 C 68 % 1017,4 hPa 0,0 l/m 8,9 km/h (2 Bft) O-NO 61 0 min 0,000 mm 0,0 UV-I 46 W/m 10,0 C 14,6 C 12,9 km/h (3 Bft) 89,58 %
03.07.2019 05:52 16,1 C 25,6 C 15,6 C 68 % 1017,4 hPa 0,0 l/m 8,1 km/h (2 Bft) NO 51 0 min 0,000 mm 0,0 UV-I 49 W/m 10,2 C 15,2 C 12,9 km/h (3 Bft) 93,62 %
03.07.2019 05:54 16,0 C 25,6 C 15,6 C 69 % 1017,4 hPa 0,0 l/m 9,2 km/h (2 Bft) O-NO 58 0 min 0,000 mm 0,0 UV-I 44 W/m 10,3 C 14,6 C 14,5 km/h (3 Bft) 95,74 %
03.07.2019 05:56 16,0 C 25,6 C 15,6 C 69 % 1017,4 hPa 0,0 l/m 9,1 km/h (2 Bft) O-NO 72 0 min 0,000 mm 0,0 UV-I 44 W/m 10,3 C 14,6 C 14,5 km/h (3 Bft) 94,74 %
03.07.2019 05:58 15,9 C 25,6 C 15,6 C 68 % 1017,4 hPa 0,0 l/m 9,0 km/h (2 Bft) NO 49 0 min 0,000 mm 0,0 UV-I 50 W/m 10,0 C 14,6 C 14,5 km/h (3 Bft) 97,87 %
03.07.2019 06:00 15,9 C 25,6 C 15,6 C 68 % 1017,4 hPa 0,0 l/m 9,6 km/h (2 Bft) NO 49 0 min 0,050 mm 0,0 UV-I 44 W/m 10,0 C 14,3 C 14,5 km/h (3 Bft) 97,87 %
03.07.2019 06:02 15,9 C 25,6 C 15,6 C 68 % 1017,4 hPa 0,0 l/m 10,3 km/h (2 Bft) NO 38 0 min 0,000 mm 0,0 UV-I 48 W/m 10,0 C 14,0 C 16,1 km/h (3 Bft) 95,74 %
03.07.2019 06:04 15,9 C 25,6 C 15,6 C 68 % 1017,5 hPa 0,0 l/m 10,1 km/h (2 Bft) O-NO 57 2 min 0,000 mm 0,0 UV-I 77 W/m 10,0 C 14,1 C 16,1 km/h (3 Bft) 96,00 %
03.07.2019 06:06 15,9 C 25,6 C 15,6 C 68 % 1017,5 hPa 0,0 l/m 9,1 km/h (2 Bft) NO 36 0 min 0,000 mm 0,0 UV-I 66 W/m 10,0 C 14,5 C 14,5 km/h (3 Bft) 95,74 %
03.07.2019 06:08 15,9 C 25,6 C 15,6 C 68 % 1017,5 hPa 0,0 l/m 9,6 km/h (2 Bft) NO 46 0 min 0,000 mm 0,0 UV-I 70 W/m 10,0 C 14,3 C 17,7 km/h (3 Bft) 93,62 %
03.07.2019 06:10 15,9 C 25,6 C 15,6 C 68 % 1017,5 hPa 0,0 l/m 10,6 km/h (2 Bft) NO 48 2 min 0,000 mm 0,0 UV-I 82 W/m 10,0 C 13,9 C 16,1 km/h (3 Bft) 95,74 %
03.07.2019 06:12 15,9 C 25,6 C 15,6 C 69 % 1017,5 hPa 0,0 l/m 8,9 km/h (2 Bft) NO 40 2 min 0,000 mm 0,0 UV-I 90 W/m 10,2 C 14,6 C 16,1 km/h (3 Bft) 98,00 %
03.07.2019 06:14 15,9 C 25,6 C 15,6 C 69 % 1017,6 hPa 0,0 l/m 10,2 km/h (2 Bft) N-NO 17 2 min 0,000 mm 0,0 UV-I 94 W/m 10,2 C 14,0 C 16,1 km/h (3 Bft) 97,87 %
03.07.2019 06:16 15,9 C 25,6 C 15,6 C 68 % 1017,7 hPa 0,0 l/m 11,5 km/h (2 Bft) NO 47 2 min 0,000 mm 0,0 UV-I 94 W/m 10,0 C 13,5 C 17,7 km/h (3 Bft) 95,74 %
03.07.2019 06:18 16,0 C 25,6 C 15,6 C 68 % 1017,6 hPa 0,0 l/m 9,2 km/h (2 Bft) NO 35 2 min 0,000 mm 0,0 UV-I 97 W/m 10,1 C 14,6 C 14,5 km/h (3 Bft) 97,87 %
03.07.2019 06:20 16,0 C 25,6 C 15,6 C 68 % 1017,7 hPa 0,0 l/m 10,6 km/h (2 Bft) NO 48 0 min 0,000 mm 0,0 UV-I 79 W/m 10,1 C 14,0 C 17,7 km/h (3 Bft) 95,74 %
03.07.2019 06:22 16,0 C 25,6 C 15,6 C 68 % 1017,7 hPa 0,0 l/m 11,5 km/h (2 Bft) NO 50 2 min 0,000 mm 0,0 UV-I 115 W/m 10,1 C 13,6 C 19,3 km/h (3 Bft) 100,00 %
03.07.2019 06:24 16,1 C 25,6 C 16,1 C 68 % 1017,8 hPa 0,0 l/m 10,6 km/h (2 Bft) N-NO 31 2 min 0,000 mm 0,0 UV-I 131 W/m 10,2 C 14,1 C 14,5 km/h (3 Bft) 96,00 %
03.07.2019 06:26 16,2 C 25,6 C 16,1 C 68 % 1017,8 hPa 0,0 l/m 12,1 km/h (2 Bft) NO 39 2 min 0,000 mm 0,0 UV-I 141 W/m 10,3 C 13,6 C 16,1 km/h (3 Bft) 95,74 %
03.07.2019 06:28 16,2 C 25,0 C 16,1 C 68 % 1017,8 hPa 0,0 l/m 12,1 km/h (2 Bft) NO 36 2 min 0,000 mm 0,0 UV-I 135 W/m 10,3 C 13,6 C 17,7 km/h (3 Bft) 97,87 %
03.07.2019 06:30 16,2 C 25,0 C 16,1 C 68 % 1017,8 hPa 0,0 l/m 8,8 km/h (2 Bft) NO 50 2 min 0,000 mm 0,0 UV-I 137 W/m 10,3 C 15,0 C 12,9 km/h (3 Bft) 97,87 %
03.07.2019 06:32 16,3 C 25,0 C 16,1 C 67 % 1017,8 hPa 0,0 l/m 13,6 km/h (3 Bft) O-NO 57 2 min 0,000 mm 0,0 UV-I 126 W/m 10,2 C 13,2 C 17,7 km/h (3 Bft) 97,87 %
03.07.2019 06:34 16,3 C 25,0 C 16,1 C 67 % 1017,8 hPa 0,0 l/m 10,2 km/h (2 Bft) NO 53 0 min 0,000 mm 0,0 UV-I 89 W/m 10,2 C 14,5 C 17,7 km/h (3 Bft) 98,00 %
03.07.2019 06:36 16,3 C 25,0 C 16,1 C 67 % 1017,8 hPa 0,0 l/m 9,1 km/h (2 Bft) NO 34 0 min 0,000 mm 0,0 UV-I 72 W/m 10,2 C 14,9 C 14,5 km/h (3 Bft) 98,00 %
03.07.2019 06:38 16,3 C 25,0 C 16,1 C 66 % 1017,8 hPa 0,0 l/m 13,3 km/h (3 Bft) O-NO 71 0 min 0,000 mm 0,0 UV-I 78 W/m 9,9 C 13,3 C 19,3 km/h (3 Bft) 95,74 %
03.07.2019 06:40 16,3 C 25,0 C 16,1 C 67 % 1017,9 hPa 0,0 l/m 9,4 km/h (2 Bft) N-NO 26 0 min 0,000 mm 0,0 UV-I 75 W/m 10,2 C 14,8 C 16,1 km/h (3 Bft) 93,62 %
03.07.2019 06:42 16,2 C 25,0 C 16,1 C 68 % 1017,9 hPa 0,0 l/m 10,8 km/h (2 Bft) O-NO 61 0 min 0,000 mm 0,0 UV-I 91 W/m 10,3 C 14,1 C 16,1 km/h (3 Bft) 97,87 %
03.07.2019 06:44 16,2 C 25,0 C 16,1 C 67 % 1018,0 hPa 0,0 l/m 9,9 km/h (2 Bft) O-NO 65 2 min 0,000 mm 0,0 UV-I 143 W/m 10,1 C 14,5 C 14,5 km/h (3 Bft) 95,74 %
03.07.2019 06:46 16,3 C 25,0 C 16,1 C 68 % 1018,0 hPa 0,0 l/m 8,9 km/h (2 Bft) NO 46 2 min 0,000 mm 0,0 UV-I 175 W/m 10,4 C 15,0 C 16,1 km/h (3 Bft) 95,74 %
03.07.2019 06:49 16,4 C 25,0 C 16,7 C 67 % 1018,0 hPa 0,0 l/m 11,6 km/h (2 Bft) O-NO 75 3 min 0,000 mm 0,0 UV-I 166 W/m 10,3 C 14,0 C 17,7 km/h (3 Bft) 97,30 %
03.07.2019 06:50 16,4 C 25,0 C 16,7 C 68 % 1018,1 hPa 0,0 l/m 12,5 km/h (3 Bft) NO 46 1 min 0,000 mm 0,0 UV-I 171 W/m 10,5 C 13,7 C 14,5 km/h (3 Bft) 100,00 %
03.07.2019 06:52 16,6 C 25,0 C 16,7 C 67 % 1018,0 hPa 0,0 l/m 11,7 km/h (2 Bft) O-NO 59 2 min 0,000 mm 0,0 UV-I 200 W/m 10,4 C 14,2 C 19,3 km/h (3 Bft) 97,87 %
03.07.2019 06:54 16,7 C 25,0 C 17,2 C 67 % 1018,1 hPa 0,0 l/m 12,9 km/h (3 Bft) NO 47 2 min 0,000 mm 0,0 UV-I 222 W/m 10,5 C 13,9 C 17,7 km/h (3 Bft) 97,87 %
03.07.2019 06:56 16,8 C 25,0 C 17,2 C 67 % 1018,1 hPa 0,0 l/m 12,5 km/h (3 Bft) NO 44 2 min 0,000 mm 0,0 UV-I 217 W/m 10,6 C 14,2 C 16,1 km/h (3 Bft) 97,87 %
03.07.2019 06:58 16,8 C 25,0 C 17,2 C 65 % 1018,0 hPa 0,0 l/m 13,8 km/h (3 Bft) O-NO 63 2 min 0,000 mm 0,0 UV-I 159 W/m 10,2 C 13,7 C 19,3 km/h (3 Bft) 97,87 %
03.07.2019 07:00 16,8 C 25,0 C 17,2 C 66 % 1018,0 hPa 0,0 l/m 10,2 km/h (2 Bft) NO 54 0 min 0,102 mm 0,0 UV-I 100 W/m 10,4 C 15,0 C 17,7 km/h (3 Bft) 97,87 %
03.07.2019 07:02 16,8 C 25,0 C 16,7 C 66 % 1018,1 hPa 0,0 l/m 11,8 km/h (2 Bft) O-NO 58 0 min 0,000 mm 0,0 UV-I 84 W/m 10,4 C 14,4 C 19,3 km/h (3 Bft) 95,83 %
03.07.2019 07:04 16,7 C 25,0 C 16,7 C 66 % 1018,0 hPa 0,0 l/m 15,4 km/h (3 Bft) O-NO 58 0 min 0,000 mm 0,0 UV-I 83 W/m 10,3 C 13,1 C 20,9 km/h (4 Bft) 98,00 %
03.07.2019 07:06 16,6 C 25,0 C 16,7 C 66 % 1018,0 hPa 0,0 l/m 15,0 km/h (3 Bft) NO 51 0 min 0,000 mm 0,0 UV-I 90 W/m 10,2 C 13,1 C 20,9 km/h (4 Bft) 97,87 %
03.07.2019 07:08 16,5 C 25,0 C 16,7 C 67 % 1018,1 hPa 0,0 l/m 9,2 km/h (2 Bft) NO 37 0 min 0,000 mm 0,0 UV-I 103 W/m 10,4 C 15,1 C 14,5 km/h (3 Bft) 97,87 %
03.07.2019 07:10 16,5 C 25,0 C 16,7 C 66 % 1018,1 hPa 0,0 l/m 14,0 km/h (3 Bft) O-NO 59 0 min 0,000 mm 0,0 UV-I 135 W/m 10,1 C 13,3 C 17,7 km/h (3 Bft) 94,74 %
03.07.2019 07:12 16,6 C 25,0 C 17,2 C 67 % 1018,1 hPa 0,0 l/m 12,9 km/h (3 Bft) O-NO 64 2 min 0,000 mm 0,0 UV-I 183 W/m 10,4 C 13,8 C 19,3 km/h (3 Bft) 97,87 %
03.07.2019 07:14 16,7 C 25,0 C 17,8 C 67 % 1018,1 hPa 0,0 l/m 12,8 km/h (3 Bft) NO 34 2 min 0,000 mm 0,0 UV-I 296 W/m 10,5 C 14,0 C 19,3 km/h (3 Bft) 97,87 %
03.07.2019 07:16 16,9 C 25,0 C 18,3 C 65 % 1018,2 hPa 0,0 l/m 11,3 km/h (2 Bft) NO 53 2 min 0,000 mm 0,5 UV-I 331 W/m 10,3 C 14,7 C 16,1 km/h (3 Bft) 95,74 %
03.07.2019 07:18 17,2 C 25,0 C 18,3 C 68 % 1018,2 hPa 0,0 l/m 8,4 km/h (2 Bft) O-NO 69 2 min 0,000 mm 0,5 UV-I 339 W/m 11,2 C 16,2 C 14,5 km/h (3 Bft) 93,62 %
03.07.2019 07:20 17,4 C 25,0 C 18,3 C 65 % 1018,2 hPa 0,0 l/m 10,8 km/h (2 Bft) N-NO 13 2 min 0,000 mm 0,5 UV-I 237 W/m 10,8 C 15,5 C 16,1 km/h (3 Bft) 95,74 %
03.07.2019 07:22 17,3 C 25,0 C 18,3 C 65 % 1018,2 hPa 0,0 l/m 14,6 km/h (3 Bft) NO 36 0 min 0,000 mm 0,5 UV-I 163 W/m 10,7 C 14,1 C 20,9 km/h (4 Bft) 98,00 %
03.07.2019 07:24 17,2 C 25,0 C 18,3 C 65 % 1018,2 hPa 0,0 l/m 14,3 km/h (3 Bft) NO 34 0 min 0,000 mm 0,5 UV-I 166 W/m 10,6 C 14,1 C 20,9 km/h (4 Bft) 97,96 %
03.07.2019 07:26 17,2 C 25,0 C 18,3 C 64 % 1018,2 hPa 0,0 l/m 15,2 km/h (3 Bft) O-NO 57 2 min 0,000 mm 0,5 UV-I 209 W/m 10,3 C 13,8 C 20,9 km/h (4 Bft) 100,00 %
03.07.2019 07:28 17,2 C 25,0 C 17,8 C 64 % 1018,2 hPa 0,0 l/m 15,4 km/h (3 Bft) NO 46 0 min 0,000 mm 0,5 UV-I 182 W/m 10,3 C 13,7 C 22,5 km/h (4 Bft) 97,87 %
03.07.2019 07:30 17,1 C 25,0 C 17,8 C 65 % 1018,2 hPa 0,0 l/m 12,7 km/h (3 Bft) O-NO 66 0 min 0,000 mm 0,5 UV-I 144 W/m 10,5 C 14,5 C 19,3 km/h (3 Bft) 100,00 %
03.07.2019 07:32 17,0 C 25,0 C 17,8 C 66 % 1018,2 hPa 0,0 l/m 10,6 km/h (2 Bft) NO 39 0 min 0,000 mm 0,5 UV-I 160 W/m 10,6 C 15,1 C 16,1 km/h (3 Bft) 100,00 %
03.07.2019 07:34 17,1 C 25,0 C 18,3 C 66 % 1018,2 hPa 0,0 l/m 9,8 km/h (2 Bft) O-NO 67 2 min 0,000 mm 0,6 UV-I 213 W/m 10,7 C 15,5 C 16,1 km/h (3 Bft) 96,15 %
03.07.2019 07:36 17,3 C 25,0 C 18,9 C 64 % 1018,2 hPa 0,0 l/m 11,6 km/h (2 Bft) O-NO 78 2 min 0,000 mm 0,6 UV-I 408 W/m 10,4 C 15,1 C 16,1 km/h (3 Bft) 100,00 %
03.07.2019 07:38 17,4 C 25,0 C 18,9 C 65 % 1018,3 hPa 0,0 l/m 13,1 km/h (3 Bft) O 88 2 min 0,000 mm 0,6 UV-I 235 W/m 10,8 C 14,7 C 17,7 km/h (3 Bft) 95,74 %
03.07.2019 07:40 17,4 C 25,0 C 18,9 C 64 % 1018,3 hPa 0,0 l/m 10,5 km/h (2 Bft) NO 43 2 min 0,000 mm 0,6 UV-I 260 W/m 10,5 C 15,6 C 20,9 km/h (4 Bft) 100,00 %
03.07.2019 07:42 17,4 C 25,0 C 18,9 C 64 % 1018,3 hPa 0,0 l/m 13,7 km/h (3 Bft) O-NO 68 2 min 0,000 mm 0,6 UV-I 297 W/m 10,5 C 14,5 C 20,9 km/h (4 Bft) 98,11 %
03.07.2019 07:44 17,4 C 25,0 C 18,9 C 63 % 1018,3 hPa 0,0 l/m 12,1 km/h (2 Bft) O-NO 68 0 min 0,000 mm 0,6 UV-I 170 W/m 10,3 C 15,0 C 19,3 km/h (3 Bft) 100,00 %
03.07.2019 07:46 17,4 C 25,0 C 18,9 C 64 % 1018,3 hPa 0,0 l/m 11,6 km/h (2 Bft) O-NO 57 0 min 0,000 mm 0,7 UV-I 178 W/m 10,5 C 15,2 C 19,3 km/h (3 Bft) 100,00 %
03.07.2019 07:48 17,3 C 25,0 C 18,9 C 64 % 1018,3 hPa 0,0 l/m 14,1 km/h (3 Bft) NO 55 2 min 0,000 mm 0,7 UV-I 216 W/m 10,4 C 14,2 C 19,3 km/h (3 Bft) 100,00 %
03.07.2019 07:50 17,4 C 25,0 C 18,9 C 64 % 1018,3 hPa 0,0 l/m 9,0 km/h (2 Bft) NO 51 2 min 0,000 mm 0,7 UV-I 247 W/m 10,5 C 16,2 C 17,7 km/h (3 Bft) 100,00 %
03.07.2019 07:52 17,6 C 25,0 C 18,9 C 64 % 1018,3 hPa 0,0 l/m 10,0 km/h (2 Bft) NO 38 2 min 0,000 mm 0,7 UV-I 252 W/m 10,7 C 16,0 C 17,7 km/h (3 Bft) 100,00 %
03.07.2019 07:54 17,6 C 25,0 C 18,9 C 63 % 1018,3 hPa 0,0 l/m 12,0 km/h (2 Bft) NO 40 0 min 0,000 mm 0,7 UV-I 186 W/m 10,5 C 15,3 C 17,7 km/h (3 Bft) 100,00 %
03.07.2019 07:56 17,6 C 25,0 C 18,9 C 63 % 1018,3 hPa 0,0 l/m 8,9 km/h (2 Bft) N-NO 17 0 min 0,000 mm 0,7 UV-I 181 W/m 10,5 C 16,4 C 16,1 km/h (3 Bft) 100,00 %
03.07.2019 07:58 17,6 C 25,0 C 18,3 C 65 % 1018,3 hPa 0,0 l/m 9,4 km/h (2 Bft) N-NO 16 0 min 0,000 mm 0,7 UV-I 154 W/m 10,9 C 16,2 C 16,1 km/h (3 Bft) 97,87 %
03.07.2019 08:00 17,6 C 25,0 C 18,3 C 65 % 1018,4 hPa 0,0 l/m 9,1 km/h (2 Bft) N-NO 27 0 min 0,000 mm 0,8 UV-I 154 W/m 10,9 C 16,4 C 12,9 km/h (3 Bft) 100,00 %
03.07.2019 08:02 17,5 C 25,0 C 18,9 C 64 % 1018,3 hPa 0,0 l/m 13,7 km/h (3 Bft) O-NO 58 0 min 0,178 mm 0,8 UV-I 167 W/m 10,6 C 14,6 C 19,3 km/h (3 Bft) 100,00 %
03.07.2019 08:04 17,6 C 25,0 C 18,9 C 64 % 1018,3 hPa 0,0 l/m 9,2 km/h (2 Bft) O-NO 74 0 min 0,000 mm 0,9 UV-I 207 W/m 10,7 C 16,3 C 17,7 km/h (3 Bft) 97,87 %
03.07.2019 08:06 17,7 C 25,0 C 18,9 C 63 % 1018,3 hPa 0,0 l/m 8,8 km/h (2 Bft) O 88 2 min 0,000 mm 0,9 UV-I 345 W/m 10,6 C 16,6 C 14,5 km/h (3 Bft) 100,00 %
03.07.2019 08:08 17,8 C 25,0 C 19,4 C 63 % 1018,3 hPa 0,0 l/m 10,8 km/h (2 Bft) O-NO 73 2 min 0,000 mm 1,0 UV-I 282 W/m 10,7 C 15,9 C 17,7 km/h (3 Bft) 100,00 %
03.07.2019 08:10 17,9 C 25,0 C 19,4 C 63 % 1018,4 hPa 0,0 l/m 7,8 km/h (2 Bft) NO 51 2 min 0,000 mm 0,9 UV-I 321 W/m 10,8 C 17,2 C 12,9 km/h (3 Bft) 97,87 %
03.07.2019 08:12 18,1 C 25,0 C 19,4 C 62 % 1018,3 hPa 0,0 l/m 7,5 km/h (2 Bft) O 88 2 min 0,000 mm 1,1 UV-I 330 W/m 10,7 C 17,6 C 14,5 km/h (3 Bft) 100,00 %
03.07.2019 08:14 18,2 C 25,0 C 19,4 C 60 % 1018,4 hPa 0,0 l/m 9,7 km/h (2 Bft) NO 55 2 min 0,000 mm 1,1 UV-I 483 W/m 10,3 C 16,8 C 16,1 km/h (3 Bft) 97,87 %
03.07.2019 08:16 18,3 C 25,0 C 19,4 C 62 % 1018,4 hPa 0,0 l/m 9,7 km/h (2 Bft) O-NO 69 2 min 0,000 mm 1,1 UV-I 383 W/m 10,9 C 16,9 C 17,7 km/h (3 Bft) 100,00 %
03.07.2019 08:18 18,4 C 25,0 C 19,4 C 62 % 1018,4 hPa 0,0 l/m 10,2 km/h (2 Bft) O 84 2 min 0,000 mm 1,2 UV-I 473 W/m 11,0 C 16,8 C 16,1 km/h (3 Bft) 98,00 %
03.07.2019 08:20 18,5 C 25,0 C 19,4 C 59 % 1018,3 hPa 0,0 l/m 12,7 km/h (3 Bft) O 88 2 min 0,000 mm 1,2 UV-I 467 W/m 10,3 C 16,1 C 19,3 km/h (3 Bft) 96,00 %
03.07.2019 08:22 18,4 C 25,0 C 18,9 C 58 % 1018,3 hPa 0,0 l/m 13,6 km/h (3 Bft) O 98 2 min 0,000 mm 1,2 UV-I 459 W/m 10,0 C 15,7 C 19,3 km/h (3 Bft) 97,87 %
03.07.2019 08:24 18,3 C 25,0 C 18,9 C 61 % 1018,3 hPa 0,0 l/m 12,9 km/h (3 Bft) NO 55 2 min 0,000 mm 1,2 UV-I 428 W/m 10,6 C 15,8 C 19,3 km/h (3 Bft) 93,62 %
03.07.2019 08:26 18,3 C 25,0 C 18,9 C 60 % 1018,3 hPa 0,0 l/m 12,0 km/h (2 Bft) O-NO 72 2 min 0,000 mm 1,3 UV-I 388 W/m 10,4 C 16,1 C 17,7 km/h (3 Bft) 97,14 %
03.07.2019 08:28 18,4 C 25,0 C 19,4 C 61 % 1018,3 hPa 0,0 l/m 13,0 km/h (3 Bft) O-NO 74 2 min 0,000 mm 1,4 UV-I 447 W/m 10,7 C 15,9 C 19,3 km/h (3 Bft) 93,62 %
03.07.2019 08:30 18,6 C 25,0 C 19,4 C 60 % 1018,3 hPa 0,0 l/m 12,1 km/h (2 Bft) NO 45 2 min 0,000 mm 1,4 UV-I 482 W/m 10,7 C 16,4 C 17,7 km/h (3 Bft) 94,00 %
03.07.2019 08:32 18,8 C 25,0 C 19,4 C 61 % 1018,3 hPa 0,0 l/m 12,6 km/h (3 Bft) O 86 2 min 0,000 mm 1,4 UV-I 485 W/m 11,1 C 16,5 C 22,5 km/h (4 Bft) 89,36 %
03.07.2019 08:34 18,8 C 25,0 C 20,0 C 60 % 1018,2 hPa 0,0 l/m 13,1 km/h (3 Bft) O 88 2 min 0,000 mm 1,5 UV-I 489 W/m 10,9 C 16,3 C 17,7 km/h (3 Bft) 96,00 %
03.07.2019 08:36 18,8 C 25,0 C 20,0 C 59 % 1018,2 hPa 0,0 l/m 17,2 km/h (3 Bft) O-NO 66 2 min 0,000 mm 1,5 UV-I 467 W/m 10,6 C 15,3 C 24,1 km/h (4 Bft) 95,74 %
03.07.2019 08:38 18,8 C 25,0 C 20,0 C 58 % 1018,3 hPa 0,0 l/m 14,2 km/h (3 Bft) O 84 2 min 0,000 mm 1,6 UV-I 500 W/m 10,4 C 16,0 C 19,3 km/h (3 Bft) 93,62 %
03.07.2019 08:40 18,8 C 25,0 C 20,6 C 59 % 1018,2 hPa 0,0 l/m 11,5 km/h (2 Bft) O-NO 74 2 min 0,000 mm 1,6 UV-I 504 W/m 10,6 C 16,8 C 20,9 km/h (4 Bft) 93,62 %
03.07.2019 08:42 18,9 C 25,0 C 21,7 C 60 % 1018,3 hPa 0,0 l/m 12,5 km/h (3 Bft) O 79 2 min 0,000 mm 1,6 UV-I 506 W/m 11,0 C 16,6 C 17,7 km/h (3 Bft) 92,00 %
03.07.2019 08:44 19,2 C 25,0 C 22,2 C 58 % 1018,2 hPa 0,0 l/m 13,6 km/h (3 Bft) NO 34 2 min 0,000 mm 1,7 UV-I 511 W/m 10,7 C 16,6 C 19,3 km/h (3 Bft) 97,22 %
03.07.2019 08:46 19,2 C 25,0 C 23,3 C 60 % 1018,3 hPa 0,0 l/m 12,5 km/h (3 Bft) NO 51 2 min 0,000 mm 1,7 UV-I 516 W/m 11,2 C 17,0 C 19,3 km/h (3 Bft) 91,84 %
03.07.2019 08:48 19,3 C 25,0 C 23,9 C 57 % 1018,3 hPa 0,0 l/m 8,6 km/h (2 Bft) O-NO 59 2 min 0,000 mm 1,7 UV-I 523 W/m 10,6 C 18,4 C 12,9 km/h (3 Bft) 98,00 %
03.07.2019 08:50 19,4 C 25,0 C 24,4 C 60 % 1018,4 hPa 0,0 l/m 11,3 km/h (2 Bft) NO 44 2 min 0,000 mm 1,8 UV-I 530 W/m 11,4 C 17,6 C 16,1 km/h (3 Bft) 100,00 %
03.07.2019 08:52 19,6 C 25,0 C 25,0 C 57 % 1018,4 hPa 0,0 l/m 9,5 km/h (2 Bft) O 92 2 min 0,000 mm 1,8 UV-I 534 W/m 10,8 C 18,4 C 16,1 km/h (3 Bft) 100,00 %
03.07.2019 08:54 19,5 C 25,0 C 26,1 C 55 % 1018,4 hPa 0,0 l/m 13,3 km/h (3 Bft) NO 51 2 min 0,000 mm 1,9 UV-I 540 W/m 10,2 C 17,1 C 17,7 km/h (3 Bft) 95,83 %
03.07.2019 08:56 19,5 C 25,0 C 26,7 C 58 % 1018,4 hPa 0,0 l/m 12,0 km/h (2 Bft) NO 35 2 min 0,000 mm 1,9 UV-I 545 W/m 11,0 C 17,5 C 17,7 km/h (3 Bft) 100,00 %
03.07.2019 08:59 19,5 C 25,0 C 27,8 C 56 % 1018,4 hPa 0,0 l/m 10,6 km/h (2 Bft) O-NO 63 3 min 0,000 mm 2,0 UV-I 552 W/m 10,5 C 17,9 C 17,7 km/h (3 Bft) 98,63 %
03.07.2019 09:00 19,6 C 25,0 C 27,8 C 57 % 1018,4 hPa 0,0 l/m 9,7 km/h (2 Bft) O 86 1 min 0,000 mm 2,0 UV-I 559 W/m 10,8 C 18,3 C 12,9 km/h (3 Bft) 100,00 %
03.07.2019 09:02 19,6 C 25,0 C 28,3 C 55 % 1018,5 hPa 0,0 l/m 8,0 km/h (2 Bft) O-NO 60 2 min 0,305 mm 2,0 UV-I 560 W/m 10,3 C 18,9 C 12,9 km/h (3 Bft) 97,56 %
03.07.2019 09:04 19,6 C 25,0 C 28,9 C 56 % 1018,4 hPa 0,0 l/m 7,2 km/h (2 Bft) O-NO 77 2 min 0,000 mm 2,1 UV-I 567 W/m 10,6 C 19,3 C 12,9 km/h (3 Bft) 98,00 %
03.07.2019 09:06 19,6 C 25,0 C 28,9 C 54 % 1018,4 hPa 0,0 l/m 12,0 km/h (2 Bft) O 94 2 min 0,000 mm 2,1 UV-I 575 W/m 10,0 C 17,6 C 19,3 km/h (3 Bft) 97,87 %
03.07.2019 09:08 19,4 C 25,0 C 28,9 C 54 % 1018,4 hPa 0,0 l/m 13,6 km/h (3 Bft) O 90 2 min 0,000 mm 2,2 UV-I 582 W/m 9,8 C 16,9 C 20,9 km/h (4 Bft) 97,87 %
03.07.2019 09:10 19,4 C 25,0 C 30,0 C 56 % 1018,3 hPa 0,0 l/m 6,0 km/h (2 Bft) O 88 2 min 0,000 mm 2,2 UV-I 584 W/m 10,4 C 19,4 C 9,7 km/h (2 Bft) 97,87 %
03.07.2019 09:12 19,7 C 25,0 C 30,6 C 59 % 1018,3 hPa 0,0 l/m 7,9 km/h (2 Bft) O 80 2 min 0,000 mm 2,2 UV-I 589 W/m 11,5 C 19,1 C 11,3 km/h (2 Bft) 97,87 %
03.07.2019 09:14 19,9 C 25,0 C 31,1 C 58 % 1018,3 hPa 0,0 l/m 8,2 km/h (2 Bft) O-NO 66 2 min 0,000 mm 2,3 UV-I 595 W/m 11,4 C 19,2 C 12,9 km/h (3 Bft) 95,74 %
03.07.2019 09:16 20,1 C 25,0 C 30,6 C 57 % 1018,3 hPa 0,0 l/m 10,4 km/h (2 Bft) O 81 2 min 0,000 mm 2,3 UV-I 601 W/m 11,3 C 18,6 C 17,7 km/h (3 Bft) 97,87 %
03.07.2019 09:18 20,1 C 25,0 C 31,1 C 54 % 1018,3 hPa 0,0 l/m 9,3 km/h (2 Bft) NO 46 2 min 0,000 mm 2,4 UV-I 602 W/m 10,5 C 19,0 C 16,1 km/h (3 Bft) 96,00 %
03.07.2019 09:20 20,1 C 25,0 C 30,6 C 56 % 1018,3 hPa 0,0 l/m 11,2 km/h (2 Bft) NO 44 2 min 0,000 mm 2,4 UV-I 605 W/m 11,0 C 18,4 C 16,1 km/h (3 Bft) 100,00 %
03.07.2019 09:22 20,2 C 25,0 C 30,6 C 58 % 1018,3 hPa 0,0 l/m 9,0 km/h (2 Bft) NO 48 2 min 0,000 mm 2,4 UV-I 582 W/m 11,7 C 19,2 C 12,9 km/h (3 Bft) 97,87 %
03.07.2019 09:24 20,3 C 25,0 C 30,0 C 57 % 1018,3 hPa 0,0 l/m 10,1 km/h (2 Bft) NO 45 2 min 0,000 mm 2,5 UV-I 622 W/m 11,5 C 18,9 C 14,5 km/h (3 Bft) 93,62 %
03.07.2019 09:26 20,2 C 25,0 C 30,6 C 56 % 1018,3 hPa 0,0 l/m 9,4 km/h (2 Bft) O 82 2 min 0,000 mm 2,5 UV-I 624 W/m 11,1 C 19,1 C 16,1 km/h (3 Bft) 95,83 %
03.07.2019 09:28 20,1 C 25,0 C 30,0 C 54 % 1018,2 hPa 0,0 l/m 16,1 km/h (3 Bft) NO 48 2 min 0,000 mm 2,6 UV-I 617 W/m 10,5 C 17,1 C 22,5 km/h (4 Bft) 95,92 %
03.07.2019 09:30 20,0 C 25,0 C 30,6 C 54 % 1018,2 hPa 0,0 l/m 10,3 km/h (2 Bft) N-NO 30 2 min 0,000 mm 2,6 UV-I 632 W/m 10,4 C 18,5 C 16,1 km/h (3 Bft) 96,00 %
03.07.2019 09:32 20,1 C 25,0 C 30,6 C 55 % 1018,2 hPa 0,0 l/m 8,1 km/h (2 Bft) O 82 2 min 0,000 mm 2,7 UV-I 641 W/m 10,8 C 19,4 C 12,9 km/h (3 Bft) 97,92 %
03.07.2019 09:34 20,0 C 25,0 C 31,1 C 58 % 1018,2 hPa 0,0 l/m 9,4 km/h (2 Bft) O-NO 63 2 min 0,000 mm 2,7 UV-I 635 W/m 11,5 C 18,8 C 19,3 km/h (3 Bft) 97,87 %
03.07.2019 09:36 20,2 C 25,0 C 30,6 C 56 % 1018,2 hPa 0,0 l/m 12,7 km/h (3 Bft) O-NO 67 2 min 0,000 mm 2,8 UV-I 643 W/m 11,1 C 18,1 C 19,3 km/h (3 Bft) 97,87 %
03.07.2019 09:38 20,3 C 25,0 C 31,1 C 55 % 1018,2 hPa 0,0 l/m 11,0 km/h (2 Bft) O-NO 78 2 min 0,000 mm 2,8 UV-I 655 W/m 11,0 C 18,7 C 16,1 km/h (3 Bft) 98,00 %
03.07.2019 09:40 20,2 C 25,0 C 31,1 C 54 % 1018,2 hPa 0,0 l/m 10,4 km/h (2 Bft) O-NO 63 2 min 0,000 mm 2,9 UV-I 670 W/m 10,6 C 18,7 C 14,5 km/h (3 Bft) 95,74 %
03.07.2019 09:42 20,2 C 25,0 C 31,7 C 55 % 1018,2 hPa 0,0 l/m 10,1 km/h (2 Bft) O 92 2 min 0,000 mm 2,9 UV-I 672 W/m 10,9 C 18,8 C 17,7 km/h (3 Bft) 97,37 %
03.07.2019 09:44 20,4 C 25,0 C 31,7 C 56 % 1018,2 hPa 0,0 l/m 14,8 km/h (3 Bft) O 86 2 min 0,000 mm 2,9 UV-I 642 W/m 11,3 C 17,8 C 17,7 km/h (3 Bft) 96,00 %
03.07.2019 09:46 20,5 C 25,0 C 32,2 C 55 % 1018,2 hPa 0,0 l/m 7,5 km/h (2 Bft) O 90 2 min 0,000 mm 3,0 UV-I 673 W/m 11,1 C 20,1 C 11,3 km/h (2 Bft) 97,87 %
03.07.2019 09:48 20,7 C 25,0 C 33,3 C 59 % 1018,2 hPa 0,0 l/m 5,0 km/h (1 Bft) O 81 2 min 0,000 mm 3,0 UV-I 668 W/m 12,4 C 20,7 C 8,0 km/h (2 Bft) 95,74 %
03.07.2019 09:50 20,7 C 25,6 C 33,3 C 54 % 1018,2 hPa 0,0 l/m 4,2 km/h (1 Bft) O 86 2 min 0,000 mm 3,1 UV-I 685 W/m 11,1 C 20,7 C 11,3 km/h (2 Bft) 93,62 %
03.07.2019 09:52 20,7 C 25,6 C 33,3 C 56 % 1018,2 hPa 0,0 l/m 4,6 km/h (1 Bft) O-NO 63 2 min 0,000 mm 3,2 UV-I 699 W/m 11,6 C 20,7 C 9,7 km/h (2 Bft) 97,87 %
03.07.2019 09:54 20,7 C 25,0 C 33,3 C 56 % 1018,2 hPa 0,0 l/m 7,0 km/h (2 Bft) O-NO 77 2 min 0,000 mm 3,2 UV-I 704 W/m 11,6 C 20,5 C 12,9 km/h (3 Bft) 95,74 %
03.07.2019 09:56 20,7 C 25,6 C 32,8 C 55 % 1018,2 hPa 0,0 l/m 10,2 km/h (2 Bft) NO 40 2 min 0,000 mm 3,3 UV-I 715 W/m 11,3 C 19,4 C 16,1 km/h (3 Bft) 95,74 %
03.07.2019 09:58 20,8 C 25,0 C 31,1 C 57 % 1018,2 hPa 0,0 l/m 13,1 km/h (3 Bft) NO 41 2 min 0,000 mm 3,2 UV-I 672 W/m 12,0 C 18,7 C 20,9 km/h (4 Bft) 94,00 %
03.07.2019 10:00 20,8 C 25,0 C 30,6 C 58 % 1018,2 hPa 0,0 l/m 13,1 km/h (3 Bft) NO 49 2 min 0,431 mm 3,2 UV-I 698 W/m 12,2 C 18,7 C 20,9 km/h (4 Bft) 93,62 %
03.07.2019 10:02 20,8 C 25,0 C 30,6 C 58 % 1018,3 hPa 0,0 l/m 7,9 km/h (2 Bft) N-NO 30 2 min 0,000 mm 3,2 UV-I 705 W/m 12,2 C 20,2 C 14,5 km/h (3 Bft) 95,74 %
03.07.2019 10:04 20,9 C 25,6 C 31,1 C 60 % 1018,3 hPa 0,0 l/m 9,0 km/h (2 Bft) O-NO 59 2 min 0,000 mm 3,4 UV-I 711 W/m 12,8 C 20,0 C 12,9 km/h (3 Bft) 94,87 %
03.07.2019 10:06 21,2 C 25,6 C 32,2 C 57 % 1018,2 hPa 0,0 l/m 10,4 km/h (2 Bft) O-NO 69 2 min 0,000 mm 3,5 UV-I 720 W/m 12,3 C 19,8 C 16,1 km/h (3 Bft) 90,00 %
03.07.2019 10:08 21,2 C 25,6 C 32,2 C 58 % 1018,2 hPa 0,0 l/m 9,9 km/h (2 Bft) NO 53 2 min 0,000 mm 3,5 UV-I 718 W/m 12,6 C 20,0 C 16,1 km/h (3 Bft) 93,62 %
03.07.2019 10:10 21,2 C 25,6 C 32,2 C 58 % 1018,2 hPa 0,0 l/m 9,9 km/h (2 Bft) NO 39 2 min 0,000 mm 3,6 UV-I 735 W/m 12,6 C 20,0 C 16,1 km/h (3 Bft) 94,00 %
03.07.2019 10:12 21,2 C 25,6 C 32,8 C 55 % 1018,2 hPa 0,0 l/m 6,9 km/h (2 Bft) O-NO 70 2 min 0,000 mm 3,6 UV-I 734 W/m 11,8 C 21,0 C 11,3 km/h (2 Bft) 94,74 %
03.07.2019 10:14 20,9 C 25,6 C 32,2 C 56 % 1018,2 hPa 0,0 l/m 9,6 km/h (2 Bft) O-NO 64 2 min 0,000 mm 3,7 UV-I 753 W/m 11,8 C 19,8 C 17,7 km/h (3 Bft) 96,00 %
03.07.2019 10:16 21,1 C 25,6 C 31,7 C 57 % 1018,1 hPa 0,0 l/m 9,3 km/h (2 Bft) O-NO 57 2 min 0,000 mm 3,7 UV-I 745 W/m 12,2 C 20,1 C 16,1 km/h (3 Bft) 93,62 %
03.07.2019 10:18 21,2 C 25,6 C 32,8 C 57 % 1018,2 hPa 0,0 l/m 9,4 km/h (2 Bft) N-NO 22 2 min 0,000 mm 3,8 UV-I 754 W/m 12,3 C 20,1 C 14,5 km/h (3 Bft) 97,87 %
03.07.2019 10:20 21,3 C 25,6 C 32,8 C 55 % 1018,2 hPa 0,0 l/m 10,4 km/h (2 Bft) O 92 2 min 0,000 mm 3,7 UV-I 734 W/m 11,9 C 20,0 C 16,1 km/h (3 Bft) 96,00 %
03.07.2019 10:22 21,3 C 25,6 C 32,8 C 54 % 1018,1 hPa 0,0 l/m 13,2 km/h (3 Bft) O-NO 57 2 min 0,000 mm 3,8 UV-I 748 W/m 11,6 C 19,2 C 19,3 km/h (3 Bft) 97,87 %
03.07.2019 10:24 21,2 C 25,6 C 32,2 C 55 % 1018,2 hPa 0,0 l/m 9,6 km/h (2 Bft) NO 38 2 min 0,000 mm 3,9 UV-I 740 W/m 11,8 C 20,1 C 16,1 km/h (3 Bft) 98,00 %
03.07.2019 10:26 21,3 C 25,6 C 32,8 C 55 % 1018,3 hPa 0,0 l/m 7,0 km/h (2 Bft) O 85 2 min 0,000 mm 4,0 UV-I 777 W/m 11,9 C 21,1 C 14,5 km/h (3 Bft) 97,87 %
03.07.2019 10:28 21,3 C 25,6 C 33,9 C 54 % 1018,3 hPa 0,0 l/m 8,4 km/h (2 Bft) O 83 2 min 0,000 mm 4,0 UV-I 781 W/m 11,6 C 20,6 C 16,1 km/h (3 Bft) 100,00 %
03.07.2019 10:30 21,3 C 25,6 C 33,9 C 56 % 1018,3 hPa 0,0 l/m 10,7 km/h (2 Bft) NO 42 2 min 0,000 mm 4,1 UV-I 787 W/m 12,2 C 19,9 C 17,7 km/h (3 Bft) 93,62 %
03.07.2019 10:32 21,7 C 25,6 C 33,9 C 57 % 1018,3 hPa 0,0 l/m 13,4 km/h (3 Bft) N-NO 22 2 min 0,000 mm 4,1 UV-I 791 W/m 12,8 C 19,7 C 17,7 km/h (3 Bft) 98,00 %
03.07.2019 10:34 21,9 C 25,6 C 35,0 C 56 % 1018,3 hPa 0,0 l/m 10,2 km/h (2 Bft) O 96 2 min 0,000 mm 4,2 UV-I 800 W/m 12,7 C 20,7 C 16,1 km/h (3 Bft) 95,74 %
03.07.2019 10:36 21,9 C 25,6 C 35,6 C 54 % 1018,4 hPa 0,0 l/m 9,9 km/h (2 Bft) O 90 2 min 0,000 mm 4,1 UV-I 782 W/m 12,2 C 20,8 C 16,1 km/h (3 Bft) 100,00 %
03.07.2019 10:38 21,7 C 25,6 C 35,0 C 55 % 1018,4 hPa 0,0 l/m 6,6 km/h (2 Bft) O-NO 60 2 min 0,000 mm 4,0 UV-I 738 W/m 12,3 C 21,6 C 14,5 km/h (3 Bft) 100,00 %
03.07.2019 10:40 21,6 C 25,6 C 33,3 C 55 % 1018,3 hPa 0,0 l/m 10,6 km/h (2 Bft) NO 54 2 min 0,000 mm 3,9 UV-I 660 W/m 12,2 C 20,2 C 16,1 km/h (3 Bft) 97,22 %
03.07.2019 10:42 21,5 C 25,6 C 33,3 C 55 % 1018,3 hPa 0,0 l/m 6,6 km/h (2 Bft) NO 51 2 min 0,000 mm 4,1 UV-I 743 W/m 12,1 C 21,4 C 9,7 km/h (2 Bft) 97,87 %
03.07.2019 10:44 21,4 C 25,6 C 32,2 C 54 % 1018,3 hPa 0,0 l/m 7,2 km/h (2 Bft) O-NO 78 2 min 0,000 mm 4,1 UV-I 749 W/m 11,7 C 21,1 C 14,5 km/h (3 Bft) 100,00 %
03.07.2019 10:46 21,5 C 25,6 C 32,2 C 54 % 1018,3 hPa 0,0 l/m 9,5 km/h (2 Bft) O-SO 110 2 min 0,000 mm 4,0 UV-I 709 W/m 11,8 C 20,4 C 16,1 km/h (3 Bft) 97,87 %
03.07.2019 10:48 21,6 C 25,6 C 32,8 C 55 % 1018,3 hPa 0,0 l/m 9,1 km/h (2 Bft) N 9 2 min 0,000 mm 4,1 UV-I 674 W/m 12,2 C 20,7 C 14,5 km/h (3 Bft) 100,00 %
03.07.2019 10:50 21,7 C 25,6 C 32,8 C 56 % 1018,2 hPa 0,0 l/m 11,9 km/h (2 Bft) NO 53 2 min 0,000 mm 4,4 UV-I 808 W/m 12,5 C 20,0 C 16,1 km/h (3 Bft) 100,00 %
03.07.2019 10:52 21,8 C 25,6 C 33,9 C 52 % 1018,3 hPa 0,0 l/m 8,5 km/h (2 Bft) O 93 2 min 0,000 mm 4,5 UV-I 816 W/m 11,5 C 21,1 C 14,5 km/h (3 Bft) 100,00 %
03.07.2019 10:54 21,7 C 25,6 C 34,4 C 53 % 1018,2 hPa 0,0 l/m 7,7 km/h (2 Bft) O 95 2 min 0,000 mm 4,6 UV-I 824 W/m 11,7 C 21,2 C 12,9 km/h (3 Bft) 100,00 %
03.07.2019 10:56 21,8 C 25,6 C 33,9 C 54 % 1018,3 hPa 0,0 l/m 9,0 km/h (2 Bft) N 5 2 min 0,000 mm 4,6 UV-I 820 W/m 12,1 C 20,9 C 20,9 km/h (4 Bft) 100,00 %
03.07.2019 10:58 22,2 C 25,6 C 35,0 C 55 % 1018,3 hPa 0,0 l/m 11,1 km/h (2 Bft) O-NO 73 2 min 0,000 mm 4,6 UV-I 817 W/m 12,7 C 20,8 C 17,7 km/h (3 Bft) 97,87 %
03.07.2019 11:00 22,3 C 25,6 C 35,0 C 57 % 1018,3 hPa 0,0 l/m 8,7 km/h (2 Bft) NO 49 2 min 0,508 mm 4,7 UV-I 822 W/m 13,4 C 21,6 C 14,5 km/h (3 Bft) 97,87 %
03.07.2019 11:02 22,4 C 25,6 C 35,6 C 53 % 1018,2 hPa 0,0 l/m 9,5 km/h (2 Bft) O-SO 114 2 min 0,000 mm 4,8 UV-I 846 W/m 12,3 C 21,4 C 16,1 km/h (3 Bft) 97,87 %
03.07.2019 11:04 22,1 C 25,6 C 36,1 C 51 % 1018,2 hPa 0,0 l/m 6,5 km/h (2 Bft) N-NO 25 2 min 0,000 mm 4,7 UV-I 838 W/m 11,5 C 22,1 C 14,5 km/h (3 Bft) 97,87 %
03.07.2019 11:06 22,1 C 25,6 C 34,4 C 52 % 1018,3 hPa 0,0 l/m 8,9 km/h (2 Bft) N-NW 335 2 min 0,000 mm 4,6 UV-I 785 W/m 11,8 C 21,3 C 17,7 km/h (3 Bft) 95,74 %
03.07.2019 11:08 22,1 C 25,6 C 35,6 C 54 % 1018,3 hPa 0,0 l/m 2,9 km/h (1 Bft) N-NW 339 2 min 0,000 mm 4,7 UV-I 807 W/m 12,3 C 22,1 C 4,8 km/h (1 Bft) 97,37 %
03.07.2019 11:10 22,0 C 25,6 C 35,6 C 52 % 1018,2 hPa 0,0 l/m 2,0 km/h (1 Bft) N 355 2 min 0,000 mm 4,5 UV-I 780 W/m 11,7 C 22,0 C 4,8 km/h (1 Bft) 100,00 %
03.07.2019 11:12 21,9 C 25,6 C 34,4 C 57 % 1018,2 hPa 0,0 l/m 8,1 km/h (2 Bft) N-NO 31 2 min 0,000 mm 3,9 UV-I 669 W/m 13,0 C 21,3 C 16,1 km/h (3 Bft) 100,00 %
03.07.2019 11:14 21,9 C 25,6 C 32,2 C 56 % 1018,2 hPa 0,0 l/m 12,0 km/h (2 Bft) NO 34 2 min 0,000 mm 4,2 UV-I 534 W/m 12,7 C 20,2 C 17,7 km/h (3 Bft) 100,00 %
03.07.2019 11:16 22,1 C 25,6 C 32,2 C 55 % 1018,2 hPa 0,0 l/m 11,0 km/h (2 Bft) NO 35 2 min 0,000 mm 4,6 UV-I 780 W/m 12,6 C 20,7 C 16,1 km/h (3 Bft) 100,00 %
03.07.2019 11:18 22,3 C 25,6 C 32,2 C 53 % 1018,2 hPa 0,0 l/m 10,2 km/h (2 Bft) O-NO 78 2 min 0,000 mm 4,2 UV-I 722 W/m 12,2 C 21,1 C 19,3 km/h (3 Bft) 100,00 %
03.07.2019 11:20 22,3 C 25,6 C 33,3 C 56 % 1018,2 hPa 0,0 l/m 9,8 km/h (2 Bft) NO 52 2 min 0,000 mm 4,7 UV-I 762 W/m 13,1 C 21,2 C 14,5 km/h (3 Bft) 100,00 %
03.07.2019 11:22 22,3 C 25,6 C 33,3 C 55 % 1018,2 hPa 0,0 l/m 6,9 km/h (2 Bft) N-NO 17 2 min 0,000 mm 4,8 UV-I 812 W/m 12,8 C 22,1 C 12,9 km/h (3 Bft) 100,00 %
03.07.2019 11:24 22,5 C 25,6 C 34,4 C 59 % 1018,2 hPa 0,0 l/m 7,7 km/h (2 Bft) NO 53 2 min 0,000 mm 5,0 UV-I 844 W/m 14,1 C 22,1 C 14,5 km/h (3 Bft) 97,87 %
03.07.2019 11:26 22,5 C 25,6 C 33,9 C 54 % 1018,1 hPa 0,0 l/m 7,2 km/h (2 Bft) NO 40 2 min 0,000 mm 4,5 UV-I 865 W/m 12,7 C 22,2 C 11,3 km/h (2 Bft) 93,62 %
03.07.2019 11:28 22,3 C 25,6 C 33,9 C 53 % 1018,1 hPa 0,0 l/m 7,6 km/h (2 Bft) NO 40 2 min 0,000 mm 5,0 UV-I 806 W/m 12,2 C 21,9 C 14,5 km/h (3 Bft) 97,87 %
03.07.2019 11:30 22,6 C 25,6 C 33,9 C 55 % 1018,0 hPa 0,0 l/m 10,6 km/h (2 Bft) N-NO 28 2 min 0,000 mm 5,0 UV-I 798 W/m 13,1 C 21,4 C 14,5 km/h (3 Bft) 97,87 %
03.07.2019 11:32 22,7 C 25,6 C 33,3 C 54 % 1018,0 hPa 0,0 l/m 11,2 km/h (2 Bft) N-NO 29 2 min 0,000 mm 5,1 UV-I 769 W/m 12,9 C 21,3 C 16,1 km/h (3 Bft) 97,87 %
03.07.2019 11:34 22,9 C 25,6 C 34,4 C 56 % 1018,0 hPa 0,0 l/m 8,2 km/h (2 Bft) N 11 2 min 0,000 mm 5,3 UV-I 883 W/m 13,6 C 22,3 C 14,5 km/h (3 Bft) 97,87 %
03.07.2019 11:36 23,1 C 25,6 C 36,1 C 54 % 1018,0 hPa 0,0 l/m 8,0 km/h (2 Bft) O-NO 73 2 min 0,000 mm 5,3 UV-I 860 W/m 13,3 C 22,6 C 14,5 km/h (3 Bft) 98,00 %
03.07.2019 11:38 23,0 C 25,6 C 35,6 C 50 % 1018,1 hPa 0,0 l/m 8,4 km/h (2 Bft) O 90 2 min 0,000 mm 5,3 UV-I 871 W/m 12,0 C 22,4 C 14,5 km/h (3 Bft) 97,87 %
03.07.2019 11:40 22,8 C 25,6 C 36,1 C 50 % 1018,1 hPa 0,0 l/m 6,1 km/h (2 Bft) O-SO 118 2 min 0,000 mm 5,3 UV-I 855 W/m 11,8 C 22,8 C 11,3 km/h (2 Bft) 95,74 %
03.07.2019 11:42 22,9 C 25,6 C 36,7 C 55 % 1018,1 hPa 0,0 l/m 8,1 km/h (2 Bft) NO 43 2 min 0,000 mm 5,2 UV-I 826 W/m 13,4 C 22,4 C 12,9 km/h (3 Bft) 95,74 %
03.07.2019 11:44 23,0 C 25,6 C 36,1 C 50 % 1018,1 hPa 0,0 l/m 9,3 km/h (2 Bft) O 92 2 min 0,000 mm 5,0 UV-I 785 W/m 12,0 C 22,1 C 14,5 km/h (3 Bft) 97,87 %
03.07.2019 11:46 23,1 C 25,6 C 36,7 C 52 % 1018,2 hPa 0,0 l/m 10,1 km/h (2 Bft) O 82 2 min 0,000 mm 5,2 UV-I 733 W/m 12,7 C 22,0 C 16,1 km/h (3 Bft) 97,56 %
03.07.2019 11:48 23,1 C 25,6 C 37,2 C 49 % 1018,2 hPa 0,0 l/m 6,1 km/h (2 Bft) O 93 2 min 0,000 mm 5,4 UV-I 850 W/m 11,8 C 23,1 C 11,3 km/h (2 Bft) 95,74 %
03.07.2019 11:50 22,8 C 25,6 C 37,8 C 49 % 1018,2 hPa 0,0 l/m 4,2 km/h (1 Bft) O 94 2 min 0,000 mm 5,5 UV-I 890 W/m 11,5 C 22,8 C 9,7 km/h (2 Bft) 96,00 %
03.07.2019 11:52 22,6 C 25,6 C 38,3 C 48 % 1018,1 hPa 0,0 l/m 2,0 km/h (1 Bft) O 94 2 min 0,000 mm 5,6 UV-I 909 W/m 11,0 C 22,6 C 3,2 km/h (1 Bft) 98,00 %
03.07.2019 11:54 22,6 C 25,6 C 38,9 C 52 % 1018,2 hPa 0,0 l/m 2,6 km/h (1 Bft) O 94 2 min 0,000 mm 5,6 UV-I 912 W/m 12,2 C 22,6 C 4,8 km/h (1 Bft) 95,74 %
03.07.2019 11:56 22,7 C 25,6 C 38,9 C 50 % 1018,2 hPa 0,0 l/m 3,8 km/h (1 Bft) O-SO 123 2 min 0,000 mm 5,7 UV-I 892 W/m 11,7 C 22,7 C 8,0 km/h (2 Bft) 95,83 %
03.07.2019 11:58 22,8 C 25,6 C 39,4 C 55 % 1018,2 hPa 0,0 l/m 6,6 km/h (2 Bft) O-NO 68 2 min 0,000 mm 5,4 UV-I 866 W/m 13,3 C 22,7 C 11,3 km/h (2 Bft) 97,87 %
03.07.2019 12:00 23,2 C 25,6 C 38,3 C 54 % 1018,2 hPa 0,0 l/m 10,7 km/h (2 Bft) O-NO 60 2 min 0,534 mm 5,4 UV-I 833 W/m 13,4 C 22,0 C 17,7 km/h (3 Bft) 97,87 %
03.07.2019 12:02 23,2 C 25,6 C 37,2 C 50 % 1018,2 hPa 0,0 l/m 5,4 km/h (1 Bft) N-NO 18 2 min 0,000 mm 5,3 UV-I 821 W/m 12,2 C 23,2 C 9,7 km/h (2 Bft) 94,74 %
03.07.2019 12:04 23,1 C 25,6 C 36,7 C 51 % 1018,1 hPa 0,0 l/m 4,6 km/h (1 Bft) O-NO 74 2 min 0,000 mm 5,3 UV-I 807 W/m 12,4 C 23,1 C 8,0 km/h (2 Bft) 95,74 %
03.07.2019 12:06 23,1 C 25,6 C 36,1 C 53 % 1018,1 hPa 0,0 l/m 7,0 km/h (2 Bft) O 80 2 min 0,000 mm 5,2 UV-I 797 W/m 13,0 C 22,9 C 14,5 km/h (3 Bft) 98,00 %
03.07.2019 12:08 23,1 C 25,6 C 36,1 C 51 % 1018,1 hPa 0,0 l/m 12,7 km/h (3 Bft) O 93 2 min 0,000 mm 5,3 UV-I 817 W/m 12,4 C 21,5 C 17,7 km/h (3 Bft) 97,87 %
03.07.2019 12:10 23,1 C 25,6 C 36,7 C 50 % 1018,1 hPa 0,0 l/m 7,2 km/h (2 Bft) O-SO 103 2 min 0,000 mm 5,4 UV-I 838 W/m 12,1 C 22,8 C 11,3 km/h (2 Bft) 94,00 %
03.07.2019 12:12 23,3 C 25,6 C 37,2 C 51 % 1018,1 hPa 0,0 l/m 3,3 km/h (1 Bft) S-SO 148 2 min 0,000 mm 5,3 UV-I 782 W/m 12,6 C 23,3 C 4,8 km/h (1 Bft) 93,62 %
03.07.2019 12:14 23,3 C 25,6 C 37,8 C 50 % 1018,0 hPa 0,0 l/m 3,1 km/h (1 Bft) S-SO 163 2 min 0,000 mm 5,5 UV-I 836 W/m 12,3 C 23,3 C 6,4 km/h (2 Bft) 97,87 %
03.07.2019 12:16 23,4 C 25,6 C 37,8 C 50 % 1018,1 hPa 0,0 l/m 1,0 km/h (0 Bft) S-SO 163 2 min 0,000 mm 5,6 UV-I 876 W/m 12,4 C 23,4 C 1,6 km/h (1 Bft) 95,74 %
03.07.2019 12:18 23,4 C 25,6 C 38,9 C 51 % 1018,1 hPa 0,0 l/m 2,9 km/h (1 Bft) O-NO 67 2 min 0,000 mm 5,8 UV-I 898 W/m 12,7 C 23,4 C 4,8 km/h (1 Bft) 95,12 %
03.07.2019 12:20 23,6 C 25,6 C 38,9 C 50 % 1018,1 hPa 0,0 l/m 5,7 km/h (1 Bft) SO 126 2 min 0,000 mm 5,8 UV-I 898 W/m 12,6 C 23,6 C 8,0 km/h (2 Bft) 95,74 %
03.07.2019 12:22 23,8 C 25,6 C 38,3 C 53 % 1018,0 hPa 0,0 l/m 12,0 km/h (2 Bft) NO 43 2 min 0,000 mm 5,9 UV-I 900 W/m 13,6 C 22,4 C 17,7 km/h (3 Bft) 97,87 %
03.07.2019 12:24 23,9 C 25,6 C 36,7 C 52 % 1018,1 hPa 0,0 l/m 9,4 km/h (2 Bft) N-NO 32 2 min 0,000 mm 5,9 UV-I 892 W/m 13,4 C 23,1 C 14,5 km/h (3 Bft) 97,87 %
03.07.2019 12:26 23,7 C 25,6 C 37,2 C 51 % 1018,1 hPa 0,0 l/m 3,4 km/h (1 Bft) O 89 2 min 0,000 mm 5,9 UV-I 914 W/m 13,0 C 23,7 C 8,0 km/h (2 Bft) 95,74 %
03.07.2019 12:28 23,6 C 25,6 C 37,8 C 50 % 1018,1 hPa 0,0 l/m 6,0 km/h (2 Bft) O-SO 122 2 min 0,000 mm 6,1 UV-I 968 W/m 12,6 C 23,6 C 11,3 km/h (2 Bft) 96,00 %
03.07.2019 12:30 23,8 C 25,6 C 37,8 C 51 % 1018,0 hPa 0,0 l/m 9,7 km/h (2 Bft) O 92 2 min 0,000 mm 6,0 UV-I 960 W/m 13,0 C 22,9 C 16,1 km/h (3 Bft) 100,00 %
03.07.2019 12:32 23,9 C 25,6 C 37,8 C 52 % 1018,1 hPa 0,0 l/m 13,3 km/h (3 Bft) O 94 2 min 0,000 mm 5,8 UV-I 923 W/m 13,4 C 22,3 C 19,3 km/h (3 Bft) 97,87 %
03.07.2019 12:34 23,8 C 25,6 C 37,2 C 50 % 1018,0 hPa 0,0 l/m 8,2 km/h (2 Bft) O-NO 64 2 min 0,000 mm 5,3 UV-I 880 W/m 12,7 C 23,3 C 12,9 km/h (3 Bft) 100,00 %
03.07.2019 12:36 23,7 C 25,6 C 37,2 C 48 % 1018,0 hPa 0,0 l/m 3,7 km/h (1 Bft) NO 49 2 min 0,000 mm 5,5 UV-I 766 W/m 12,0 C 23,7 C 8,0 km/h (2 Bft) 100,00 %
03.07.2019 12:38 23,7 C 25,6 C 37,8 C 50 % 1018,0 hPa 0,0 l/m 4,0 km/h (1 Bft) O 90 2 min 0,000 mm 5,5 UV-I 776 W/m 12,6 C 23,7 C 9,7 km/h (2 Bft) 98,00 %
03.07.2019 12:40 23,4 C 26,1 C 38,3 C 49 % 1017,9 hPa 0,0 l/m 3,1 km/h (1 Bft) S-SO 150 2 min 0,000 mm 5,8 UV-I 901 W/m 12,1 C 23,4 C 4,8 km/h (1 Bft) 97,87 %
03.07.2019 12:42 23,4 C 26,1 C 38,9 C 51 % 1018,0 hPa 0,0 l/m 4,4 km/h (1 Bft) O-NO 68 2 min 0,000 mm 6,0 UV-I 936 W/m 12,7 C 23,4 C 8,0 km/h (2 Bft) 98,00 %
03.07.2019 12:44 23,5 C 26,1 C 38,9 C 50 % 1018,0 hPa 0,0 l/m 2,7 km/h (1 Bft) O-SO 121 2 min 0,000 mm 5,8 UV-I 892 W/m 12,5 C 23,5 C 4,8 km/h (1 Bft) 100,00 %
03.07.2019 12:46 23,6 C 26,1 C 37,8 C 52 % 1017,9 hPa 0,0 l/m 4,1 km/h (1 Bft) N-NW 339 2 min 0,000 mm 5,4 UV-I 770 W/m 13,2 C 23,6 C 11,3 km/h (2 Bft) 100,00 %
03.07.2019 12:48 23,7 C 26,1 C 37,2 C 51 % 1018,0 hPa 0,0 l/m 8,1 km/h (2 Bft) N 5 2 min 0,000 mm 5,6 UV-I 841 W/m 13,0 C 23,2 C 14,5 km/h (3 Bft) 100,00 %
03.07.2019 12:50 23,8 C 26,1 C 35,6 C 51 % 1017,9 hPa 0,0 l/m 9,7 km/h (2 Bft) N-NW 335 2 min 0,000 mm 5,3 UV-I 909 W/m 13,0 C 22,9 C 16,1 km/h (3 Bft) 100,00 %
03.07.2019 12:52 23,8 C 26,1 C 35,6 C 50 % 1017,9 hPa 0,0 l/m 7,6 km/h (2 Bft) N-NW 341 2 min 0,000 mm 5,9 UV-I 979 W/m 12,7 C 23,5 C 12,9 km/h (3 Bft) 100,00 %
03.07.2019 12:54 23,8 C 26,1 C 35,6 C 51 % 1017,9 hPa 0,0 l/m 9,0 km/h (2 Bft) NO 34 2 min 0,000 mm 6,0 UV-I 1018 W/m 13,0 C 23,1 C 14,5 km/h (3 Bft) 100,00 %
03.07.2019 12:56 23,9 C 26,1 C 36,1 C 52 % 1017,9 hPa 0,0 l/m 9,6 km/h (2 Bft) N-NW 327 2 min 0,000 mm 6,3 UV-I 1005 W/m 13,4 C 23,0 C 14,5 km/h (3 Bft) 100,00 %
03.07.2019 12:58 23,9 C 26,1 C 35,6 C 49 % 1017,8 hPa 0,0 l/m 8,5 km/h (2 Bft) N 355 2 min 0,000 mm 5,9 UV-I 1013 W/m 12,5 C 23,3 C 19,3 km/h (3 Bft) 100,00 %
03.07.2019 13:00 23,8 C 26,1 C 35,0 C 51 % 1017,9 hPa 0,0 l/m 7,6 km/h (2 Bft) NO 46 2 min 0,000 mm 6,0 UV-I 1014 W/m 13,0 C 23,5 C 14,5 km/h (3 Bft) 95,74 %
03.07.2019 13:02 24,1 C 26,1 C 35,6 C 52 % 1017,8 hPa 0,0 l/m 10,6 km/h (2 Bft) N 355 2 min 0,584 mm 6,1 UV-I 1036 W/m 13,6 C 23,0 C 16,1 km/h (3 Bft) 93,62 %
03.07.2019 13:04 24,3 C 26,1 C 35,6 C 52 % 1017,9 hPa 0,0 l/m 15,1 km/h (3 Bft) N 11 2 min 0,000 mm 6,4 UV-I 1034 W/m 13,8 C 22,4 C 20,9 km/h (4 Bft) 93,62 %
03.07.2019 13:06 24,3 C 26,1 C 35,0 C 50 % 1017,8 hPa 0,0 l/m 9,2 km/h (2 Bft) NO 34 2 min 0,000 mm 5,5 UV-I 916 W/m 13,2 C 23,6 C 12,9 km/h (3 Bft) 93,62 %
03.07.2019 13:08 24,2 C 26,1 C 35,0 C 53 % 1017,8 hPa 0,0 l/m 8,6 km/h (2 Bft) NO 55 2 min 0,000 mm 5,8 UV-I 812 W/m 14,0 C 23,6 C 12,9 km/h (3 Bft) 95,74 %
03.07.2019 13:10 24,3 C 26,1 C 36,7 C 51 % 1017,8 hPa 0,0 l/m 10,4 km/h (2 Bft) N-NO 19 2 min 0,000 mm 6,3 UV-I 1013 W/m 13,5 C 23,3 C 14,5 km/h (3 Bft) 94,44 %
03.07.2019 13:12 24,3 C 26,1 C 36,7 C 51 % 1017,8 hPa 0,0 l/m 7,1 km/h (2 Bft) N 360 2 min 0,000 mm 6,1 UV-I 1014 W/m 13,5 C 24,1 C 11,3 km/h (2 Bft) 96,00 %
03.07.2019 13:14 24,2 C 26,1 C 37,2 C 48 % 1017,8 hPa 0,0 l/m 8,4 km/h (2 Bft) N 355 2 min 0,000 mm 6,2 UV-I 996 W/m 12,5 C 23,7 C 12,9 km/h (3 Bft) 93,62 %
03.07.2019 13:16 24,3 C 26,1 C 36,7 C 48 % 1017,8 hPa 0,0 l/m 6,9 km/h (2 Bft) O-NO 57 2 min 0,000 mm 6,1 UV-I 983 W/m 12,6 C 24,2 C 11,3 km/h (2 Bft) 95,74 %
03.07.2019 13:18 24,3 C 26,1 C 37,2 C 48 % 1017,7 hPa 0,0 l/m 6,4 km/h (2 Bft) NO 55 2 min 0,000 mm 6,0 UV-I 979 W/m 12,6 C 24,3 C 11,3 km/h (2 Bft) 93,62 %
03.07.2019 13:20 24,6 C 26,1 C 37,8 C 50 % 1017,8 hPa 0,0 l/m 8,8 km/h (2 Bft) N 355 2 min 0,000 mm 6,0 UV-I 963 W/m 13,5 C 24,0 C 14,5 km/h (3 Bft) 91,49 %
03.07.2019 13:22 24,7 C 26,1 C 37,2 C 44 % 1017,8 hPa 0,0 l/m 7,5 km/h (2 Bft) N-NO 15 2 min 0,000 mm 6,0 UV-I 970 W/m 11,6 C 24,4 C 12,9 km/h (3 Bft) 95,74 %
03.07.2019 13:24 24,4 C 26,1 C 37,8 C 44 % 1017,7 hPa 0,0 l/m 3,1 km/h (1 Bft) N-NO 15 2 min 0,000 mm 6,1 UV-I 945 W/m 11,3 C 24,4 C 4,8 km/h (1 Bft) 95,74 %
03.07.2019 13:26 24,6 C 26,1 C 38,9 C 47 % 1017,7 hPa 0,0 l/m 4,0 km/h (1 Bft) W-NW 299 2 min 0,000 mm 6,0 UV-I 954 W/m 12,5 C 24,6 C 6,4 km/h (2 Bft) 97,87 %
03.07.2019 13:28 24,7 C 26,1 C 38,9 C 46 % 1017,7 hPa 0,0 l/m 5,2 km/h (1 Bft) N-NW 344 2 min 0,000 mm 6,1 UV-I 975 W/m 12,3 C 24,7 C 8,0 km/h (2 Bft) 98,00 %
03.07.2019 13:30 24,5 C 26,1 C 38,9 C 44 % 1017,7 hPa 0,0 l/m 3,3 km/h (1 Bft) W-NW 287 2 min 0,000 mm 6,1 UV-I 962 W/m 11,4 C 24,5 C 6,4 km/h (2 Bft) 94,74 %
03.07.2019 13:32 24,2 C 26,1 C 38,9 C 44 % 1017,6 hPa 0,0 l/m 1,8 km/h (1 Bft) W-NW 287 2 min 0,000 mm 6,1 UV-I 950 W/m 11,2 C 24,2 C 3,2 km/h (1 Bft) 96,00 %
03.07.2019 13:34 24,1 C 26,1 C 38,3 C 49 % 1017,7 hPa 0,0 l/m 6,3 km/h (2 Bft) N 360 2 min 0,000 mm 6,1 UV-I 952 W/m 12,7 C 24,1 C 12,9 km/h (3 Bft) 97,87 %
03.07.2019 13:36 24,1 C 26,1 C 38,3 C 46 % 1017,6 hPa 0,0 l/m 4,1 km/h (1 Bft) NW 313 2 min 0,000 mm 5,8 UV-I 890 W/m 11,7 C 24,1 C 6,4 km/h (2 Bft) 95,74 %
03.07.2019 13:38 24,0 C 26,1 C 37,2 C 45 % 1017,6 hPa 0,0 l/m 4,7 km/h (1 Bft) NW 305 2 min 0,000 mm 5,5 UV-I 829 W/m 11,3 C 24,0 C 9,7 km/h (2 Bft) 96,00 %
03.07.2019 13:40 24,0 C 26,1 C 37,2 C 48 % 1017,6 hPa 0,0 l/m 3,6 km/h (1 Bft) NW 317 2 min 0,000 mm 5,3 UV-I 823 W/m 12,3 C 24,0 C 8,0 km/h (2 Bft) 95,74 %
03.07.2019 13:42 24,1 C 26,1 C 37,2 C 50 % 1017,5 hPa 0,0 l/m 2,4 km/h (1 Bft) N 5 2 min 0,000 mm 5,4 UV-I 844 W/m 13,0 C 24,1 C 4,8 km/h (1 Bft) 95,74 %
03.07.2019 13:44 24,2 C 26,1 C 37,2 C 50 % 1017,5 hPa 0,0 l/m 6,5 km/h (2 Bft) N-NO 33 2 min 0,000 mm 5,4 UV-I 847 W/m 13,1 C 24,2 C 9,7 km/h (2 Bft) 97,87 %
03.07.2019 13:46 24,5 C 26,1 C 37,8 C 50 % 1017,5 hPa 0,0 l/m 5,0 km/h (1 Bft) NO 52 2 min 0,000 mm 5,4 UV-I 846 W/m 13,4 C 24,5 C 8,0 km/h (2 Bft) 97,87 %
03.07.2019 13:48 24,6 C 26,1 C 36,7 C 49 % 1017,5 hPa 0,0 l/m 9,7 km/h (2 Bft) N-NO 23 2 min 0,000 mm 5,1 UV-I 764 W/m 13,2 C 23,8 C 16,1 km/h (3 Bft) 97,92 %
03.07.2019 13:50 24,6 C 26,1 C 35,6 C 48 % 1017,5 hPa 0,0 l/m 9,4 km/h (2 Bft) N-NO 23 2 min 0,000 mm 4,9 UV-I 718 W/m 12,8 C 23,9 C 14,5 km/h (3 Bft) 96,00 %
03.07.2019 13:52 24,6 C 26,1 C 35,6 C 47 % 1017,5 hPa 0,0 l/m 6,7 km/h (2 Bft) N-NO 31 2 min 0,000 mm 5,1 UV-I 778 W/m 12,5 C 24,5 C 14,5 km/h (3 Bft) 95,74 %
03.07.2019 13:54 24,4 C 26,1 C 35,6 C 47 % 1017,4 hPa 0,0 l/m 4,1 km/h (1 Bft) N-NO 29 2 min 0,000 mm 5,2 UV-I 795 W/m 12,3 C 24,4 C 9,7 km/h (2 Bft) 93,62 %
03.07.2019 13:56 24,3 C 26,1 C 36,1 C 49 % 1017,4 hPa 0,0 l/m 3,8 km/h (1 Bft) NO 42 2 min 0,000 mm 5,2 UV-I 820 W/m 12,9 C 24,3 C 6,4 km/h (2 Bft) 93,62 %
03.07.2019 13:58 24,4 C 26,1 C 36,1 C 49 % 1017,4 hPa 0,0 l/m 5,9 km/h (2 Bft) N 5 2 min 0,000 mm 4,8 UV-I 776 W/m 13,0 C 24,4 C 12,9 km/h (3 Bft) 95,74 %
03.07.2019 14:00 24,4 C 26,1 C 34,4 C 48 % 1017,4 hPa 0,0 l/m 5,4 km/h (1 Bft) NW 321 2 min 0,584 mm 4,1 UV-I 536 W/m 12,7 C 24,4 C 11,3 km/h (2 Bft) 91,49 %
03.07.2019 14:02 24,4 C 26,1 C 33,9 C 45 % 1017,4 hPa 0,0 l/m 4,1 km/h (1 Bft) W 275 2 min 0,000 mm 4,6 UV-I 553 W/m 11,7 C 24,4 C 6,4 km/h (2 Bft) 91,49 %
03.07.2019 14:04 24,4 C 26,1 C 34,4 C 47 % 1017,4 hPa 0,0 l/m 3,0 km/h (1 Bft) O-NO 68 2 min 0,000 mm 4,5 UV-I 664 W/m 12,3 C 24,4 C 6,4 km/h (2 Bft) 95,12 %
03.07.2019 14:06 24,6 C 26,1 C 35,0 C 49 % 1017,4 hPa 0,0 l/m 8,4 km/h (2 Bft) NO 45 2 min 0,000 mm 4,8 UV-I 686 W/m 13,2 C 24,1 C 11,3 km/h (2 Bft) 95,74 %
03.07.2019 14:08 24,7 C 26,1 C 33,9 C 49 % 1017,4 hPa 0,0 l/m 9,4 km/h (2 Bft) N-NO 22 2 min 0,000 mm 4,3 UV-I 613 W/m 13,3 C 24,0 C 14,5 km/h (3 Bft) 97,87 %
03.07.2019 14:10 24,7 C 26,1 C 33,3 C 48 % 1017,4 hPa 0,0 l/m 10,3 km/h (2 Bft) N-NO 17 2 min 0,000 mm 4,6 UV-I 647 W/m 12,9 C 23,8 C 16,1 km/h (3 Bft) 97,87 %
03.07.2019 14:12 24,7 C 26,1 C 34,4 C 48 % 1017,3 hPa 0,0 l/m 4,7 km/h (1 Bft) NO 36 2 min 0,000 mm 4,9 UV-I 842 W/m 12,9 C 24,7 C 9,7 km/h (2 Bft) 97,87 %
03.07.2019 14:14 24,7 C 26,1 C 35,0 C 46 % 1017,3 hPa 0,0 l/m 3,1 km/h (1 Bft) N-NO 26 2 min 0,000 mm 4,5 UV-I 715 W/m 12,3 C 24,7 C 6,4 km/h (2 Bft) 94,00 %
03.07.2019 14:16 24,8 C 26,1 C 36,1 C 48 % 1017,3 hPa 0,0 l/m 2,4 km/h (1 Bft) N-NO 26 2 min 0,000 mm 4,5 UV-I 828 W/m 13,0 C 24,8 C 3,2 km/h (1 Bft) 95,74 %
03.07.2019 14:18 24,8 C 26,1 C 35,0 C 46 % 1017,3 hPa 0,0 l/m 4,4 km/h (1 Bft) N-NW 342 2 min 0,000 mm 3,9 UV-I 621 W/m 12,4 C 24,8 C 8,0 km/h (2 Bft) 94,74 %
03.07.2019 14:20 24,6 C 26,1 C 34,4 C 46 % 1017,3 hPa 0,0 l/m 3,7 km/h (1 Bft) W-NW 282 2 min 0,000 mm 3,8 UV-I 594 W/m 12,2 C 24,6 C 6,4 km/h (2 Bft) 93,75 %
03.07.2019 14:22 24,8 C 26,1 C 35,0 C 46 % 1017,2 hPa 0,0 l/m 3,3 km/h (1 Bft) N-NO 28 2 min 0,000 mm 4,1 UV-I 680 W/m 12,4 C 24,8 C 6,4 km/h (2 Bft) 95,74 %
03.07.2019 14:24 24,8 C 26,1 C 34,4 C 47 % 1017,2 hPa 0,0 l/m 3,7 km/h (1 Bft) N-NO 17 2 min 0,000 mm 3,7 UV-I 597 W/m 12,7 C 24,8 C 6,4 km/h (2 Bft) 100,00 %
03.07.2019 14:26 24,7 C 26,1 C 34,4 C 46 % 1017,2 hPa 0,0 l/m 0,5 km/h (0 Bft) N-NO 17 2 min 0,000 mm 3,7 UV-I 558 W/m 12,3 C 24,7 C 1,6 km/h (1 Bft) 100,00 %
03.07.2019 14:28 24,7 C 26,1 C 34,4 C 52 % 1017,2 hPa 0,0 l/m 4,4 km/h (1 Bft) O-NO 65 2 min 0,000 mm 4,1 UV-I 634 W/m 14,2 C 24,7 C 9,7 km/h (2 Bft) 97,87 %
03.07.2019 14:30 24,8 C 26,1 C 33,9 C 45 % 1017,2 hPa 0,0 l/m 6,2 km/h (2 Bft) O 94 2 min 0,000 mm 3,4 UV-I 513 W/m 12,0 C 24,8 C 12,9 km/h (3 Bft) 100,00 %
03.07.2019 14:32 24,7 C 26,1 C 33,3 C 45 % 1017,2 hPa 0,0 l/m 3,6 km/h (1 Bft) O-SO 107 0 min 0,000 mm 3,5 UV-I 460 W/m 12,0 C 24,7 C 9,7 km/h (2 Bft) 100,00 %
03.07.2019 14:34 24,8 C 26,1 C 33,9 C 45 % 1017,2 hPa 0,0 l/m 2,1 km/h (1 Bft) O-SO 107 2 min 0,000 mm 4,0 UV-I 600 W/m 12,0 C 24,8 C 3,2 km/h (1 Bft) 95,74 %
03.07.2019 14:36 24,8 C 26,1 C 33,9 C 48 % 1017,3 hPa 0,0 l/m 6,6 km/h (2 Bft) N-NO 29 2 min 0,000 mm 4,2 UV-I 662 W/m 13,0 C 24,8 C 9,7 km/h (2 Bft) 100,00 %
03.07.2019 14:38 24,8 C 26,1 C 34,4 C 48 % 1017,2 hPa 0,0 l/m 6,8 km/h (2 Bft) NO 37 2 min 0,000 mm 4,6 UV-I 710 W/m 13,0 C 24,7 C 16,1 km/h (3 Bft) 95,74 %
03.07.2019 14:40 24,9 C 26,1 C 34,4 C 48 % 1017,2 hPa 0,0 l/m 10,0 km/h (2 Bft) O-NO 77 2 min 0,000 mm 4,7 UV-I 812 W/m 13,1 C 24,1 C 14,5 km/h (3 Bft) 95,74 %
03.07.2019 14:42 25,1 C 26,1 C 35,0 C 48 % 1017,2 hPa 0,0 l/m 7,4 km/h (2 Bft) NO 42 2 min 0,000 mm 4,6 UV-I 859 W/m 13,3 C 24,9 C 12,9 km/h (3 Bft) 97,37 %
03.07.2019 14:44 25,2 C 26,1 C 36,1 C 46 % 1017,3 hPa 0,0 l/m 3,8 km/h (1 Bft) SO 124 2 min 0,000 mm 4,6 UV-I 839 W/m 12,7 C 25,2 C 11,3 km/h (2 Bft) 94,00 %
03.07.2019 14:46 25,3 C 26,1 C 36,7 C 44 % 1017,1 hPa 0,0 l/m 8,4 km/h (2 Bft) O-SO 116 2 min 0,000 mm 4,7 UV-I 807 W/m 12,2 C 24,8 C 12,9 km/h (3 Bft) 98,00 %
03.07.2019 14:48 25,4 C 26,1 C 37,2 C 47 % 1017,1 hPa 0,0 l/m 4,9 km/h (1 Bft) NO 36 2 min 0,000 mm 4,9 UV-I 847 W/m 13,3 C 25,4 C 9,7 km/h (2 Bft) 95,74 %
03.07.2019 14:50 25,3 C 26,1 C 37,8 C 44 % 1017,1 hPa 0,0 l/m 2,0 km/h (1 Bft) NO 36 2 min 0,000 mm 4,5 UV-I 799 W/m 12,2 C 25,3 C 6,4 km/h (2 Bft) 97,87 %
03.07.2019 14:52 25,3 C 26,1 C 37,8 C 44 % 1017,1 hPa 0,0 l/m 1,9 km/h (1 Bft) NO 36 2 min 0,000 mm 4,6 UV-I 770 W/m 12,2 C 25,3 C 4,8 km/h (1 Bft) 97,87 %
03.07.2019 14:54 25,6 C 26,1 C 37,2 C 47 % 1017,1 hPa 0,0 l/m 3,0 km/h (1 Bft) O-NO 77 2 min 0,000 mm 4,2 UV-I 760 W/m 13,4 C 25,6 C 4,8 km/h (1 Bft) 95,74 %
03.07.2019 14:56 25,4 C 26,1 C 35,6 C 47 % 1017,1 hPa 0,0 l/m 6,4 km/h (2 Bft) N-NO 12 2 min 0,000 mm 3,5 UV-I 518 W/m 13,3 C 25,4 C 14,5 km/h (3 Bft) 98,00 %
03.07.2019 14:58 25,2 C 26,1 C 32,8 C 45 % 1017,0 hPa 0,0 l/m 9,0 km/h (2 Bft) O-NO 65 0 min 0,000 mm 3,4 UV-I 437 W/m 12,4 C 24,6 C 12,9 km/h (3 Bft) 97,87 %
03.07.2019 15:00 25,1 C 26,1 C 32,2 C 47 % 1017,0 hPa 0,0 l/m 4,8 km/h (1 Bft) NW 325 0 min 0,000 mm 3,2 UV-I 413 W/m 13,0 C 25,1 C 11,3 km/h (2 Bft) 97,22 %
03.07.2019 15:02 24,9 C 26,1 C 31,1 C 45 % 1017,1 hPa 0,0 l/m 6,1 km/h (2 Bft) W-NW 300 0 min 0,457 mm 3,0 UV-I 395 W/m 12,1 C 24,9 C 12,9 km/h (3 Bft) 98,00 %
03.07.2019 15:04 24,8 C 26,1 C 30,6 C 44 % 1017,1 hPa 0,0 l/m 4,0 km/h (1 Bft) N 5 0 min 0,000 mm 3,0 UV-I 404 W/m 11,7 C 24,8 C 11,3 km/h (2 Bft) 98,00 %
03.07.2019 15:06 24,7 C 26,1 C 30,6 C 51 % 1017,1 hPa 0,0 l/m 5,6 km/h (1 Bft) N-NO 24 2 min 0,000 mm 3,0 UV-I 446 W/m 13,9 C 24,7 C 11,3 km/h (2 Bft) 100,00 %
03.07.2019 15:08 24,7 C 26,1 C 31,1 C 50 % 1017,1 hPa 0,0 l/m 4,3 km/h (1 Bft) N 11 2 min 0,000 mm 3,2 UV-I 523 W/m 13,6 C 24,7 C 8,0 km/h (2 Bft) 100,00 %
03.07.2019 15:10 24,9 C 26,1 C 32,2 C 47 % 1017,1 hPa 0,0 l/m 4,3 km/h (1 Bft) N 9 2 min 0,000 mm 3,4 UV-I 579 W/m 12,8 C 24,9 C 8,0 km/h (2 Bft) 100,00 %
03.07.2019 15:12 25,1 C 26,1 C 32,2 C 49 % 1017,1 hPa 0,0 l/m 4,0 km/h (1 Bft) N 10 2 min 0,000 mm 3,3 UV-I 480 W/m 13,6 C 25,1 C 6,4 km/h (2 Bft) 100,00 %
03.07.2019 15:14 25,2 C 26,1 C 33,3 C 48 % 1017,2 hPa 0,0 l/m 5,5 km/h (1 Bft) N-NW 334 2 min 0,000 mm 3,5 UV-I 578 W/m 13,4 C 25,2 C 11,3 km/h (2 Bft) 98,00 %
03.07.2019 15:16 25,2 C 26,1 C 34,4 C 46 % 1017,2 hPa 0,0 l/m 4,7 km/h (1 Bft) S-SW 213 2 min 0,000 mm 3,7 UV-I 627 W/m 12,7 C 25,2 C 9,7 km/h (2 Bft) 100,00 %
03.07.2019 15:18 25,1 C 26,7 C 35,6 C 42 % 1017,2 hPa 0,0 l/m 7,0 km/h (2 Bft) SW 221 2 min 0,000 mm 4,0 UV-I 794 W/m 11,3 C 25,0 C 11,3 km/h (2 Bft) 100,00 %
03.07.2019 15:20 25,2 C 26,7 C 36,7 C 45 % 1017,2 hPa 0,0 l/m 5,8 km/h (2 Bft) SW 215 2 min 0,000 mm 3,9 UV-I 804 W/m 12,4 C 25,2 C 9,7 km/h (2 Bft) 100,00 %
03.07.2019 15:22 25,5 C 26,7 C 37,8 C 46 % 1017,2 hPa 0,0 l/m 4,5 km/h (1 Bft) N-NO 24 2 min 0,000 mm 3,9 UV-I 759 W/m 13,0 C 25,5 C 11,3 km/h (2 Bft) 100,00 %
03.07.2019 15:24 25,7 C 26,7 C 36,7 C 46 % 1017,1 hPa 0,0 l/m 6,5 km/h (2 Bft) N-NO 24 2 min 0,000 mm 3,7 UV-I 746 W/m 13,2 C 25,7 C 8,0 km/h (2 Bft) 97,87 %
03.07.2019 15:26 25,5 C 26,7 C 35,6 C 43 % 1017,1 hPa 0,0 l/m 3,5 km/h (1 Bft) NO 35 2 min 0,000 mm 3,5 UV-I 726 W/m 12,0 C 25,5 C 9,7 km/h (2 Bft) 100,00 %
03.07.2019 15:28 25,3 C 26,7 C 36,1 C 46 % 1017,1 hPa 0,0 l/m 5,7 km/h (1 Bft) N 5 2 min 0,000 mm 3,7 UV-I 695 W/m 12,8 C 25,3 C 11,3 km/h (2 Bft) 100,00 %
03.07.2019 15:30 25,5 C 26,7 C 36,1 C 45 % 1017,1 hPa 0,0 l/m 8,5 km/h (2 Bft) N-NO 14 2 min 0,000 mm 3,8 UV-I 768 W/m 12,7 C 25,0 C 12,9 km/h (3 Bft) 100,00 %
03.07.2019 15:32 25,5 C 26,7 C 35,0 C 45 % 1017,1 hPa 0,0 l/m 8,6 km/h (2 Bft) N 10 2 min 0,000 mm 3,6 UV-I 702 W/m 12,7 C 25,0 C 12,9 km/h (3 Bft) 98,11 %
03.07.2019 15:34 25,4 C 26,7 C 33,9 C 45 % 1017,0 hPa 0,0 l/m 9,1 km/h (2 Bft) N-NW 338 2 min 0,000 mm 3,8 UV-I 570 W/m 12,6 C 24,8 C 14,5 km/h (3 Bft) 97,22 %
03.07.2019 15:36 25,3 C 26,7 C 35,0 C 45 % 1017,0 hPa 0,0 l/m 8,8 km/h (2 Bft) N-NO 16 2 min 0,000 mm 3,7 UV-I 577 W/m 12,5 C 24,7 C 12,9 km/h (3 Bft) 100,00 %
03.07.2019 15:38 25,3 C 26,7 C 33,9 C 48 % 1017,0 hPa 0,0 l/m 7,8 km/h (2 Bft) N-NO 24 2 min 0,000 mm 3,5 UV-I 513 W/m 13,5 C 25,0 C 14,5 km/h (3 Bft) 97,87 %
03.07.2019 15:40 25,2 C 26,7 C 32,8 C 47 % 1017,0 hPa 0,0 l/m 6,4 km/h (2 Bft) N-NO 14 2 min 0,000 mm 3,5 UV-I 419 W/m 13,1 C 25,2 C 11,3 km/h (2 Bft) 95,74 %
03.07.2019 15:42 25,2 C 26,7 C 32,8 C 45 % 1017,0 hPa 0,0 l/m 5,5 km/h (1 Bft) N-NO 20 2 min 0,000 mm 3,6 UV-I 598 W/m 12,4 C 25,2 C 8,0 km/h (2 Bft) 97,87 %
03.07.2019 15:44 25,2 C 26,7 C 35,0 C 44 % 1017,0 hPa 0,0 l/m 4,8 km/h (1 Bft) NO 35 2 min 0,000 mm 4,0 UV-I 753 W/m 12,1 C 25,2 C 6,4 km/h (2 Bft) 95,74 %
03.07.2019 15:46 25,3 C 26,7 C 35,6 C 43 % 1016,9 hPa 0,0 l/m 4,4 km/h (1 Bft) W-NW 286 2 min 0,000 mm 3,7 UV-I 703 W/m 11,8 C 25,3 C 8,0 km/h (2 Bft) 97,87 %
03.07.2019 15:48 25,3 C 26,7 C 36,7 C 49 % 1016,9 hPa 0,0 l/m 4,7 km/h (1 Bft) NO 53 2 min 0,000 mm 3,7 UV-I 625 W/m 13,8 C 25,3 C 14,5 km/h (3 Bft) 95,74 %
03.07.2019 15:50 25,6 C 26,7 C 37,2 C 47 % 1016,9 hPa 0,0 l/m 8,5 km/h (2 Bft) NO 34 2 min 0,000 mm 3,8 UV-I 740 W/m 13,4 C 25,1 C 14,5 km/h (3 Bft) 100,00 %
03.07.2019 15:52 25,7 C 26,7 C 37,8 C 46 % 1016,9 hPa 0,0 l/m 6,7 km/h (2 Bft) NO 40 2 min 0,000 mm 4,0 UV-I 799 W/m 13,2 C 25,6 C 11,3 km/h (2 Bft) 97,87 %
03.07.2019 15:54 25,6 C 26,7 C 38,3 C 44 % 1016,8 hPa 0,0 l/m 2,7 km/h (1 Bft) N 360 2 min 0,000 mm 4,0 UV-I 794 W/m 12,4 C 25,6 C 6,4 km/h (2 Bft) 98,00 %
03.07.2019 15:56 25,6 C 26,7 C 38,3 C 43 % 1016,9 hPa 0,0 l/m 2,2 km/h (1 Bft) N 360 2 min 0,000 mm 3,8 UV-I 775 W/m 12,1 C 25,6 C 3,2 km/h (1 Bft) 97,87 %
03.07.2019 15:58 25,8 C 26,7 C 39,4 C 47 % 1016,9 hPa 0,0 l/m 4,4 km/h (1 Bft) NW 320 2 min 0,000 mm 3,8 UV-I 738 W/m 13,6 C 25,8 C 6,4 km/h (2 Bft) 95,74 %
03.07.2019 16:00 26,1 C 26,7 C 39,4 C 45 % 1017,0 hPa 0,0 l/m 2,5 km/h (1 Bft) NW 321 2 min 0,458 mm 3,7 UV-I 740 W/m 13,2 C 26,1 C 4,8 km/h (1 Bft) 97,87 %
03.07.2019 16:02 26,2 C 26,7 C 39,4 C 44 % 1017,0 hPa 0,0 l/m 5,3 km/h (1 Bft) W 281 2 min 0,000 mm 3,5 UV-I 723 W/m 13,0 C 26,2 C 11,3 km/h (2 Bft) 98,00 %
03.07.2019 16:04 26,2 C 26,7 C 37,2 C 41 % 1017,0 hPa 0,0 l/m 11,7 km/h (2 Bft) SW 218 2 min 0,000 mm 2,8 UV-I 539 W/m 11,9 C 25,2 C 19,3 km/h (3 Bft) 95,74 %
03.07.2019 16:06 26,2 C 26,7 C 34,4 C 41 % 1017,0 hPa 0,0 l/m 10,3 km/h (2 Bft) S-SW 202 0 min 0,000 mm 2,3 UV-I 358 W/m 11,9 C 25,4 C 19,3 km/h (3 Bft) 95,74 %
03.07.2019 16:08 25,8 C 26,7 C 32,8 C 41 % 1016,9 hPa 0,0 l/m 6,1 km/h (2 Bft) SW 217 0 min 0,000 mm 2,2 UV-I 270 W/m 11,5 C 25,8 C 9,7 km/h (2 Bft) 93,62 %
03.07.2019 16:10 25,6 C 26,7 C 32,8 C 43 % 1016,9 hPa 0,0 l/m 6,9 km/h (2 Bft) W-SW 238 0 min 0,000 mm 2,6 UV-I 294 W/m 12,1 C 25,5 C 9,7 km/h (2 Bft) 97,87 %
03.07.2019 16:12 25,7 C 26,7 C 33,9 C 42 % 1016,9 hPa 0,0 l/m 12,6 km/h (3 Bft) SW 230 2 min 0,000 mm 3,1 UV-I 629 W/m 11,8 C 24,5 C 17,7 km/h (3 Bft) 93,62 %
03.07.2019 16:14 25,9 C 26,7 C 33,9 C 42 % 1016,9 hPa 0,0 l/m 11,0 km/h (2 Bft) W-SW 254 2 min 0,000 mm 3,0 UV-I 655 W/m 12,0 C 25,0 C 20,9 km/h (4 Bft) 100,00 %
03.07.2019 16:16 26,1 C 26,7 C 34,4 C 42 % 1016,9 hPa 0,0 l/m 9,7 km/h (2 Bft) W 259 2 min 0,000 mm 2,8 UV-I 568 W/m 12,2 C 25,4 C 20,9 km/h (4 Bft) 94,00 %
03.07.2019 16:18 26,2 C 26,7 C 34,4 C 41 % 1016,9 hPa 0,0 l/m 7,9 km/h (2 Bft) W-NW 296 2 min 0,000 mm 2,5 UV-I 516 W/m 11,9 C 25,9 C 12,9 km/h (3 Bft) 95,74 %
03.07.2019 16:20 26,1 C 26,7 C 35,0 C 42 % 1016,9 hPa 0,0 l/m 3,7 km/h (1 Bft) NW 309 2 min 0,000 mm 2,5 UV-I 497 W/m 12,2 C 26,1 C 6,4 km/h (2 Bft) 97,87 %
03.07.2019 16:22 26,1 C 26,7 C 35,0 C 43 % 1016,8 hPa 0,0 l/m 2,5 km/h (1 Bft) N-NW 328 2 min 0,000 mm 2,5 UV-I 568 W/m 12,5 C 26,1 C 8,0 km/h (2 Bft) 97,87 %
03.07.2019 16:24 26,2 C 26,7 C 35,0 C 46 % 1016,8 hPa 0,0 l/m 5,5 km/h (1 Bft) N-NO 29 2 min 0,000 mm 2,4 UV-I 510 W/m 13,6 C 26,2 C 9,7 km/h (2 Bft) 97,87 %
03.07.2019 16:26 26,2 C 26,7 C 33,9 C 44 % 1016,8 hPa 0,0 l/m 7,9 km/h (2 Bft) N 5 2 min 0,000 mm 2,4 UV-I 489 W/m 13,0 C 25,9 C 12,9 km/h (3 Bft) 97,87 %
03.07.2019 16:28 26,1 C 26,7 C 34,4 C 42 % 1016,8 hPa 0,0 l/m 4,6 km/h (1 Bft) SW 227 2 min 0,000 mm 2,6 UV-I 583 W/m 12,2 C 26,1 C 9,7 km/h (2 Bft) 97,87 %
03.07.2019 16:30 26,2 C 26,7 C 35,0 C 42 % 1016,8 hPa 0,0 l/m 9,2 km/h (2 Bft) W 264 2 min 0,000 mm 2,8 UV-I 642 W/m 12,3 C 25,6 C 17,7 km/h (3 Bft) 97,87 %
03.07.2019 16:32 26,2 C 26,7 C 36,1 C 41 % 1016,8 hPa 0,0 l/m 5,4 km/h (1 Bft) W-SW 243 2 min 0,000 mm 3,0 UV-I 700 W/m 11,9 C 26,2 C 12,9 km/h (3 Bft) 95,74 %
03.07.2019 16:34 26,4 C 26,7 C 37,2 C 45 % 1016,7 hPa 0,0 l/m 5,8 km/h (2 Bft) N-NO 17 2 min 0,000 mm 3,0 UV-I 681 W/m 13,5 C 26,4 C 14,5 km/h (3 Bft) 97,87 %
03.07.2019 16:36 26,6 C 26,7 C 37,8 C 43 % 1016,7 hPa 0,0 l/m 3,1 km/h (1 Bft) N 9 2 min 0,000 mm 2,9 UV-I 683 W/m 13,0 C 26,6 C 8,0 km/h (2 Bft) 91,49 %
03.07.2019 16:38 26,7 C 26,7 C 37,8 C 43 % 1016,8 hPa 0,0 l/m 3,3 km/h (1 Bft) W-SW 242 2 min 0,000 mm 2,7 UV-I 602 W/m 13,1 C 26,7 C 6,4 km/h (2 Bft) 97,87 %
03.07.2019 16:40 26,9 C 26,7 C 37,8 C 43 % 1016,8 hPa 0,0 l/m 2,6 km/h (1 Bft) W 275 2 min 0,000 mm 2,5 UV-I 573 W/m 13,2 C 26,9 C 4,8 km/h (1 Bft) 97,87 %
03.07.2019 16:42 26,8 C 26,7 C 37,2 C 44 % 1016,8 hPa 0,0 l/m 2,4 km/h (1 Bft) N-NW 343 2 min 0,000 mm 2,3 UV-I 526 W/m 13,5 C 26,8 C 4,8 km/h (1 Bft) 98,00 %
03.07.2019 16:44 26,8 C 26,7 C 36,1 C 42 % 1016,8 hPa 0,0 l/m 2,4 km/h (1 Bft) W 261 2 min 0,000 mm 2,2 UV-I 458 W/m 12,8 C 26,8 C 6,4 km/h (2 Bft) 95,74 %
03.07.2019 16:46 26,7 C 26,7 C 35,0 C 42 % 1016,8 hPa 0,0 l/m 2,3 km/h (1 Bft) W-NW 297 2 min 0,000 mm 2,1 UV-I 433 W/m 12,7 C 26,7 C 3,2 km/h (1 Bft) 97,87 %
03.07.2019 16:48 26,4 C 26,7 C 33,9 C 42 % 1016,8 hPa 0,0 l/m 6,9 km/h (2 Bft) NO 34 2 min 0,000 mm 2,0 UV-I 412 W/m 12,4 C 26,3 C 12,9 km/h (3 Bft) 96,00 %
03.07.2019 16:50 26,1 C 26,7 C 33,3 C 45 % 1016,8 hPa 0,0 l/m 6,0 km/h (2 Bft) W 279 2 min 0,000 mm 2,0 UV-I 416 W/m 13,2 C 26,1 C 11,3 km/h (2 Bft) 97,87 %
03.07.2019 16:52 25,9 C 26,7 C 32,8 C 42 % 1016,8 hPa 0,0 l/m 9,8 km/h (2 Bft) W-NW 287 2 min 0,000 mm 2,0 UV-I 431 W/m 12,0 C 25,2 C 19,3 km/h (3 Bft) 97,87 %
03.07.2019 16:54 25,9 C 26,7 C 32,8 C 43 % 1016,8 hPa 0,0 l/m 8,5 km/h (2 Bft) W-SW 243 2 min 0,000 mm 2,1 UV-I 468 W/m 12,3 C 25,4 C 16,1 km/h (3 Bft) 97,73 %
03.07.2019 16:56 25,9 C 26,7 C 33,9 C 43 % 1016,7 hPa 0,0 l/m 8,0 km/h (2 Bft) W-SW 249 2 min 0,000 mm 2,1 UV-I 493 W/m 12,3 C 25,5 C 14,5 km/h (3 Bft) 97,87 %
03.07.2019 16:58 25,9 C 26,7 C 33,9 C 41 % 1016,7 hPa 0,0 l/m 5,5 km/h (1 Bft) W 277 2 min 0,000 mm 2,1 UV-I 511 W/m 11,6 C 25,9 C 11,3 km/h (2 Bft) 95,74 %
03.07.2019 17:00 25,8 C 26,7 C 33,9 C 42 % 1016,7 hPa 0,0 l/m 4,8 km/h (1 Bft) NW 308 2 min 0,000 mm 2,1 UV-I 518 W/m 11,9 C 25,8 C 14,5 km/h (3 Bft) 95,74 %
03.07.2019 17:02 25,8 C 26,7 C 34,4 C 41 % 1016,8 hPa 0,0 l/m 7,2 km/h (2 Bft) W 271 2 min 0,406 mm 2,0 UV-I 511 W/m 11,5 C 25,6 C 14,5 km/h (3 Bft) 97,37 %
03.07.2019 17:04 25,9 C 26,7 C 34,4 C 42 % 1016,8 hPa 0,0 l/m 6,1 km/h (2 Bft) NW 308 2 min 0,000 mm 2,0 UV-I 492 W/m 12,0 C 25,9 C 11,3 km/h (2 Bft) 98,31 %
03.07.2019 17:06 25,9 C 26,7 C 33,9 C 42 % 1016,8 hPa 0,0 l/m 10,4 km/h (2 Bft) W-NW 296 2 min 0,000 mm 1,9 UV-I 440 W/m 12,0 C 25,1 C 16,1 km/h (3 Bft) 97,37 %
03.07.2019 17:08 25,8 C 26,7 C 32,8 C 42 % 1016,8 hPa 0,0 l/m 10,8 km/h (2 Bft) W-SW 251 2 min 0,000 mm 1,8 UV-I 408 W/m 11,9 C 24,9 C 19,3 km/h (3 Bft) 98,00 %
03.07.2019 17:10 25,9 C 26,7 C 32,2 C 43 % 1016,7 hPa 0,0 l/m 9,1 km/h (2 Bft) N 11 2 min 0,000 mm 1,7 UV-I 406 W/m 12,3 C 25,3 C 16,1 km/h (3 Bft) 97,87 %
03.07.2019 17:12 25,8 C 26,7 C 32,2 C 44 % 1016,7 hPa 0,0 l/m 5,3 km/h (1 Bft) SW 219 2 min 0,000 mm 1,7 UV-I 425 W/m 12,6 C 25,8 C 11,3 km/h (2 Bft) 95,12 %
03.07.2019 17:14 25,8 C 26,7 C 32,2 C 44 % 1016,7 hPa 0,0 l/m 5,7 km/h (1 Bft) NW 306 2 min 0,000 mm 1,7 UV-I 411 W/m 12,6 C 25,8 C 14,5 km/h (3 Bft) 95,74 %
03.07.2019 17:16 25,8 C 26,7 C 31,7 C 42 % 1016,8 hPa 0,0 l/m 6,6 km/h (2 Bft) W-NW 293 2 min 0,000 mm 1,6 UV-I 370 W/m 11,9 C 25,8 C 11,3 km/h (2 Bft) 96,00 %
03.07.2019 17:18 25,7 C 26,7 C 31,1 C 43 % 1016,8 hPa 0,0 l/m 7,5 km/h (2 Bft) W-NW 292 2 min 0,000 mm 1,6 UV-I 341 W/m 12,2 C 25,4 C 12,9 km/h (3 Bft) 98,11 %
03.07.2019 17:20 25,4 C 26,7 C 31,7 C 42 % 1016,7 hPa 0,0 l/m 4,4 km/h (1 Bft) NW 306 2 min 0,000 mm 1,7 UV-I 372 W/m 11,5 C 25,4 C 6,4 km/h (2 Bft) 97,87 %
03.07.2019 17:22 25,4 C 26,7 C 32,8 C 46 % 1016,7 hPa 0,0 l/m 5,6 km/h (1 Bft) W-SW 238 2 min 0,000 mm 1,7 UV-I 469 W/m 12,9 C 25,4 C 12,9 km/h (3 Bft) 97,87 %
03.07.2019 17:24 25,6 C 26,7 C 32,8 C 44 % 1016,7 hPa 0,0 l/m 9,1 km/h (2 Bft) W-SW 253 2 min 0,000 mm 1,7 UV-I 473 W/m 12,4 C 25,0 C 12,9 km/h (3 Bft) 95,83 %
03.07.2019 17:26 25,7 C 26,7 C 33,3 C 43 % 1016,7 hPa 0,0 l/m 11,5 km/h (2 Bft) W-SW 248 2 min 0,000 mm 1,8 UV-I 507 W/m 12,2 C 24,7 C 19,3 km/h (3 Bft) 98,36 %
03.07.2019 17:28 25,8 C 26,7 C 33,9 C 43 % 1016,6 hPa 0,0 l/m 12,6 km/h (3 Bft) W-SW 255 2 min 0,000 mm 1,8 UV-I 545 W/m 12,3 C 24,6 C 22,5 km/h (4 Bft) 97,92 %
03.07.2019 17:30 25,8 C 26,7 C 33,9 C 42 % 1016,6 hPa 0,0 l/m 10,6 km/h (2 Bft) W-NW 296 2 min 0,000 mm 1,8 UV-I 569 W/m 11,9 C 24,9 C 17,7 km/h (3 Bft) 97,96 %
03.07.2019 17:32 25,9 C 26,7 C 35,0 C 44 % 1016,6 hPa 0,0 l/m 10,0 km/h (2 Bft) W 259 2 min 0,000 mm 1,7 UV-I 577 W/m 12,7 C 25,2 C 16,1 km/h (3 Bft) 94,00 %
03.07.2019 17:34 26,0 C 26,7 C 35,6 C 42 % 1016,6 hPa 0,0 l/m 5,3 km/h (1 Bft) W 263 2 min 0,000 mm 1,7 UV-I 491 W/m 12,1 C 26,0 C 12,9 km/h (3 Bft) 95,83 %
03.07.2019 17:36 26,1 C 26,7 C 35,0 C 44 % 1016,5 hPa 0,0 l/m 7,8 km/h (2 Bft) W 259 2 min 0,000 mm 1,5 UV-I 414 W/m 12,9 C 25,8 C 17,7 km/h (3 Bft) 97,87 %
03.07.2019 17:38 26,1 C 26,7 C 34,4 C 42 % 1016,5 hPa 0,0 l/m 8,7 km/h (2 Bft) W-SW 247 2 min 0,000 mm 1,4 UV-I 444 W/m 12,2 C 25,6 C 12,9 km/h (3 Bft) 97,37 %
03.07.2019 17:40 26,1 C 26,7 C 33,3 C 43 % 1016,5 hPa 0,0 l/m 4,6 km/h (1 Bft) S-SW 205 2 min 0,000 mm 1,3 UV-I 410 W/m 12,5 C 26,1 C 8,0 km/h (2 Bft) 95,74 %
03.07.2019 17:42 26,0 C 26,7 C 33,3 C 43 % 1016,5 hPa 0,0 l/m 4,1 km/h (1 Bft) NO 55 2 min 0,000 mm 1,3 UV-I 383 W/m 12,4 C 26,0 C 6,4 km/h (2 Bft) 94,00 %
03.07.2019 17:44 26,1 C 26,7 C 33,9 C 45 % 1016,5 hPa 0,0 l/m 2,8 km/h (1 Bft) W-SW 244 2 min 0,000 mm 1,4 UV-I 474 W/m 13,2 C 26,1 C 4,8 km/h (1 Bft) 95,74 %
03.07.2019 17:46 26,1 C 26,7 C 33,9 C 44 % 1016,5 hPa 0,0 l/m 5,9 km/h (2 Bft) NW 317 2 min 0,000 mm 1,4 UV-I 448 W/m 12,9 C 26,1 C 16,1 km/h (3 Bft) 95,74 %
03.07.2019 17:48 25,9 C 26,7 C 32,8 C 42 % 1016,5 hPa 0,0 l/m 7,3 km/h (2 Bft) N-NW 327 2 min 0,000 mm 1,3 UV-I 353 W/m 12,0 C 25,7 C 17,7 km/h (3 Bft) 95,74 %
03.07.2019 17:50 25,8 C 26,7 C 32,2 C 42 % 1016,6 hPa 0,0 l/m 5,6 km/h (1 Bft) W-NW 283 2 min 0,000 mm 1,3 UV-I 361 W/m 11,9 C 25,8 C 11,3 km/h (2 Bft) 95,74 %
03.07.2019 17:52 25,8 C 26,7 C 32,8 C 42 % 1016,6 hPa 0,0 l/m 6,3 km/h (2 Bft) W-NW 294 2 min 0,000 mm 1,3 UV-I 436 W/m 11,9 C 25,8 C 12,9 km/h (3 Bft) 97,87 %
03.07.2019 17:54 25,7 C 26,7 C 33,3 C 43 % 1016,7 hPa 0,0 l/m 2,9 km/h (1 Bft) N-NW 340 2 min 0,000 mm 1,3 UV-I 440 W/m 12,2 C 25,7 C 6,4 km/h (2 Bft) 93,62 %
03.07.2019 17:56 25,8 C 26,7 C 32,8 C 42 % 1016,6 hPa 0,0 l/m 4,9 km/h (1 Bft) NW 321 2 min 0,000 mm 1,2 UV-I 403 W/m 11,9 C 25,8 C 11,3 km/h (2 Bft) 92,00 %
03.07.2019 17:58 25,8 C 26,7 C 32,8 C 41 % 1016,6 hPa 0,0 l/m 6,9 km/h (2 Bft) NW 325 2 min 0,000 mm 1,2 UV-I 384 W/m 11,5 C 25,7 C 11,3 km/h (2 Bft) 89,36 %
03.07.2019 18:00 25,6 C 26,7 C 31,7 C 41 % 1016,6 hPa 0,0 l/m 4,0 km/h (1 Bft) NW 309 2 min 0,330 mm 1,1 UV-I 301 W/m 11,4 C 25,6 C 6,4 km/h (2 Bft) 93,62 %
03.07.2019 18:02 25,3 C 26,7 C 30,6 C 43 % 1016,6 hPa 0,0 l/m 3,8 km/h (1 Bft) W-SW 253 2 min 0,000 mm 1,0 UV-I 267 W/m 11,8 C 25,3 C 11,3 km/h (2 Bft) 95,74 %
03.07.2019 18:04 25,2 C 26,7 C 30,0 C 43 % 1016,6 hPa 0,0 l/m 3,8 km/h (1 Bft) W-NW 299 2 min 0,000 mm 1,0 UV-I 262 W/m 11,7 C 25,2 C 12,9 km/h (3 Bft) 95,74 %
03.07.2019 18:06 25,2 C 26,7 C 29,4 C 42 % 1016,7 hPa 0,0 l/m 6,0 km/h (2 Bft) W-NW 287 2 min 0,000 mm 0,9 UV-I 246 W/m 11,4 C 25,2 C 12,9 km/h (3 Bft) 92,31 %
03.07.2019 18:08 25,1 C 26,7 C 28,9 C 42 % 1016,7 hPa 0,0 l/m 5,2 km/h (1 Bft) W 279 0 min 0,000 mm 0,9 UV-I 240 W/m 11,3 C 25,1 C 12,9 km/h (3 Bft) 95,74 %
03.07.2019 18:10 25,0 C 26,7 C 28,9 C 42 % 1016,7 hPa 0,0 l/m 8,3 km/h (2 Bft) W-SW 257 2 min 0,000 mm 0,9 UV-I 251 W/m 11,2 C 24,5 C 14,5 km/h (3 Bft) 95,74 %
03.07.2019 18:12 24,9 C 26,7 C 28,3 C 42 % 1016,7 hPa 0,0 l/m 8,6 km/h (2 Bft) NW 305 0 min 0,000 mm 0,8 UV-I 233 W/m 11,1 C 24,4 C 14,5 km/h (3 Bft) 93,62 %
03.07.2019 18:14 24,9 C 26,7 C 28,3 C 44 % 1016,7 hPa 0,0 l/m 5,2 km/h (1 Bft) W-NW 292 2 min 0,000 mm 0,8 UV-I 245 W/m 11,8 C 24,9 C 9,7 km/h (2 Bft) 95,74 %
03.07.2019 18:16 24,9 C 26,7 C 28,3 C 43 % 1016,7 hPa 0,0 l/m 6,7 km/h (2 Bft) NW 314 2 min 0,000 mm 0,8 UV-I 241 W/m 11,4 C 24,8 C 14,5 km/h (3 Bft) 100,00 %
03.07.2019 18:18 24,8 C 26,7 C 27,8 C 44 % 1016,7 hPa 0,0 l/m 4,3 km/h (1 Bft) W 281 0 min 0,000 mm 0,8 UV-I 219 W/m 11,7 C 24,8 C 6,4 km/h (2 Bft) 97,87 %
03.07.2019 18:20 24,8 C 26,7 C 27,8 C 44 % 1016,7 hPa 0,0 l/m 4,8 km/h (1 Bft) NO 38 0 min 0,000 mm 0,8 UV-I 221 W/m 11,7 C 24,8 C 9,7 km/h (2 Bft) 97,87 %
03.07.2019 18:22 24,7 C 26,7 C 27,2 C 44 % 1016,7 hPa 0,0 l/m 4,9 km/h (1 Bft) N-NW 331 0 min 0,000 mm 0,7 UV-I 214 W/m 11,6 C 24,7 C 14,5 km/h (3 Bft) 97,87 %
03.07.2019 18:24 24,6 C 26,7 C 27,2 C 45 % 1016,7 hPa 0,0 l/m 6,7 km/h (2 Bft) W-NW 290 0 min 0,000 mm 0,7 UV-I 200 W/m 11,9 C 24,5 C 12,9 km/h (3 Bft) 97,87 %
03.07.2019 18:26 24,6 C 26,7 C 26,7 C 43 % 1016,7 hPa 0,0 l/m 4,8 km/h (1 Bft) NW 324 0 min 0,000 mm 0,7 UV-I 183 W/m 11,2 C 24,6 C 8,0 km/h (2 Bft) 100,00 %
03.07.2019 18:29 24,4 C 26,7 C 26,1 C 47 % 1016,7 hPa 0,0 l/m 3,0 km/h (1 Bft) W-NW 300 0 min 0,000 mm 0,6 UV-I 181 W/m 12,3 C 24,4 C 6,4 km/h (2 Bft) 97,18 %
03.07.2019 18:30 24,4 C 26,7 C 26,1 C 44 % 1016,7 hPa 0,0 l/m 4,6 km/h (1 Bft) N 5 0 min 0,000 mm 0,6 UV-I 191 W/m 11,3 C 24,4 C 8,0 km/h (2 Bft) 95,65 %
03.07.2019 18:32 24,3 C 26,7 C 26,1 C 45 % 1016,6 hPa 0,0 l/m 3,8 km/h (1 Bft) N-NO 15 0 min 0,000 mm 0,6 UV-I 194 W/m 11,6 C 24,3 C 8,0 km/h (2 Bft) 100,00 %
03.07.2019 18:34 24,2 C 26,7 C 26,1 C 45 % 1016,7 hPa 0,0 l/m 2,3 km/h (1 Bft) W-NW 284 0 min 0,000 mm 0,6 UV-I 193 W/m 11,5 C 24,2 C 4,8 km/h (1 Bft) 100,00 %
03.07.2019 18:36 24,3 C 26,7 C 26,1 C 46 % 1016,8 hPa 0,0 l/m 2,0 km/h (1 Bft) NW 304 0 min 0,000 mm 0,6 UV-I 183 W/m 11,9 C 24,3 C 8,0 km/h (2 Bft) 100,00 %
03.07.2019 18:38 24,3 C 26,7 C 26,1 C 43 % 1016,7 hPa 0,0 l/m 3,5 km/h (1 Bft) W-SW 248 0 min 0,000 mm 0,6 UV-I 183 W/m 10,9 C 24,3 C 8,0 km/h (2 Bft) 100,00 %
03.07.2019 18:40 24,3 C 26,7 C 26,1 C 46 % 1016,7 hPa 0,0 l/m 2,2 km/h (1 Bft) N-NW 341 0 min 0,000 mm 0,6 UV-I 183 W/m 11,9 C 24,3 C 4,8 km/h (1 Bft) 97,87 %
03.07.2019 18:42 24,2 C 26,7 C 26,1 C 45 % 1016,7 hPa 0,0 l/m 2,4 km/h (1 Bft) W-NW 283 0 min 0,000 mm 0,5 UV-I 181 W/m 11,5 C 24,2 C 4,8 km/h (1 Bft) 95,74 %
03.07.2019 18:44 24,2 C 26,7 C 26,1 C 45 % 1016,7 hPa 0,0 l/m 2,4 km/h (1 Bft) NW 306 0 min 0,000 mm 0,5 UV-I 176 W/m 11,5 C 24,2 C 4,8 km/h (1 Bft) 100,00 %
03.07.2019 18:46 24,2 C 26,7 C 26,1 C 45 % 1016,7 hPa 0,0 l/m 2,8 km/h (1 Bft) W-SW 256 0 min 0,000 mm 0,5 UV-I 172 W/m 11,5 C 24,2 C 6,4 km/h (2 Bft) 97,92 %
03.07.2019 18:48 24,3 C 26,7 C 25,6 C 45 % 1016,8 hPa 0,0 l/m 4,3 km/h (1 Bft) N 355 0 min 0,000 mm 0,5 UV-I 170 W/m 11,6 C 24,3 C 6,4 km/h (2 Bft) 97,87 %
03.07.2019 18:50 24,2 C 26,7 C 25,6 C 46 % 1016,7 hPa 0,0 l/m 2,4 km/h (1 Bft) W-NW 294 0 min 0,000 mm 0,5 UV-I 167 W/m 11,8 C 24,2 C 4,8 km/h (1 Bft) 100,00 %
03.07.2019 18:52 24,1 C 26,7 C 25,6 C 47 % 1016,7 hPa 0,0 l/m 2,0 km/h (1 Bft) N 349 0 min 0,000 mm 0,3 UV-I 165 W/m 12,1 C 24,1 C 4,8 km/h (1 Bft) 96,00 %
03.07.2019 18:54 23,8 C 26,7 C 25,0 C 48 % 1016,7 hPa 0,0 l/m 2,3 km/h (1 Bft) N 349 0 min 0,000 mm 0,0 UV-I 162 W/m 12,1 C 23,8 C 3,2 km/h (1 Bft) 100,00 %
03.07.2019 18:56 23,8 C 26,7 C 25,0 C 48 % 1016,7 hPa 0,0 l/m 3,2 km/h (1 Bft) N-NO 15 0 min 0,000 mm 0,0 UV-I 160 W/m 12,1 C 23,8 C 6,4 km/h (2 Bft) 100,00 %
03.07.2019 18:58 23,8 C 26,7 C 25,0 C 49 % 1016,7 hPa 0,0 l/m 2,2 km/h (1 Bft) NW 325 0 min 0,000 mm 0,0 UV-I 160 W/m 12,4 C 23,8 C 6,4 km/h (2 Bft) 100,00 %
03.07.2019 19:00 23,7 C 26,7 C 25,0 C 49 % 1016,7 hPa 0,0 l/m 3,5 km/h (1 Bft) W-NW 296 0 min 0,000 mm 0,0 UV-I 156 W/m 12,3 C 23,7 C 6,4 km/h (2 Bft) 100,00 %
03.07.2019 19:02 23,8 C 26,7 C 25,0 C 48 % 1016,7 hPa 0,0 l/m 3,3 km/h (1 Bft) NW 318 0 min 0,178 mm 0,0 UV-I 153 W/m 12,1 C 23,8 C 9,7 km/h (2 Bft) 100,00 %
03.07.2019 19:04 23,7 C 26,7 C 25,0 C 50 % 1016,7 hPa 0,0 l/m 2,1 km/h (1 Bft) N-NW 346 0 min 0,000 mm 0,0 UV-I 148 W/m 12,6 C 23,7 C 6,4 km/h (2 Bft) 97,87 %
03.07.2019 19:06 23,6 C 26,7 C 25,0 C 52 % 1016,7 hPa 0,0 l/m 4,0 km/h (1 Bft) N 355 0 min 0,000 mm 0,0 UV-I 146 W/m 13,2 C 23,6 C 8,0 km/h (2 Bft) 97,87 %
03.07.2019 19:08 23,5 C 26,7 C 24,4 C 52 % 1016,7 hPa 0,0 l/m 6,0 km/h (2 Bft) W 261 0 min 0,000 mm 0,0 UV-I 144 W/m 13,1 C 23,5 C 12,9 km/h (3 Bft) 97,87 %
03.07.2019 19:10 23,4 C 26,7 C 24,4 C 51 % 1016,7 hPa 0,0 l/m 3,8 km/h (1 Bft) W-NW 294 0 min 0,000 mm 0,0 UV-I 142 W/m 12,7 C 23,4 C 8,0 km/h (2 Bft) 98,00 %
03.07.2019 19:12 23,3 C 26,7 C 24,4 C 51 % 1016,7 hPa 0,0 l/m 3,5 km/h (1 Bft) NW 324 0 min 0,000 mm 0,0 UV-I 139 W/m 12,6 C 23,3 C 6,4 km/h (2 Bft) 100,00 %
03.07.2019 19:14 23,2 C 26,7 C 24,4 C 50 % 1016,7 hPa 0,0 l/m 5,8 km/h (2 Bft) N 355 0 min 0,000 mm 0,0 UV-I 134 W/m 12,2 C 23,2 C 9,7 km/h (2 Bft) 97,87 %
03.07.2019 19:16 23,2 C 26,7 C 23,9 C 51 % 1016,8 hPa 0,0 l/m 4,2 km/h (1 Bft) N-NO 18 0 min 0,000 mm 0,0 UV-I 128 W/m 12,5 C 23,2 C 6,4 km/h (2 Bft) 97,87 %
03.07.2019 19:18 23,2 C 26,7 C 23,9 C 52 % 1016,7 hPa 0,0 l/m 3,5 km/h (1 Bft) N-NO 16 0 min 0,000 mm 0,0 UV-I 123 W/m 12,8 C 23,2 C 4,8 km/h (1 Bft) 100,00 %
03.07.2019 19:20 23,1 C 26,7 C 23,9 C 52 % 1016,8 hPa 0,0 l/m 3,4 km/h (1 Bft) N 360 0 min 0,000 mm 0,0 UV-I 119 W/m 12,7 C 23,1 C 8,0 km/h (2 Bft) 95,74 %
03.07.2019 19:22 23,1 C 26,7 C 23,9 C 52 % 1016,7 hPa 0,0 l/m 2,8 km/h (1 Bft) NO 42 0 min 0,000 mm 0,0 UV-I 116 W/m 12,7 C 23,1 C 6,4 km/h (2 Bft) 93,62 %
03.07.2019 19:24 23,1 C 26,7 C 23,9 C 52 % 1016,7 hPa 0,0 l/m 2,0 km/h (1 Bft) N 9 0 min 0,000 mm 0,0 UV-I 113 W/m 12,7 C 23,1 C 6,4 km/h (2 Bft) 97,87 %
03.07.2019 19:26 23,1 C 26,7 C 23,3 C 51 % 1016,7 hPa 0,0 l/m 3,4 km/h (1 Bft) O-NO 67 0 min 0,000 mm 0,0 UV-I 110 W/m 12,4 C 23,1 C 9,7 km/h (2 Bft) 96,00 %
03.07.2019 19:28 22,9 C 26,7 C 23,3 C 53 % 1016,7 hPa 0,0 l/m 2,9 km/h (1 Bft) N-NO 26 0 min 0,000 mm 0,0 UV-I 107 W/m 12,8 C 22,9 C 4,8 km/h (1 Bft) 97,14 %
03.07.2019 19:30 22,8 C 26,7 C 23,3 C 54 % 1016,7 hPa 0,0 l/m 3,4 km/h (1 Bft) N-NO 26 0 min 0,000 mm 0,0 UV-I 104 W/m 13,0 C 22,8 C 4,8 km/h (1 Bft) 93,55 %
03.07.2019 19:32 22,7 C 26,7 C 23,3 C 53 % 1016,7 hPa 0,0 l/m 2,5 km/h (1 Bft) N-NW 348 0 min 0,000 mm 0,0 UV-I 107 W/m 12,6 C 22,7 C 8,0 km/h (2 Bft) 100,00 %
03.07.2019 19:34 22,7 C 26,7 C 23,3 C 53 % 1016,7 hPa 0,0 l/m 6,1 km/h (2 Bft) N-NW 345 0 min 0,000 mm 0,0 UV-I 104 W/m 12,6 C 22,7 C 9,7 km/h (2 Bft) 95,74 %
03.07.2019 19:36 22,7 C 26,7 C 23,3 C 53 % 1016,7 hPa 0,0 l/m 3,9 km/h (1 Bft) N 360 0 min 0,000 mm 0,0 UV-I 103 W/m 12,6 C 22,7 C 6,4 km/h (2 Bft) 94,74 %
03.07.2019 19:38 22,7 C 26,7 C 23,3 C 52 % 1016,7 hPa 0,0 l/m 5,4 km/h (1 Bft) W-NW 296 0 min 0,000 mm 0,0 UV-I 103 W/m 12,3 C 22,7 C 8,0 km/h (2 Bft) 95,74 %
03.07.2019 19:40 22,7 C 26,7 C 23,3 C 53 % 1016,6 hPa 0,0 l/m 3,6 km/h (1 Bft) N 360 0 min 0,000 mm 0,0 UV-I 103 W/m 12,6 C 22,7 C 6,4 km/h (2 Bft) 95,74 %
03.07.2019 19:42 22,7 C 26,7 C 23,3 C 52 % 1016,6 hPa 0,0 l/m 4,6 km/h (1 Bft) N-NO 24 0 min 0,000 mm 0,0 UV-I 106 W/m 12,3 C 22,7 C 6,4 km/h (2 Bft) 94,00 %
03.07.2019 19:44 22,7 C 26,7 C 23,3 C 53 % 1016,7 hPa 0,0 l/m 4,1 km/h (1 Bft) NO 55 2 min 0,000 mm 0,0 UV-I 106 W/m 12,6 C 22,7 C 6,4 km/h (2 Bft) 93,62 %
03.07.2019 19:46 22,6 C 26,7 C 23,9 C 53 % 1016,6 hPa 0,0 l/m 3,8 km/h (1 Bft) N-NO 22 2 min 0,000 mm 0,0 UV-I 116 W/m 12,5 C 22,6 C 6,4 km/h (2 Bft) 91,49 %
03.07.2019 19:48 22,6 C 26,7 C 24,4 C 53 % 1016,6 hPa 0,0 l/m 4,5 km/h (1 Bft) N-NO 16 2 min 0,000 mm 0,0 UV-I 141 W/m 12,5 C 22,6 C 6,4 km/h (2 Bft) 95,74 %
03.07.2019 19:50 22,7 C 26,7 C 25,0 C 53 % 1016,6 hPa 0,0 l/m 2,7 km/h (1 Bft) N 355 2 min 0,000 mm 0,0 UV-I 137 W/m 12,6 C 22,7 C 6,4 km/h (2 Bft) 91,49 %
03.07.2019 19:52 22,8 C 26,7 C 26,1 C 53 % 1016,6 hPa 0,0 l/m 4,8 km/h (1 Bft) N-NO 24 2 min 0,000 mm 0,0 UV-I 149 W/m 12,7 C 22,8 C 8,0 km/h (2 Bft) 91,49 %
03.07.2019 19:54 22,9 C 26,7 C 26,7 C 53 % 1016,6 hPa 0,0 l/m 5,6 km/h (1 Bft) N 5 2 min 0,000 mm 0,0 UV-I 155 W/m 12,8 C 22,9 C 8,0 km/h (2 Bft) 95,74 %
03.07.2019 19:56 22,9 C 26,7 C 27,2 C 52 % 1016,6 hPa 0,0 l/m 5,7 km/h (1 Bft) N 355 2 min 0,000 mm 0,0 UV-I 155 W/m 12,5 C 22,9 C 11,3 km/h (2 Bft) 98,00 %
03.07.2019 19:58 23,1 C 26,7 C 27,8 C 52 % 1016,6 hPa 0,0 l/m 5,0 km/h (1 Bft) N-NO 12 2 min 0,000 mm 0,0 UV-I 151 W/m 12,7 C 23,1 C 8,0 km/h (2 Bft) 93,62 %
03.07.2019 20:00 23,1 C 26,7 C 27,8 C 54 % 1016,6 hPa 0,0 l/m 4,7 km/h (1 Bft) N 351 2 min 0,127 mm 0,0 UV-I 144 W/m 13,3 C 23,1 C 8,0 km/h (2 Bft) 97,87 %
03.07.2019 20:02 23,1 C 26,7 C 27,8 C 52 % 1016,6 hPa 0,0 l/m 5,2 km/h (1 Bft) N-NO 20 2 min 0,000 mm 0,0 UV-I 140 W/m 12,7 C 23,1 C 8,0 km/h (2 Bft) 97,87 %
03.07.2019 20:04 23,2 C 26,7 C 27,8 C 52 % 1016,6 hPa 0,0 l/m 5,2 km/h (1 Bft) N 10 2 min 0,000 mm 0,0 UV-I 137 W/m 12,8 C 23,2 C 8,0 km/h (2 Bft) 97,92 %
03.07.2019 20:06 23,1 C 26,7 C 27,8 C 53 % 1016,6 hPa 0,0 l/m 4,8 km/h (1 Bft) N-NW 348 2 min 0,000 mm 0,0 UV-I 133 W/m 13,0 C 23,1 C 8,0 km/h (2 Bft) 100,00 %
03.07.2019 20:08 23,1 C 26,7 C 27,2 C 51 % 1016,6 hPa 0,0 l/m 4,6 km/h (1 Bft) N-NW 348 2 min 0,000 mm 0,0 UV-I 131 W/m 12,4 C 23,1 C 8,0 km/h (2 Bft) 100,00 %
03.07.2019 20:10 23,2 C 26,7 C 26,7 C 51 % 1016,6 hPa 0,0 l/m 3,7 km/h (1 Bft) N-NW 344 2 min 0,000 mm 0,0 UV-I 127 W/m 12,5 C 23,2 C 8,0 km/h (2 Bft) 97,14 %
03.07.2019 20:12 23,1 C 26,7 C 26,7 C 53 % 1016,6 hPa 0,0 l/m 2,9 km/h (1 Bft) NO 38 2 min 0,000 mm 0,0 UV-I 123 W/m 13,0 C 23,1 C 4,8 km/h (1 Bft) 95,74 %
03.07.2019 20:14 23,1 C 26,7 C 26,7 C 52 % 1016,6 hPa 0,0 l/m 4,3 km/h (1 Bft) N 350 2 min 0,000 mm 0,0 UV-I 120 W/m 12,7 C 23,1 C 8,0 km/h (2 Bft) 100,00 %
03.07.2019 20:16 23,1 C 26,7 C 26,1 C 51 % 1016,6 hPa 0,0 l/m 3,4 km/h (1 Bft) N 9 2 min 0,000 mm 0,0 UV-I 109 W/m 12,4 C 23,1 C 8,0 km/h (2 Bft) 100,00 %
03.07.2019 20:18 23,0 C 26,7 C 26,1 C 51 % 1016,6 hPa 0,0 l/m 1,8 km/h (1 Bft) NW 323 2 min 0,000 mm 0,0 UV-I 102 W/m 12,3 C 23,0 C 4,8 km/h (1 Bft) 100,00 %
03.07.2019 20:20 23,1 C 26,7 C 25,0 C 51 % 1016,6 hPa 0,0 l/m 0,9 km/h (0 Bft) NW 323 2 min 0,000 mm 0,0 UV-I 104 W/m 12,4 C 23,1 C 3,2 km/h (1 Bft) 98,00 %
03.07.2019 20:22 22,9 C 26,7 C 24,4 C 52 % 1016,6 hPa 0,0 l/m 2,5 km/h (1 Bft) N-NW 346 2 min 0,000 mm 0,0 UV-I 100 W/m 12,5 C 22,9 C 4,8 km/h (1 Bft) 97,87 %
03.07.2019 20:24 22,9 C 26,7 C 23,9 C 52 % 1016,6 hPa 0,0 l/m 0,6 km/h (0 Bft) N-NW 346 2 min 0,000 mm 0,0 UV-I 96 W/m 12,5 C 22,9 C 3,2 km/h (1 Bft) 100,00 %
03.07.2019 20:26 22,9 C 26,7 C 23,9 C 52 % 1016,6 hPa 0,0 l/m 0,5 km/h (0 Bft) N-NW 346 2 min 0,000 mm 0,0 UV-I 93 W/m 12,5 C 22,9 C 1,6 km/h (1 Bft) 100,00 %
03.07.2019 20:28 22,8 C 26,7 C 23,3 C 53 % 1016,6 hPa 0,0 l/m 1,0 km/h (0 Bft) N-NW 345 2 min 0,000 mm 0,0 UV-I 90 W/m 12,7 C 22,8 C 3,2 km/h (1 Bft) 100,00 %
03.07.2019 20:30 22,7 C 26,7 C 22,8 C 52 % 1016,7 hPa 0,0 l/m 1,3 km/h (1 Bft) NO 38 2 min 0,000 mm 0,0 UV-I 86 W/m 12,3 C 22,7 C 3,2 km/h (1 Bft) 100,00 %
03.07.2019 20:32 22,7 C 26,7 C 22,8 C 52 % 1016,7 hPa 0,0 l/m 1,4 km/h (1 Bft) W-SW 243 2 min 0,000 mm 0,0 UV-I 82 W/m 12,3 C 22,7 C 3,2 km/h (1 Bft) 100,00 %
03.07.2019 20:34 22,5 C 26,7 C 22,2 C 55 % 1016,7 hPa 0,0 l/m 0,6 km/h (0 Bft) W-SW 243 2 min 0,000 mm 0,0 UV-I 77 W/m 13,0 C 22,5 C 3,2 km/h (1 Bft) 100,00 %
03.07.2019 20:36 22,4 C 26,7 C 22,2 C 54 % 1016,7 hPa 0,0 l/m 1,3 km/h (1 Bft) W-SW 245 2 min 0,000 mm 0,0 UV-I 73 W/m 12,6 C 22,4 C 3,2 km/h (1 Bft) 100,00 %
03.07.2019 20:38 22,4 C 26,7 C 22,2 C 53 % 1016,7 hPa 0,0 l/m 1,2 km/h (1 Bft) W-SW 245 2 min 0,000 mm 0,0 UV-I 69 W/m 12,3 C 22,4 C 3,2 km/h (1 Bft) 100,00 %
03.07.2019 20:40 22,3 C 26,7 C 21,7 C 54 % 1016,7 hPa 0,0 l/m 1,1 km/h (1 Bft) W-SW 246 2 min 0,000 mm 0,0 UV-I 66 W/m 12,5 C 22,3 C 1,6 km/h (1 Bft) 100,00 %
03.07.2019 20:42 22,2 C 26,7 C 21,7 C 54 % 1016,7 hPa 0,0 l/m 1,9 km/h (1 Bft) W-SW 246 2 min 0,000 mm 0,0 UV-I 44 W/m 12,4 C 22,2 C 3,2 km/h (1 Bft) 100,00 %
03.07.2019 20:44 22,2 C 26,7 C 21,1 C 55 % 1016,7 hPa 0,0 l/m 0,8 km/h (0 Bft) W-SW 246 2 min 0,000 mm 0,0 UV-I 39 W/m 12,7 C 22,2 C 1,6 km/h (1 Bft) 97,87 %
03.07.2019 20:46 22,0 C 26,1 C 21,1 C 55 % 1016,8 hPa 0,0 l/m 2,3 km/h (1 Bft) W-SW 246 2 min 0,000 mm 0,0 UV-I 34 W/m 12,5 C 22,0 C 3,2 km/h (1 Bft) 98,00 %
03.07.2019 20:48 21,9 C 26,1 C 21,1 C 55 % 1016,7 hPa 0,0 l/m 1,4 km/h (1 Bft) W 265 2 min 0,000 mm 0,0 UV-I 30 W/m 12,4 C 21,9 C 3,2 km/h (1 Bft) 93,62 %
03.07.2019 20:50 21,8 C 26,7 C 20,6 C 56 % 1016,8 hPa 0,0 l/m 1,3 km/h (1 Bft) W 267 2 min 0,000 mm 0,0 UV-I 25 W/m 12,6 C 21,8 C 3,2 km/h (1 Bft) 95,74 %
03.07.2019 20:52 21,8 C 26,7 C 20,6 C 56 % 1016,8 hPa 0,0 l/m 0,7 km/h (0 Bft) W 267 2 min 0,000 mm 0,0 UV-I 20 W/m 12,6 C 21,8 C 3,2 km/h (1 Bft) 97,87 %
03.07.2019 20:54 21,7 C 26,7 C 20,6 C 56 % 1016,8 hPa 0,0 l/m 1,4 km/h (1 Bft) W 267 2 min 0,000 mm 0,0 UV-I 15 W/m 12,5 C 21,7 C 3,2 km/h (1 Bft) 97,87 %
03.07.2019 20:56 21,7 C 26,1 C 20,0 C 56 % 1016,8 hPa 0,0 l/m 0,6 km/h (0 Bft) W 266 0 min 0,000 mm 0,0 UV-I 11 W/m 12,5 C 21,7 C 1,6 km/h (1 Bft) 97,87 %
03.07.2019 20:58 21,7 C 26,1 C 20,0 C 54 % 1016,8 hPa 0,0 l/m 0,6 km/h (0 Bft) W 266 0 min 0,000 mm 0,0 UV-I 6 W/m 12,0 C 21,7 C 1,6 km/h (1 Bft) 97,87 %
03.07.2019 21:00 21,8 C 26,1 C 20,0 C 54 % 1016,8 hPa 0,0 l/m 0,6 km/h (0 Bft) W 266 0 min 0,057 mm 0,0 UV-I 1 W/m 12,1 C 21,8 C 1,6 km/h (1 Bft) 95,74 %
03.07.2019 21:02 21,8 C 26,1 C 19,4 C 54 % 1016,9 hPa 0,0 l/m 0,9 km/h (0 Bft) W 267 0 min 0,000 mm 0,0 UV-I 0 W/m 12,1 C 21,8 C 3,2 km/h (1 Bft) 91,43 %
03.07.2019 21:04 21,8 C 26,1 C 19,4 C 54 % 1016,8 hPa 0,0 l/m 1,3 km/h (1 Bft) W-SW 250 0 min 0,000 mm 0,0 UV-I 0 W/m 12,1 C 21,8 C 3,2 km/h (1 Bft) 96,00 %
03.07.2019 21:06 21,9 C 26,1 C 19,4 C 53 % 1016,9 hPa 0,0 l/m 0,1 km/h (0 Bft) W-SW 250 0 min 0,000 mm 0,0 UV-I 0 W/m 11,9 C 21,9 C 1,6 km/h (1 Bft) 91,49 %
03.07.2019 21:08 22,0 C 26,1 C 19,4 C 52 % 1016,8 hPa 0,0 l/m 0,1 km/h (0 Bft) W-SW 250 0 min 0,000 mm 0,0 UV-I 0 W/m 11,7 C 22,0 C 1,6 km/h (1 Bft) 93,62 %
03.07.2019 21:10 21,9 C 26,1 C 18,9 C 53 % 1016,9 hPa 0,0 l/m 1,2 km/h (1 Bft) W-SW 250 0 min 0,019 mm 0,0 UV-I 14 W/m 11,9 C 21,9 C 3,2 km/h (1 Bft) 93,62 %
03.07.2019 21:12 21,9 C 26,1 C 18,9 C 53 % 1016,9 hPa 0,0 l/m 0,9 km/h (0 Bft) W-SW 250 0 min 0,000 mm 0,0 UV-I 11 W/m 11,9 C 21,9 C 1,6 km/h (1 Bft) 93,75 %
03.07.2019 21:14 21,8 C 26,1 C 18,9 C 53 % 1016,9 hPa 0,0 l/m 2,0 km/h (1 Bft) W-SW 250 0 min 0,000 mm 0,0 UV-I 11 W/m 11,8 C 21,8 C 3,2 km/h (1 Bft) 95,74 %
03.07.2019 21:16 21,8 C 26,1 C 18,9 C 53 % 1016,9 hPa 0,0 l/m 1,3 km/h (1 Bft) W-SW 250 0 min 0,000 mm 0,0 UV-I 11 W/m 11,8 C 21,8 C 3,2 km/h (1 Bft) 93,62 %
03.07.2019 21:18 21,7 C 26,1 C 18,9 C 56 % 1016,9 hPa 0,0 l/m 1,7 km/h (1 Bft) W-SW 250 0 min 0,000 mm 0,0 UV-I 11 W/m 12,5 C 21,7 C 3,2 km/h (1 Bft) 95,74 %
03.07.2019 21:20 21,2 C 26,1 C 18,9 C 61 % 1016,9 hPa 0,0 l/m 1,4 km/h (1 Bft) W-SW 250 0 min 0,000 mm 0,0 UV-I 10 W/m 13,4 C 21,2 C 3,2 km/h (1 Bft) 95,74 %
03.07.2019 21:22 20,6 C 26,1 C 18,3 C 64 % 1017,0 hPa 0,0 l/m 1,9 km/h (1 Bft) W-SW 250 0 min 0,000 mm 0,0 UV-I 8 W/m 13,5 C 20,6 C 3,2 km/h (1 Bft) 95,74 %
03.07.2019 21:24 20,3 C 26,1 C 18,3 C 63 % 1017,0 hPa 0,0 l/m 2,6 km/h (1 Bft) W-SW 250 0 min 0,000 mm 0,0 UV-I 0 W/m 13,0 C 20,3 C 3,2 km/h (1 Bft) 97,87 %
03.07.2019 21:26 20,1 C 26,1 C 17,8 C 64 % 1017,1 hPa 0,0 l/m 2,9 km/h (1 Bft) W-SW 249 0 min 0,000 mm 0,0 UV-I 0 W/m 13,1 C 20,1 C 3,2 km/h (1 Bft) 95,74 %
03.07.2019 21:28 19,9 C 26,1 C 17,8 C 65 % 1017,1 hPa 0,0 l/m 3,2 km/h (1 Bft) W-SW 248 0 min 0,000 mm 0,0 UV-I 5 W/m 13,1 C 19,9 C 4,8 km/h (1 Bft) 93,62 %
03.07.2019 21:30 19,8 C 26,1 C 17,8 C 65 % 1017,1 hPa 0,0 l/m 3,7 km/h (1 Bft) W-SW 240 0 min 0,000 mm 0,0 UV-I 0 W/m 13,0 C 19,8 C 4,8 km/h (1 Bft) 93,62 %
03.07.2019 21:32 19,7 C 26,1 C 17,8 C 66 % 1017,1 hPa 0,0 l/m 3,6 km/h (1 Bft) W-SW 239 0 min 0,000 mm 0,0 UV-I 0 W/m 13,2 C 19,7 C 6,4 km/h (2 Bft) 92,00 %
03.07.2019 21:34 19,6 C 26,1 C 17,8 C 68 % 1017,1 hPa 0,0 l/m 3,4 km/h (1 Bft) W-SW 239 0 min 0,000 mm 0,0 UV-I 0 W/m 13,5 C 19,6 C 4,8 km/h (1 Bft) 93,62 %
03.07.2019 21:36 19,5 C 26,1 C 17,8 C 68 % 1017,1 hPa 0,0 l/m 4,1 km/h (1 Bft) SW 226 0 min 0,000 mm 0,0 UV-I 0 W/m 13,4 C 19,5 C 6,4 km/h (2 Bft) 93,62 %
03.07.2019 21:38 19,7 C 26,1 C 18,3 C 67 % 1017,2 hPa 0,0 l/m 4,0 km/h (1 Bft) SW 225 0 min 0,000 mm 0,0 UV-I 0 W/m 13,4 C 19,7 C 6,4 km/h (2 Bft) 96,00 %
03.07.2019 21:40 19,9 C 26,1 C 18,3 C 66 % 1017,2 hPa 0,0 l/m 3,6 km/h (1 Bft) SW 225 0 min 0,000 mm 0,0 UV-I 0 W/m 13,4 C 19,9 C 4,8 km/h (1 Bft) 93,62 %
03.07.2019 21:42 19,9 C 26,1 C 18,3 C 65 % 1017,2 hPa 0,0 l/m 3,7 km/h (1 Bft) SW 217 0 min 0,000 mm 0,0 UV-I 0 W/m 13,1 C 19,9 C 6,4 km/h (2 Bft) 93,62 %
03.07.2019 21:44 19,8 C 26,1 C 17,8 C 65 % 1017,2 hPa 0,0 l/m 3,5 km/h (1 Bft) SW 217 0 min 0,000 mm 0,0 UV-I 0 W/m 13,0 C 19,8 C 4,8 km/h (1 Bft) 93,62 %
03.07.2019 21:46 19,7 C 26,1 C 17,8 C 65 % 1017,2 hPa 0,0 l/m 3,4 km/h (1 Bft) SW 217 0 min 0,000 mm 0,0 UV-I 0 W/m 12,9 C 19,7 C 4,8 km/h (1 Bft) 92,68 %
03.07.2019 21:48 19,6 C 26,1 C 17,8 C 66 % 1017,2 hPa 0,0 l/m 3,2 km/h (1 Bft) SW 217 0 min 0,000 mm 0,0 UV-I 0 W/m 13,1 C 19,6 C 4,8 km/h (1 Bft) 96,00 %
03.07.2019 21:50 19,5 C 26,1 C 17,8 C 67 % 1017,2 hPa 0,0 l/m 3,2 km/h (1 Bft) SW 217 0 min 0,000 mm 0,0 UV-I 0 W/m 13,2 C 19,5 C 4,8 km/h (1 Bft) 93,62 %
03.07.2019 21:52 19,4 C 26,1 C 17,2 C 67 % 1017,2 hPa 0,0 l/m 2,2 km/h (1 Bft) SW 217 0 min 0,000 mm 0,0 UV-I 0 W/m 13,1 C 19,4 C 3,2 km/h (1 Bft) 93,62 %
03.07.2019 21:54 19,4 C 26,1 C 17,2 C 67 % 1017,3 hPa 0,0 l/m 3,0 km/h (1 Bft) SW 217 0 min 0,000 mm 0,0 UV-I 0 W/m 13,1 C 19,4 C 4,8 km/h (1 Bft) 95,74 %
03.07.2019 21:56 19,3 C 26,1 C 17,2 C 68 % 1017,3 hPa 0,0 l/m 3,0 km/h (1 Bft) SW 217 0 min 0,000 mm 0,0 UV-I 0 W/m 13,2 C 19,3 C 4,8 km/h (1 Bft) 97,92 %
03.07.2019 21:58 19,3 C 26,1 C 17,2 C 69 % 1017,3 hPa 0,0 l/m 3,2 km/h (1 Bft) SW 217 0 min 0,000 mm 0,0 UV-I 0 W/m 13,5 C 19,3 C 4,8 km/h (1 Bft) 97,87 %
03.07.2019 22:00 19,2 C 26,1 C 17,2 C 70 % 1017,4 hPa 0,0 l/m 3,9 km/h (1 Bft) SW 217 0 min 0,000 mm 0,0 UV-I 0 W/m 13,6 C 19,2 C 6,4 km/h (2 Bft) 95,74 %
03.07.2019 22:02 19,2 C 26,1 C 16,7 C 70 % 1017,3 hPa 0,0 l/m 3,8 km/h (1 Bft) SW 217 0 min 0,026 mm 0,0 UV-I 0 W/m 13,6 C 19,2 C 4,8 km/h (1 Bft) 100,00 %
03.07.2019 22:04 19,1 C 26,1 C 16,7 C 70 % 1017,4 hPa 0,0 l/m 4,7 km/h (1 Bft) SW 215 0 min 0,000 mm 0,0 UV-I 0 W/m 13,5 C 19,1 C 6,4 km/h (2 Bft) 96,23 %
03.07.2019 22:06 18,8 C 26,1 C 16,7 C 70 % 1017,4 hPa 0,0 l/m 3,8 km/h (1 Bft) SW 214 0 min 0,000 mm 0,0 UV-I 0 W/m 13,2 C 18,8 C 4,8 km/h (1 Bft) 100,00 %
03.07.2019 22:08 18,7 C 26,1 C 16,7 C 71 % 1017,4 hPa 0,0 l/m 3,7 km/h (1 Bft) S-SW 209 0 min 0,000 mm 0,0 UV-I 0 W/m 13,3 C 18,7 C 6,4 km/h (2 Bft) 100,00 %
03.07.2019 22:10 18,6 C 26,1 C 16,7 C 70 % 1017,4 hPa 0,0 l/m 3,8 km/h (1 Bft) S-SW 209 0 min 0,000 mm 0,0 UV-I 0 W/m 13,0 C 18,6 C 4,8 km/h (1 Bft) 100,00 %
03.07.2019 22:12 18,7 C 26,1 C 16,7 C 70 % 1017,4 hPa 0,0 l/m 3,1 km/h (1 Bft) S-SW 209 0 min 0,000 mm 0,0 UV-I 0 W/m 13,1 C 18,7 C 4,8 km/h (1 Bft) 100,00 %
03.07.2019 22:14 18,7 C 26,1 C 16,7 C 70 % 1017,5 hPa 0,0 l/m 3,9 km/h (1 Bft) S-SW 209 0 min 0,000 mm 0,0 UV-I 0 W/m 13,1 C 18,7 C 4,8 km/h (1 Bft) 95,74 %
03.07.2019 22:16 18,7 C 26,1 C 16,7 C 70 % 1017,5 hPa 0,0 l/m 3,8 km/h (1 Bft) S-SW 209 0 min 0,000 mm 0,0 UV-I 0 W/m 13,1 C 18,7 C 4,8 km/h (1 Bft) 95,74 %
03.07.2019 22:19 18,7 C 26,1 C 16,7 C 69 % 1017,5 hPa 0,0 l/m 4,6 km/h (1 Bft) S-SW 207 0 min 0,000 mm 0,0 UV-I 0 W/m 12,9 C 18,7 C 6,4 km/h (2 Bft) 100,00 %
03.07.2019 22:20 18,8 C 26,1 C 16,7 C 69 % 1017,5 hPa 0,0 l/m 5,5 km/h (1 Bft) S-SW 201 0 min 0,000 mm 0,0 UV-I 0 W/m 13,0 C 18,8 C 6,4 km/h (2 Bft) 95,65 %
03.07.2019 22:22 18,8 C 26,1 C 16,7 C 69 % 1017,5 hPa 0,0 l/m 5,6 km/h (1 Bft) S-SW 192 0 min 0,000 mm 0,0 UV-I 0 W/m 13,0 C 18,8 C 6,4 km/h (2 Bft) 100,00 %
03.07.2019 22:24 18,7 C 26,1 C 16,7 C 68 % 1017,6 hPa 0,0 l/m 5,6 km/h (1 Bft) S-SW 194 0 min 0,000 mm 0,0 UV-I 0 W/m 12,7 C 18,7 C 8,0 km/h (2 Bft) 100,00 %
03.07.2019 22:26 18,6 C 26,1 C 16,7 C 69 % 1017,6 hPa 0,0 l/m 5,1 km/h (1 Bft) S-SW 193 0 min 0,000 mm 0,0 UV-I 0 W/m 12,8 C 18,6 C 6,4 km/h (2 Bft) 100,00 %
03.07.2019 22:28 18,6 C 26,1 C 16,7 C 69 % 1017,6 hPa 0,0 l/m 3,5 km/h (1 Bft) S-SW 194 0 min 0,000 mm 0,0 UV-I 0 W/m 12,8 C 18,6 C 4,8 km/h (1 Bft) 98,00 %
03.07.2019 22:30 18,5 C 26,1 C 16,7 C 70 % 1017,7 hPa 0,0 l/m 3,4 km/h (1 Bft) SW 219 0 min 0,000 mm 0,0 UV-I 0 W/m 12,9 C 18,5 C 8,0 km/h (2 Bft) 95,74 %
03.07.2019 22:32 18,5 C 26,1 C 16,7 C 70 % 1017,7 hPa 0,0 l/m 2,5 km/h (1 Bft) SW 219 0 min 0,000 mm 0,0 UV-I 0 W/m 12,9 C 18,5 C 4,8 km/h (1 Bft) 95,83 %
03.07.2019 22:34 18,5 C 26,1 C 16,7 C 70 % 1017,8 hPa 0,0 l/m 3,0 km/h (1 Bft) SW 219 0 min 0,000 mm 0,0 UV-I 0 W/m 12,9 C 18,5 C 4,8 km/h (1 Bft) 95,74 %
03.07.2019 22:36 18,4 C 26,1 C 16,1 C 70 % 1017,8 hPa 0,0 l/m 3,5 km/h (1 Bft) SW 220 0 min 0,000 mm 0,0 UV-I 0 W/m 12,8 C 18,4 C 4,8 km/h (1 Bft) 95,74 %
03.07.2019 22:38 18,4 C 26,1 C 16,1 C 70 % 1017,7 hPa 0,0 l/m 2,7 km/h (1 Bft) SW 220 0 min 0,000 mm 0,0 UV-I 0 W/m 12,8 C 18,4 C 4,8 km/h (1 Bft) 97,87 %
03.07.2019 22:40 18,4 C 26,1 C 16,1 C 70 % 1017,8 hPa 0,0 l/m 2,3 km/h (1 Bft) SW 220 0 min 0,000 mm 0,0 UV-I 0 W/m 12,8 C 18,4 C 3,2 km/h (1 Bft) 95,74 %
03.07.2019 22:42 18,6 C 26,1 C 16,1 C 69 % 1017,7 hPa 0,0 l/m 3,2 km/h (1 Bft) SW 220 0 min 0,000 mm 0,0 UV-I 0 W/m 12,8 C 18,6 C 4,8 km/h (1 Bft) 97,87 %
03.07.2019 22:44 18,8 C 26,1 C 16,1 C 68 % 1017,7 hPa 0,0 l/m 2,3 km/h (1 Bft) SW 220 0 min 0,000 mm 0,0 UV-I 0 W/m 12,8 C 18,8 C 3,2 km/h (1 Bft) 97,87 %
03.07.2019 22:46 18,9 C 26,1 C 16,1 C 68 % 1017,7 hPa 0,0 l/m 2,4 km/h (1 Bft) SW 220 0 min 0,000 mm 0,0 UV-I 0 W/m 12,9 C 18,9 C 3,2 km/h (1 Bft) 97,87 %
03.07.2019 22:48 18,8 C 26,1 C 16,1 C 69 % 1017,7 hPa 0,0 l/m 2,0 km/h (1 Bft) SW 220 0 min 0,000 mm 0,0 UV-I 0 W/m 13,0 C 18,8 C 3,2 km/h (1 Bft) 98,00 %
03.07.2019 22:50 18,8 C 26,1 C 16,1 C 69 % 1017,7 hPa 0,0 l/m 2,4 km/h (1 Bft) SW 220 0 min 0,000 mm 0,0 UV-I 0 W/m 13,0 C 18,8 C 3,2 km/h (1 Bft) 97,56 %
03.07.2019 22:52 18,8 C 26,1 C 16,1 C 69 % 1017,8 hPa 0,0 l/m 3,2 km/h (1 Bft) SW 220 0 min 0,000 mm 0,0 UV-I 0 W/m 13,0 C 18,8 C 4,8 km/h (1 Bft) 100,00 %
03.07.2019 22:54 18,7 C 26,1 C 16,1 C 70 % 1017,8 hPa 0,0 l/m 3,1 km/h (1 Bft) SW 220 0 min 0,000 mm 0,0 UV-I 0 W/m 13,1 C 18,7 C 4,8 km/h (1 Bft) 100,00 %
03.07.2019 22:56 18,6 C 26,1 C 16,1 C 70 % 1017,9 hPa 0,0 l/m 2,8 km/h (1 Bft) SW 220 0 min 0,000 mm 0,0 UV-I 0 W/m 13,0 C 18,6 C 3,2 km/h (1 Bft) 100,00 %
03.07.2019 22:58 18,5 C 26,1 C 16,1 C 70 % 1017,9 hPa 0,0 l/m 2,7 km/h (1 Bft) SW 220 0 min 0,000 mm 0,0 UV-I 0 W/m 12,9 C 18,5 C 3,2 km/h (1 Bft) 97,87 %
03.07.2019 23:00 18,4 C 26,1 C 16,1 C 71 % 1017,9 hPa 0,0 l/m 3,1 km/h (1 Bft) SW 220 0 min 0,000 mm 0,0 UV-I 0 W/m 13,0 C 18,4 C 4,8 km/h (1 Bft) 100,00 %
03.07.2019 23:02 18,3 C 26,1 C 16,1 C 70 % 1018,0 hPa 0,0 l/m 2,6 km/h (1 Bft) SW 220 0 min 0,025 mm 0,0 UV-I 0 W/m 12,7 C 18,3 C 3,2 km/h (1 Bft) 97,87 %
03.07.2019 23:04 18,5 C 26,1 C 16,1 C 70 % 1018,1 hPa 0,0 l/m 3,8 km/h (1 Bft) SW 220 0 min 0,000 mm 0,0 UV-I 0 W/m 12,9 C 18,5 C 4,8 km/h (1 Bft) 97,87 %
03.07.2019 23:06 18,6 C 26,1 C 16,7 C 69 % 1018,0 hPa 0,0 l/m 4,3 km/h (1 Bft) SW 220 0 min 0,000 mm 0,0 UV-I 0 W/m 12,8 C 18,6 C 4,8 km/h (1 Bft) 97,87 %
03.07.2019 23:08 18,6 C 26,1 C 16,7 C 69 % 1018,0 hPa 0,0 l/m 4,6 km/h (1 Bft) SW 220 0 min 0,000 mm 0,0 UV-I 0 W/m 12,8 C 18,6 C 6,4 km/h (2 Bft) 100,00 %
03.07.2019 23:10 18,4 C 26,1 C 16,7 C 70 % 1018,0 hPa 0,0 l/m 2,9 km/h (1 Bft) SW 220 0 min 0,000 mm 0,0 UV-I 0 W/m 12,8 C 18,4 C 6,4 km/h (2 Bft) 100,00 %
03.07.2019 23:12 18,3 C 26,1 C 16,7 C 73 % 1018,0 hPa 0,0 l/m 2,3 km/h (1 Bft) SW 220 0 min 0,000 mm 0,0 UV-I 0 W/m 13,4 C 18,3 C 3,2 km/h (1 Bft) 100,00 %
03.07.2019 23:14 18,3 C 26,1 C 16,7 C 72 % 1018,0 hPa 0,0 l/m 3,1 km/h (1 Bft) SW 220 0 min 0,000 mm 0,0 UV-I 0 W/m 13,2 C 18,3 C 4,8 km/h (1 Bft) 100,00 %
03.07.2019 23:16 18,3 C 26,1 C 16,7 C 70 % 1018,0 hPa 0,0 l/m 4,0 km/h (1 Bft) SW 220 0 min 0,000 mm 0,0 UV-I 0 W/m 12,7 C 18,3 C 4,8 km/h (1 Bft) 100,00 %
03.07.2019 23:19 18,1 C 26,1 C 16,7 C 72 % 1018,0 hPa 0,0 l/m 4,2 km/h (1 Bft) SW 220 0 min 0,000 mm 0,0 UV-I 0 W/m 13,0 C 18,1 C 6,4 km/h (2 Bft) 100,00 %
03.07.2019 23:20 17,9 C 26,1 C 16,1 C 71 % 1018,0 hPa 0,0 l/m 4,0 km/h (1 Bft) SW 220 0 min 0,000 mm 0,0 UV-I 0 W/m 12,6 C 17,9 C 4,8 km/h (1 Bft) 96,30 %
03.07.2019 23:22 17,8 C 26,1 C 16,1 C 72 % 1018,0 hPa 0,0 l/m 4,3 km/h (1 Bft) SW 220 0 min 0,000 mm 0,0 UV-I 0 W/m 12,7 C 17,8 C 6,4 km/h (2 Bft) 100,00 %
03.07.2019 23:24 17,7 C 26,1 C 15,6 C 72 % 1018,0 hPa 0,0 l/m 4,9 km/h (1 Bft) S-SW 205 0 min 0,000 mm 0,0 UV-I 0 W/m 12,6 C 17,7 C 6,4 km/h (2 Bft) 100,00 %
03.07.2019 23:26 17,7 C 26,1 C 15,6 C 72 % 1018,0 hPa 0,0 l/m 3,8 km/h (1 Bft) S-SW 205 0 min 0,000 mm 0,0 UV-I 0 W/m 12,6 C 17,7 C 6,4 km/h (2 Bft) 100,00 %
03.07.2019 23:29 17,6 C 26,1 C 15,6 C 72 % 1018,0 hPa 0,0 l/m 3,3 km/h (1 Bft) S-SW 205 0 min 0,000 mm 0,0 UV-I 0 W/m 12,5 C 17,6 C 4,8 km/h (1 Bft) 98,57 %
03.07.2019 23:30 17,6 C 26,1 C 15,6 C 72 % 1018,0 hPa 0,0 l/m 2,6 km/h (1 Bft) S-SW 205 0 min 0,000 mm 0,0 UV-I 0 W/m 12,5 C 17,6 C 3,2 km/h (1 Bft) 100,00 %
03.07.2019 23:32 17,7 C 26,1 C 15,6 C 71 % 1018,0 hPa 0,0 l/m 3,0 km/h (1 Bft) S-SW 205 0 min 0,000 mm 0,0 UV-I 0 W/m 12,4 C 17,7 C 4,8 km/h (1 Bft) 97,87 %
03.07.2019 23:34 17,8 C 26,1 C 15,0 C 71 % 1018,0 hPa 0,0 l/m 2,5 km/h (1 Bft) S-SW 205 0 min 0,000 mm 0,0 UV-I 0 W/m 12,5 C 17,8 C 3,2 km/h (1 Bft) 97,87 %
03.07.2019 23:36 17,8 C 26,1 C 15,0 C 71 % 1018,1 hPa 0,0 l/m 1,6 km/h (1 Bft) S-SW 205 0 min 0,000 mm 0,0 UV-I 0 W/m 12,5 C 17,8 C 3,2 km/h (1 Bft) 95,74 %
03.07.2019 23:39 17,9 C 26,1 C 15,0 C 70 % 1018,2 hPa 0,0 l/m 1,5 km/h (1 Bft) S-SW 205 0 min 0,000 mm 0,0 UV-I 0 W/m 12,3 C 17,9 C 3,2 km/h (1 Bft) 95,77 %
03.07.2019 23:40 17,9 C 26,1 C 15,0 C 71 % 1018,2 hPa 0,0 l/m 2,9 km/h (1 Bft) S-SW 205 0 min 0,000 mm 0,0 UV-I 0 W/m 12,6 C 17,9 C 3,2 km/h (1 Bft) 100,00 %
03.07.2019 23:42 17,8 C 26,1 C 15,6 C 73 % 1018,2 hPa 0,0 l/m 3,2 km/h (1 Bft) S-SW 205 0 min 0,000 mm 0,0 UV-I 0 W/m 12,9 C 17,8 C 4,8 km/h (1 Bft) 97,14 %
03.07.2019 23:44 17,6 C 26,1 C 15,6 C 73 % 1018,2 hPa 0,0 l/m 3,6 km/h (1 Bft) S-SW 205 0 min 0,000 mm 0,0 UV-I 0 W/m 12,7 C 17,6 C 4,8 km/h (1 Bft) 98,11 %
03.07.2019 23:46 17,3 C 26,1 C 15,6 C 73 % 1018,2 hPa 0,0 l/m 3,4 km/h (1 Bft) S-SW 205 0 min 0,000 mm 0,0 UV-I 0 W/m 12,4 C 17,3 C 4,8 km/h (1 Bft) 95,74 %
03.07.2019 23:49 17,1 C 26,1 C 15,0 C 74 % 1018,2 hPa 0,0 l/m 2,6 km/h (1 Bft) S-SW 205 0 min 0,000 mm 0,0 UV-I 0 W/m 12,4 C 17,1 C 4,8 km/h (1 Bft) 97,18 %
03.07.2019 23:50 16,9 C 26,1 C 15,0 C 75 % 1018,2 hPa 0,0 l/m 3,4 km/h (1 Bft) S-SW 205 0 min 0,000 mm 0,0 UV-I 0 W/m 12,4 C 16,9 C 4,8 km/h (1 Bft) 95,83 %
03.07.2019 23:52 16,9 C 26,1 C 15,0 C 74 % 1018,2 hPa 0,0 l/m 3,2 km/h (1 Bft) S-SW 205 0 min 0,000 mm 0,0 UV-I 0 W/m 12,2 C 16,9 C 4,8 km/h (1 Bft) 95,74 %
03.07.2019 23:54 17,1 C 26,1 C 15,0 C 73 % 1018,2 hPa 0,0 l/m 2,6 km/h (1 Bft) S-SW 205 0 min 0,000 mm 0,0 UV-I 0 W/m 12,2 C 17,1 C 4,8 km/h (1 Bft) 93,62 %
03.07.2019 23:56 17,3 C 26,1 C 15,0 C 72 % 1018,2 hPa 0,0 l/m 2,2 km/h (1 Bft) S-SW 205 0 min 0,000 mm 0,0 UV-I 0 W/m 12,2 C 17,3 C 3,2 km/h (1 Bft) 92,11 %
03.07.2019 23:58 17,4 C 26,1 C 15,0 C 73 % 1018,2 hPa 0,0 l/m 2,3 km/h (1 Bft) S-SW 205 0 min 0,000 mm 0,0 UV-I 0 W/m 12,5 C 17,4 C 3,2 km/h (1 Bft) 94,55 %
_ Min-Zeit 04:06 06:28 02:56 16:04 00:22 - 21:06 - - - - - - 09:08 07:06 01:08 05:48
Minimum _ 15,6 C 25,0 C 13,9 C 41 % 1015,9 hPa - 0,1 km/h (0 Bft) - - - - - - 9,8 C 13,1 C 1,6 km/h (1 Bft) 89,36 %
_ Max-Zeit 16:40 00:00 11:58 00:54 09:02 00:00 08:36 - - 06:49 13:02 13:04 13:02 00:06 16:40 08:36 00:40
Maximum _ 26,9 C 26,7 C 39,4 C 88 % 1018,5 hPa 0,0 l/m 17,2 km/h
O-NO (3 Bft)
- - 3 min 0,584 mm 6,4 UV-I 1036 W/m 15,8 C 26,9 C 24,1 km/h
O (4 Bft)
100,00 %
Durchschnitt _ 20,6 C 26,0 C 24,4 C 60 % 1017,3 hPa #0,0 l/m 6,2 km/h (2 Bft) NO - #12:22 h #5,461 mm 3,2 UV-I 453 W/m 12,2 C 20,1 C 10,2 km/h (2 Bft) 97,09 %